<?xml version="1.0" encoding="UTF-8" standalone="no" ?>
<gpx xmlns="http://www.topografix.com/GPX/1/1" xmlns:xsi="http://www.w3.org/2001/XMLSchema-instance" xsi:schemaLocation="http://www.topografix.com/GPX/1/1 http://www.topografix.com/GPX/1/1/gpx.xsd" version="1.1" creator="VisuGPX - https://www.visugpx.com">
  <metadata>
    <name>lefarda VTT les Farges  34 Km</name>
    <desc><![CDATA[VTT les farges 34 Km]]></desc>
  </metadata>
  <trk>
    <name><![CDATA[Rando du Cheylard 2011 - Les Farges]]></name>
    <desc><![CDATA[Très belle rando, variée et physique]]></desc>
    <trkseg>
      <trkpt lat="45.11487" lon="1.18947">
        <ele>237.39999389648</ele>
        <time>2011-08-21T07:11:28.000Z</time>
      </trkpt>
      <trkpt lat="45.11493" lon="1.18921">
        <ele>238.39999389648</ele>
        <time>2011-08-21T07:11:35.000Z</time>
      </trkpt>
      <trkpt lat="45.11499" lon="1.18892">
        <ele>238.60000610352</ele>
        <time>2011-08-21T07:11:41.000Z</time>
      </trkpt>
      <trkpt lat="45.11501" lon="1.1888">
        <ele>238.60000610352</ele>
        <time>2011-08-21T07:11:43.000Z</time>
      </trkpt>
      <trkpt lat="45.11501" lon="1.18825">
        <ele>239.39999389648</ele>
        <time>2011-08-21T07:11:52.000Z</time>
      </trkpt>
      <trkpt lat="45.11497" lon="1.18775">
        <ele>240.19999694824</ele>
        <time>2011-08-21T07:12:00.000Z</time>
      </trkpt>
      <trkpt lat="45.11493" lon="1.18737">
        <ele>240</ele>
        <time>2011-08-21T07:12:05.000Z</time>
      </trkpt>
      <trkpt lat="45.11489" lon="1.18699">
        <ele>239.19999694824</ele>
        <time>2011-08-21T07:12:10.000Z</time>
      </trkpt>
      <trkpt lat="45.11477" lon="1.18652">
        <ele>237.60000610352</ele>
        <time>2011-08-21T07:12:15.000Z</time>
      </trkpt>
      <trkpt lat="45.11455" lon="1.186">
        <ele>234.80000305176</ele>
        <time>2011-08-21T07:12:20.000Z</time>
      </trkpt>
      <trkpt lat="45.11434" lon="1.1856">
        <ele>232.19999694824</ele>
        <time>2011-08-21T07:12:24.000Z</time>
      </trkpt>
      <trkpt lat="45.11406" lon="1.18528">
        <ele>227.19999694824</ele>
        <time>2011-08-21T07:12:28.000Z</time>
      </trkpt>
      <trkpt lat="45.11345" lon="1.18479">
        <ele>221.39999389648</ele>
        <time>2011-08-21T07:12:34.000Z</time>
      </trkpt>
      <trkpt lat="45.11325" lon="1.18463">
        <ele>221</ele>
        <time>2011-08-21T07:12:36.000Z</time>
      </trkpt>
      <trkpt lat="45.11289" lon="1.18413">
        <ele>221.39999389648</ele>
        <time>2011-08-21T07:12:41.000Z</time>
      </trkpt>
      <trkpt lat="45.11268" lon="1.18365">
        <ele>223.39999389648</ele>
        <time>2011-08-21T07:12:46.000Z</time>
      </trkpt>
      <trkpt lat="45.11259" lon="1.18349">
        <ele>224.19999694824</ele>
        <time>2011-08-21T07:12:48.000Z</time>
      </trkpt>
      <trkpt lat="45.11219" lon="1.18312">
        <ele>226.19999694824</ele>
        <time>2011-08-21T07:12:55.000Z</time>
      </trkpt>
      <trkpt lat="45.11186" lon="1.18289">
        <ele>224.80000305176</ele>
        <time>2011-08-21T07:13:00.000Z</time>
      </trkpt>
      <trkpt lat="45.1114" lon="1.18258">
        <ele>221.60000610352</ele>
        <time>2011-08-21T07:13:06.000Z</time>
      </trkpt>
      <trkpt lat="45.11098" lon="1.18243">
        <ele>216.80000305176</ele>
        <time>2011-08-21T07:13:10.000Z</time>
      </trkpt>
      <trkpt lat="45.11043" lon="1.18202">
        <ele>211</ele>
        <time>2011-08-21T07:13:15.000Z</time>
      </trkpt>
      <trkpt lat="45.11014" lon="1.18168">
        <ele>209.60000610352</ele>
        <time>2011-08-21T07:13:18.000Z</time>
      </trkpt>
      <trkpt lat="45.10957" lon="1.18117">
        <ele>208.19999694824</ele>
        <time>2011-08-21T07:13:24.000Z</time>
      </trkpt>
      <trkpt lat="45.10929" lon="1.18078">
        <ele>208</ele>
        <time>2011-08-21T07:13:28.000Z</time>
      </trkpt>
      <trkpt lat="45.10901" lon="1.18029">
        <ele>207</ele>
        <time>2011-08-21T07:13:33.000Z</time>
      </trkpt>
      <trkpt lat="45.10893" lon="1.17976">
        <ele>205.19999694824</ele>
        <time>2011-08-21T07:13:37.000Z</time>
      </trkpt>
      <trkpt lat="45.10899" lon="1.17921">
        <ele>202.39999389648</ele>
        <time>2011-08-21T07:13:41.000Z</time>
      </trkpt>
      <trkpt lat="45.10887" lon="1.17883">
        <ele>201.60000610352</ele>
        <time>2011-08-21T07:13:44.000Z</time>
      </trkpt>
      <trkpt lat="45.1088" lon="1.17873">
        <ele>201.80000305176</ele>
        <time>2011-08-21T07:13:45.000Z</time>
      </trkpt>
      <trkpt lat="45.10856" lon="1.17836">
        <ele>202.39999389648</ele>
        <time>2011-08-21T07:13:49.000Z</time>
      </trkpt>
      <trkpt lat="45.1083" lon="1.17809">
        <ele>203.19999694824</ele>
        <time>2011-08-21T07:13:53.000Z</time>
      </trkpt>
      <trkpt lat="45.1081" lon="1.17797">
        <ele>204.19999694824</ele>
        <time>2011-08-21T07:13:56.000Z</time>
      </trkpt>
      <trkpt lat="45.10775" lon="1.17795">
        <ele>205</ele>
        <time>2011-08-21T07:14:01.000Z</time>
      </trkpt>
      <trkpt lat="45.10761" lon="1.17794">
        <ele>204.80000305176</ele>
        <time>2011-08-21T07:14:03.000Z</time>
      </trkpt>
      <trkpt lat="45.10739" lon="1.17786">
        <ele>205.19999694824</ele>
        <time>2011-08-21T07:14:06.000Z</time>
      </trkpt>
      <trkpt lat="45.107" lon="1.17768">
        <ele>203.80000305176</ele>
        <time>2011-08-21T07:14:11.000Z</time>
      </trkpt>
      <trkpt lat="45.10672" lon="1.1775">
        <ele>202.19999694824</ele>
        <time>2011-08-21T07:14:14.000Z</time>
      </trkpt>
      <trkpt lat="45.1064" lon="1.17708">
        <ele>198.80000305176</ele>
        <time>2011-08-21T07:14:18.000Z</time>
      </trkpt>
      <trkpt lat="45.10618" lon="1.17664">
        <ele>195.19999694824</ele>
        <time>2011-08-21T07:14:22.000Z</time>
      </trkpt>
      <trkpt lat="45.10581" lon="1.17622">
        <ele>191.80000305176</ele>
        <time>2011-08-21T07:14:27.000Z</time>
      </trkpt>
      <trkpt lat="45.10556" lon="1.17603">
        <ele>189.80000305176</ele>
        <time>2011-08-21T07:14:30.000Z</time>
      </trkpt>
      <trkpt lat="45.10526" lon="1.17574">
        <ele>188.39999389648</ele>
        <time>2011-08-21T07:14:34.000Z</time>
      </trkpt>
      <trkpt lat="45.10474" lon="1.17532">
        <ele>187</ele>
        <time>2011-08-21T07:14:41.000Z</time>
      </trkpt>
      <trkpt lat="45.10438" lon="1.17506">
        <ele>186.19999694824</ele>
        <time>2011-08-21T07:14:46.000Z</time>
      </trkpt>
      <trkpt lat="45.10404" lon="1.17491">
        <ele>186</ele>
        <time>2011-08-21T07:14:51.000Z</time>
      </trkpt>
      <trkpt lat="45.10378" lon="1.1747">
        <ele>183.80000305176</ele>
        <time>2011-08-21T07:14:55.000Z</time>
      </trkpt>
      <trkpt lat="45.10365" lon="1.17455">
        <ele>182.80000305176</ele>
        <time>2011-08-21T07:14:57.000Z</time>
      </trkpt>
      <trkpt lat="45.10329" lon="1.17438">
        <ele>180.19999694824</ele>
        <time>2011-08-21T07:15:01.000Z</time>
      </trkpt>
      <trkpt lat="45.10299" lon="1.17448">
        <ele>179.39999389648</ele>
        <time>2011-08-21T07:15:05.000Z</time>
      </trkpt>
      <trkpt lat="45.10278" lon="1.17452">
        <ele>179.80000305176</ele>
        <time>2011-08-21T07:15:08.000Z</time>
      </trkpt>
      <trkpt lat="45.10225" lon="1.17457">
        <ele>184.60000610352</ele>
        <time>2011-08-21T07:15:16.000Z</time>
      </trkpt>
      <trkpt lat="45.10201" lon="1.17461">
        <ele>189</ele>
        <time>2011-08-21T07:15:20.000Z</time>
      </trkpt>
      <trkpt lat="45.10175" lon="1.1748">
        <ele>195.19999694824</ele>
        <time>2011-08-21T07:15:25.000Z</time>
      </trkpt>
      <trkpt lat="45.10139" lon="1.17503">
        <ele>197.60000610352</ele>
        <time>2011-08-21T07:15:31.000Z</time>
      </trkpt>
      <trkpt lat="45.10116" lon="1.1753">
        <ele>201.80000305176</ele>
        <time>2011-08-21T07:15:36.000Z</time>
      </trkpt>
      <trkpt lat="45.10105" lon="1.17572">
        <ele>199.60000610352</ele>
        <time>2011-08-21T07:15:41.000Z</time>
      </trkpt>
      <trkpt lat="45.10105" lon="1.17582">
        <ele>199.19999694824</ele>
        <time>2011-08-21T07:15:42.000Z</time>
      </trkpt>
      <trkpt lat="45.10086" lon="1.17635">
        <ele>190</ele>
        <time>2011-08-21T07:15:46.000Z</time>
      </trkpt>
      <trkpt lat="45.10068" lon="1.17656">
        <ele>184</ele>
        <time>2011-08-21T07:15:48.000Z</time>
      </trkpt>
      <trkpt lat="45.10036" lon="1.17671">
        <ele>177.60000610352</ele>
        <time>2011-08-21T07:15:51.000Z</time>
      </trkpt>
      <trkpt lat="45.10016" lon="1.17662">
        <ele>175.19999694824</ele>
        <time>2011-08-21T07:15:53.000Z</time>
      </trkpt>
      <trkpt lat="45.0999" lon="1.17638">
        <ele>171.80000305176</ele>
        <time>2011-08-21T07:15:56.000Z</time>
      </trkpt>
      <trkpt lat="45.09972" lon="1.17621">
        <ele>168.80000305176</ele>
        <time>2011-08-21T07:15:58.000Z</time>
      </trkpt>
      <trkpt lat="45.09939" lon="1.17605">
        <ele>161.19999694824</ele>
        <time>2011-08-21T07:16:02.000Z</time>
      </trkpt>
      <trkpt lat="45.09929" lon="1.17614">
        <ele>158.60000610352</ele>
        <time>2011-08-21T07:16:04.000Z</time>
      </trkpt>
      <trkpt lat="45.09928" lon="1.17624">
        <ele>157.60000610352</ele>
        <time>2011-08-21T07:16:05.000Z</time>
      </trkpt>
      <trkpt lat="45.09913" lon="1.1771">
        <ele>152.60000610352</ele>
        <time>2011-08-21T07:16:13.000Z</time>
      </trkpt>
      <trkpt lat="45.09898" lon="1.17757">
        <ele>149.60000610352</ele>
        <time>2011-08-21T07:16:17.000Z</time>
      </trkpt>
      <trkpt lat="45.09893" lon="1.17768">
        <ele>148.80000305176</ele>
        <time>2011-08-21T07:16:18.000Z</time>
      </trkpt>
      <trkpt lat="45.0989" lon="1.17802">
        <ele>146.39999389648</ele>
        <time>2011-08-21T07:16:21.000Z</time>
      </trkpt>
      <trkpt lat="45.09905" lon="1.17814">
        <ele>145.19999694824</ele>
        <time>2011-08-21T07:16:23.000Z</time>
      </trkpt>
      <trkpt lat="45.09929" lon="1.1782">
        <ele>143.60000610352</ele>
        <time>2011-08-21T07:16:26.000Z</time>
      </trkpt>
      <trkpt lat="45.09945" lon="1.17822">
        <ele>142.80000305176</ele>
        <time>2011-08-21T07:16:28.000Z</time>
      </trkpt>
      <trkpt lat="45.09971" lon="1.1783">
        <ele>140.60000610352</ele>
        <time>2011-08-21T07:16:31.000Z</time>
      </trkpt>
      <trkpt lat="45.09988" lon="1.1784">
        <ele>138.39999389648</ele>
        <time>2011-08-21T07:16:33.000Z</time>
      </trkpt>
      <trkpt lat="45.10026" lon="1.17845">
        <ele>135.19999694824</ele>
        <time>2011-08-21T07:16:37.000Z</time>
      </trkpt>
      <trkpt lat="45.10035" lon="1.17843">
        <ele>135</ele>
        <time>2011-08-21T07:16:38.000Z</time>
      </trkpt>
      <trkpt lat="45.10069" lon="1.17845">
        <ele>134.80000305176</ele>
        <time>2011-08-21T07:16:42.000Z</time>
      </trkpt>
      <trkpt lat="45.10113" lon="1.17856">
        <ele>135</ele>
        <time>2011-08-21T07:16:48.000Z</time>
      </trkpt>
      <trkpt lat="45.10163" lon="1.17847">
        <ele>135.60000610352</ele>
        <time>2011-08-21T07:16:55.000Z</time>
      </trkpt>
      <trkpt lat="45.10223" lon="1.17829">
        <ele>134.80000305176</ele>
        <time>2011-08-21T07:17:03.000Z</time>
      </trkpt>
      <trkpt lat="45.10254" lon="1.17828">
        <ele>133.19999694824</ele>
        <time>2011-08-21T07:17:07.000Z</time>
      </trkpt>
      <trkpt lat="45.10275" lon="1.17846">
        <ele>132.80000305176</ele>
        <time>2011-08-21T07:17:10.000Z</time>
      </trkpt>
      <trkpt lat="45.10287" lon="1.17874">
        <ele>132</ele>
        <time>2011-08-21T07:17:13.000Z</time>
      </trkpt>
      <trkpt lat="45.10287" lon="1.17905">
        <ele>131.60000610352</ele>
        <time>2011-08-21T07:17:16.000Z</time>
      </trkpt>
      <trkpt lat="45.10277" lon="1.1793">
        <ele>132.19999694824</ele>
        <time>2011-08-21T07:17:19.000Z</time>
      </trkpt>
      <trkpt lat="45.10278" lon="1.17942">
        <ele>133</ele>
        <time>2011-08-21T07:17:21.000Z</time>
      </trkpt>
      <trkpt lat="45.10286" lon="1.17949">
        <ele>133.80000305176</ele>
        <time>2011-08-21T07:17:24.000Z</time>
      </trkpt>
      <trkpt lat="45.10303" lon="1.17954">
        <ele>136.19999694824</ele>
        <time>2011-08-21T07:17:30.000Z</time>
      </trkpt>
      <trkpt lat="45.10318" lon="1.17971">
        <ele>140.39999389648</ele>
        <time>2011-08-21T07:17:38.000Z</time>
      </trkpt>
      <trkpt lat="45.10329" lon="1.17988">
        <ele>143.80000305176</ele>
        <time>2011-08-21T07:17:46.000Z</time>
      </trkpt>
      <trkpt lat="45.10333" lon="1.18">
        <ele>145.19999694824</ele>
        <time>2011-08-21T07:17:51.000Z</time>
      </trkpt>
      <trkpt lat="45.10325" lon="1.17995">
        <ele>144.60000610352</ele>
        <time>2011-08-21T07:17:56.000Z</time>
      </trkpt>
      <trkpt lat="45.10318" lon="1.17987">
        <ele>142.60000610352</ele>
        <time>2011-08-21T07:18:00.000Z</time>
      </trkpt>
      <trkpt lat="45.10313" lon="1.17991">
        <ele>142.19999694824</ele>
        <time>2011-08-21T07:18:03.000Z</time>
      </trkpt>
      <trkpt lat="45.1031" lon="1.18007">
        <ele>142.19999694824</ele>
        <time>2011-08-21T07:18:08.000Z</time>
      </trkpt>
      <trkpt lat="45.10307" lon="1.18023">
        <ele>140.60000610352</ele>
        <time>2011-08-21T07:18:14.000Z</time>
      </trkpt>
      <trkpt lat="45.10304" lon="1.18036">
        <ele>138.80000305176</ele>
        <time>2011-08-21T07:18:16.000Z</time>
      </trkpt>
      <trkpt lat="45.10304" lon="1.18076">
        <ele>137.19999694824</ele>
        <time>2011-08-21T07:18:21.000Z</time>
      </trkpt>
      <trkpt lat="45.10305" lon="1.18117">
        <ele>137.60000610352</ele>
        <time>2011-08-21T07:18:27.000Z</time>
      </trkpt>
      <trkpt lat="45.10303" lon="1.18151">
        <ele>138.19999694824</ele>
        <time>2011-08-21T07:18:33.000Z</time>
      </trkpt>
      <trkpt lat="45.10288" lon="1.1817">
        <ele>137</ele>
        <time>2011-08-21T07:18:37.000Z</time>
      </trkpt>
      <trkpt lat="45.10281" lon="1.18174">
        <ele>137.19999694824</ele>
        <time>2011-08-21T07:18:38.000Z</time>
      </trkpt>
      <trkpt lat="45.10264" lon="1.18182">
        <ele>139</ele>
        <time>2011-08-21T07:18:42.000Z</time>
      </trkpt>
      <trkpt lat="45.10252" lon="1.18189">
        <ele>142.60000610352</ele>
        <time>2011-08-21T07:18:48.000Z</time>
      </trkpt>
      <trkpt lat="45.1024" lon="1.18196">
        <ele>145.60000610352</ele>
        <time>2011-08-21T07:18:55.000Z</time>
      </trkpt>
      <trkpt lat="45.10225" lon="1.18208">
        <ele>150</ele>
        <time>2011-08-21T07:19:04.000Z</time>
      </trkpt>
      <trkpt lat="45.10214" lon="1.18224">
        <ele>154.60000610352</ele>
        <time>2011-08-21T07:19:13.000Z</time>
      </trkpt>
      <trkpt lat="45.10213" lon="1.18226">
        <ele>154.80000305176</ele>
        <time>2011-08-21T07:19:14.000Z</time>
      </trkpt>
      <trkpt lat="45.10202" lon="1.18239">
        <ele>157</ele>
        <time>2011-08-21T07:19:22.000Z</time>
      </trkpt>
      <trkpt lat="45.10193" lon="1.18257">
        <ele>158</ele>
        <time>2011-08-21T07:19:30.000Z</time>
      </trkpt>
      <trkpt lat="45.10192" lon="1.18283">
        <ele>159.60000610352</ele>
        <time>2011-08-21T07:19:39.000Z</time>
      </trkpt>
      <trkpt lat="45.10189" lon="1.18304">
        <ele>161</ele>
        <time>2011-08-21T07:19:46.000Z</time>
      </trkpt>
      <trkpt lat="45.10172" lon="1.18323">
        <ele>163</ele>
        <time>2011-08-21T07:19:56.000Z</time>
      </trkpt>
      <trkpt lat="45.10158" lon="1.18337">
        <ele>164</ele>
        <time>2011-08-21T07:20:03.000Z</time>
      </trkpt>
      <trkpt lat="45.10143" lon="1.18353">
        <ele>164.19999694824</ele>
        <time>2011-08-21T07:20:09.000Z</time>
      </trkpt>
      <trkpt lat="45.10123" lon="1.18375">
        <ele>163.39999389648</ele>
        <time>2011-08-21T07:20:15.000Z</time>
      </trkpt>
      <trkpt lat="45.10119" lon="1.1838">
        <ele>163.19999694824</ele>
        <time>2011-08-21T07:20:16.000Z</time>
      </trkpt>
      <trkpt lat="45.1011" lon="1.18408">
        <ele>162.19999694824</ele>
        <time>2011-08-21T07:20:20.000Z</time>
      </trkpt>
      <trkpt lat="45.10112" lon="1.18423">
        <ele>162.39999389648</ele>
        <time>2011-08-21T07:20:22.000Z</time>
      </trkpt>
      <trkpt lat="45.10127" lon="1.18472">
        <ele>164.60000610352</ele>
        <time>2011-08-21T07:20:30.000Z</time>
      </trkpt>
      <trkpt lat="45.1014" lon="1.18498">
        <ele>166.60000610352</ele>
        <time>2011-08-21T07:20:36.000Z</time>
      </trkpt>
      <trkpt lat="45.10162" lon="1.18537">
        <ele>170</ele>
        <time>2011-08-21T07:20:46.000Z</time>
      </trkpt>
      <trkpt lat="45.10182" lon="1.18569">
        <ele>172</ele>
        <time>2011-08-21T07:20:55.000Z</time>
      </trkpt>
      <trkpt lat="45.10196" lon="1.18591">
        <ele>173</ele>
        <time>2011-08-21T07:21:01.000Z</time>
      </trkpt>
      <trkpt lat="45.10224" lon="1.18636">
        <ele>174.60000610352</ele>
        <time>2011-08-21T07:21:12.000Z</time>
      </trkpt>
      <trkpt lat="45.10249" lon="1.18678">
        <ele>175</ele>
        <time>2011-08-21T07:21:21.000Z</time>
      </trkpt>
      <trkpt lat="45.10278" lon="1.18725">
        <ele>175.39999389648</ele>
        <time>2011-08-21T07:21:30.000Z</time>
      </trkpt>
      <trkpt lat="45.10301" lon="1.18759">
        <ele>177.80000305176</ele>
        <time>2011-08-21T07:21:38.000Z</time>
      </trkpt>
      <trkpt lat="45.10305" lon="1.18777">
        <ele>179.60000610352</ele>
        <time>2011-08-21T07:21:42.000Z</time>
      </trkpt>
      <trkpt lat="45.10304" lon="1.18782">
        <ele>179.80000305176</ele>
        <time>2011-08-21T07:21:43.000Z</time>
      </trkpt>
      <trkpt lat="45.10288" lon="1.18799">
        <ele>180.19999694824</ele>
        <time>2011-08-21T07:21:48.000Z</time>
      </trkpt>
      <trkpt lat="45.10262" lon="1.18818">
        <ele>181</ele>
        <time>2011-08-21T07:21:54.000Z</time>
      </trkpt>
      <trkpt lat="45.10253" lon="1.18823">
        <ele>181</ele>
        <time>2011-08-21T07:21:56.000Z</time>
      </trkpt>
      <trkpt lat="45.10244" lon="1.18826">
        <ele>181.19999694824</ele>
        <time>2011-08-21T07:21:58.000Z</time>
      </trkpt>
      <trkpt lat="45.10205" lon="1.1883">
        <ele>181</ele>
        <time>2011-08-21T07:22:06.000Z</time>
      </trkpt>
      <trkpt lat="45.10165" lon="1.18831">
        <ele>179.60000610352</ele>
        <time>2011-08-21T07:22:13.000Z</time>
      </trkpt>
      <trkpt lat="45.10123" lon="1.18833">
        <ele>177.60000610352</ele>
        <time>2011-08-21T07:22:19.000Z</time>
      </trkpt>
      <trkpt lat="45.1006" lon="1.18839">
        <ele>174.80000305176</ele>
        <time>2011-08-21T07:22:27.000Z</time>
      </trkpt>
      <trkpt lat="45.09993" lon="1.18844">
        <ele>173</ele>
        <time>2011-08-21T07:22:35.000Z</time>
      </trkpt>
      <trkpt lat="45.09938" lon="1.18835">
        <ele>172.39999389648</ele>
        <time>2011-08-21T07:22:42.000Z</time>
      </trkpt>
      <trkpt lat="45.09875" lon="1.18824">
        <ele>170.60000610352</ele>
        <time>2011-08-21T07:22:50.000Z</time>
      </trkpt>
      <trkpt lat="45.09822" lon="1.18816">
        <ele>167.60000610352</ele>
        <time>2011-08-21T07:22:56.000Z</time>
      </trkpt>
      <trkpt lat="45.09764" lon="1.18804">
        <ele>164</ele>
        <time>2011-08-21T07:23:02.000Z</time>
      </trkpt>
      <trkpt lat="45.09737" lon="1.18794">
        <ele>163</ele>
        <time>2011-08-21T07:23:05.000Z</time>
      </trkpt>
      <trkpt lat="45.09707" lon="1.18766">
        <ele>162.39999389648</ele>
        <time>2011-08-21T07:23:09.000Z</time>
      </trkpt>
      <trkpt lat="45.097" lon="1.18756">
        <ele>162.39999389648</ele>
        <time>2011-08-21T07:23:10.000Z</time>
      </trkpt>
      <trkpt lat="45.09651" lon="1.18683">
        <ele>162.39999389648</ele>
        <time>2011-08-21T07:23:18.000Z</time>
      </trkpt>
      <trkpt lat="45.0964" lon="1.18667">
        <ele>163</ele>
        <time>2011-08-21T07:23:20.000Z</time>
      </trkpt>
      <trkpt lat="45.09627" lon="1.18631">
        <ele>163.19999694824</ele>
        <time>2011-08-21T07:23:24.000Z</time>
      </trkpt>
      <trkpt lat="45.09625" lon="1.1861">
        <ele>162.39999389648</ele>
        <time>2011-08-21T07:23:26.000Z</time>
      </trkpt>
      <trkpt lat="45.0962" lon="1.18588">
        <ele>161.39999389648</ele>
        <time>2011-08-21T07:23:28.000Z</time>
      </trkpt>
      <trkpt lat="45.09615" lon="1.18555">
        <ele>159.60000610352</ele>
        <time>2011-08-21T07:23:31.000Z</time>
      </trkpt>
      <trkpt lat="45.09614" lon="1.18493">
        <ele>159.39999389648</ele>
        <time>2011-08-21T07:23:36.000Z</time>
      </trkpt>
      <trkpt lat="45.09617" lon="1.18456">
        <ele>160.19999694824</ele>
        <time>2011-08-21T07:23:39.000Z</time>
      </trkpt>
      <trkpt lat="45.09613" lon="1.18426">
        <ele>160</ele>
        <time>2011-08-21T07:23:42.000Z</time>
      </trkpt>
      <trkpt lat="45.09595" lon="1.18385">
        <ele>160</ele>
        <time>2011-08-21T07:23:47.000Z</time>
      </trkpt>
      <trkpt lat="45.0958" lon="1.1836">
        <ele>159.19999694824</ele>
        <time>2011-08-21T07:23:50.000Z</time>
      </trkpt>
      <trkpt lat="45.09558" lon="1.1833">
        <ele>158.60000610352</ele>
        <time>2011-08-21T07:23:54.000Z</time>
      </trkpt>
      <trkpt lat="45.09509" lon="1.18282">
        <ele>158.19999694824</ele>
        <time>2011-08-21T07:24:02.000Z</time>
      </trkpt>
      <trkpt lat="45.09477" lon="1.18247">
        <ele>157</ele>
        <time>2011-08-21T07:24:07.000Z</time>
      </trkpt>
      <trkpt lat="45.09449" lon="1.18217">
        <ele>156</ele>
        <time>2011-08-21T07:24:11.000Z</time>
      </trkpt>
      <trkpt lat="45.09435" lon="1.18202">
        <ele>155.39999389648</ele>
        <time>2011-08-21T07:24:13.000Z</time>
      </trkpt>
      <trkpt lat="45.09391" lon="1.18172">
        <ele>152.60000610352</ele>
        <time>2011-08-21T07:24:18.000Z</time>
      </trkpt>
      <trkpt lat="45.09337" lon="1.18128">
        <ele>148.19999694824</ele>
        <time>2011-08-21T07:24:24.000Z</time>
      </trkpt>
      <trkpt lat="45.09296" lon="1.18105">
        <ele>143.60000610352</ele>
        <time>2011-08-21T07:24:28.000Z</time>
      </trkpt>
      <trkpt lat="45.09279" lon="1.18082">
        <ele>140.19999694824</ele>
        <time>2011-08-21T07:24:30.000Z</time>
      </trkpt>
      <trkpt lat="45.09235" lon="1.18033">
        <ele>130.80000305176</ele>
        <time>2011-08-21T07:24:35.000Z</time>
      </trkpt>
      <trkpt lat="45.09224" lon="1.18024">
        <ele>128.39999389648</ele>
        <time>2011-08-21T07:24:36.000Z</time>
      </trkpt>
      <trkpt lat="45.09169" lon="1.17992">
        <ele>120.40000152588</ele>
        <time>2011-08-21T07:24:41.000Z</time>
      </trkpt>
      <trkpt lat="45.09155" lon="1.17987">
        <ele>118</ele>
        <time>2011-08-21T07:24:43.000Z</time>
      </trkpt>
      <trkpt lat="45.09133" lon="1.17991">
        <ele>115.59999847412</ele>
        <time>2011-08-21T07:24:47.000Z</time>
      </trkpt>
      <trkpt lat="45.09128" lon="1.17996">
        <ele>115.40000152588</ele>
        <time>2011-08-21T07:24:48.000Z</time>
      </trkpt>
      <trkpt lat="45.09081" lon="1.18042">
        <ele>114</ele>
        <time>2011-08-21T07:24:57.000Z</time>
      </trkpt>
      <trkpt lat="45.09053" lon="1.18052">
        <ele>114.19999694824</ele>
        <time>2011-08-21T07:25:02.000Z</time>
      </trkpt>
      <trkpt lat="45.09032" lon="1.18042">
        <ele>114.19999694824</ele>
        <time>2011-08-21T07:25:06.000Z</time>
      </trkpt>
      <trkpt lat="45.09028" lon="1.18037">
        <ele>114.19999694824</ele>
        <time>2011-08-21T07:25:07.000Z</time>
      </trkpt>
      <trkpt lat="45.08998" lon="1.17988">
        <ele>113.80000305176</ele>
        <time>2011-08-21T07:25:15.000Z</time>
      </trkpt>
      <trkpt lat="45.08993" lon="1.17981">
        <ele>113.40000152588</ele>
        <time>2011-08-21T07:25:16.000Z</time>
      </trkpt>
      <trkpt lat="45.08987" lon="1.17969">
        <ele>112.59999847412</ele>
        <time>2011-08-21T07:25:18.000Z</time>
      </trkpt>
      <trkpt lat="45.08973" lon="1.17964">
        <ele>112</ele>
        <time>2011-08-21T07:25:22.000Z</time>
      </trkpt>
      <trkpt lat="45.08946" lon="1.17994">
        <ele>113.19999694824</ele>
        <time>2011-08-21T07:25:30.000Z</time>
      </trkpt>
      <trkpt lat="45.08908" lon="1.18029">
        <ele>114.19999694824</ele>
        <time>2011-08-21T07:25:39.000Z</time>
      </trkpt>
      <trkpt lat="45.08871" lon="1.18059">
        <ele>115</ele>
        <time>2011-08-21T07:25:47.000Z</time>
      </trkpt>
      <trkpt lat="45.08839" lon="1.18096">
        <ele>114.59999847412</ele>
        <time>2011-08-21T07:25:54.000Z</time>
      </trkpt>
      <trkpt lat="45.08806" lon="1.18151">
        <ele>115.19999694824</ele>
        <time>2011-08-21T07:26:02.000Z</time>
      </trkpt>
      <trkpt lat="45.08782" lon="1.18198">
        <ele>117.40000152588</ele>
        <time>2011-08-21T07:26:09.000Z</time>
      </trkpt>
      <trkpt lat="45.08745" lon="1.18259">
        <ele>119.40000152588</ele>
        <time>2011-08-21T07:26:19.000Z</time>
      </trkpt>
      <trkpt lat="45.08705" lon="1.18322">
        <ele>120.59999847412</ele>
        <time>2011-08-21T07:26:30.000Z</time>
      </trkpt>
      <trkpt lat="45.08669" lon="1.18379">
        <ele>120.40000152588</ele>
        <time>2011-08-21T07:26:39.000Z</time>
      </trkpt>
      <trkpt lat="45.08645" lon="1.1842">
        <ele>120.59999847412</ele>
        <time>2011-08-21T07:26:45.000Z</time>
      </trkpt>
      <trkpt lat="45.08632" lon="1.18474">
        <ele>119.19999694824</ele>
        <time>2011-08-21T07:26:51.000Z</time>
      </trkpt>
      <trkpt lat="45.08625" lon="1.18528">
        <ele>116.40000152588</ele>
        <time>2011-08-21T07:26:56.000Z</time>
      </trkpt>
      <trkpt lat="45.08611" lon="1.18568">
        <ele>112.59999847412</ele>
        <time>2011-08-21T07:27:00.000Z</time>
      </trkpt>
      <trkpt lat="45.08612" lon="1.18594">
        <ele>110.59999847412</ele>
        <time>2011-08-21T07:27:04.000Z</time>
      </trkpt>
      <trkpt lat="45.08618" lon="1.18604">
        <ele>109.59999847412</ele>
        <time>2011-08-21T07:27:06.000Z</time>
      </trkpt>
      <trkpt lat="45.08642" lon="1.1863">
        <ele>112</ele>
        <time>2011-08-21T07:27:14.000Z</time>
      </trkpt>
      <trkpt lat="45.08653" lon="1.18649">
        <ele>114.19999694824</ele>
        <time>2011-08-21T07:27:20.000Z</time>
      </trkpt>
      <trkpt lat="45.0866" lon="1.1867">
        <ele>115.80000305176</ele>
        <time>2011-08-21T07:27:25.000Z</time>
      </trkpt>
      <trkpt lat="45.08675" lon="1.187">
        <ele>117.80000305176</ele>
        <time>2011-08-21T07:27:33.000Z</time>
      </trkpt>
      <trkpt lat="45.08692" lon="1.18736">
        <ele>119.80000305176</ele>
        <time>2011-08-21T07:27:42.000Z</time>
      </trkpt>
      <trkpt lat="45.08702" lon="1.18743">
        <ele>120.80000305176</ele>
        <time>2011-08-21T07:27:46.000Z</time>
      </trkpt>
      <trkpt lat="45.08716" lon="1.18745">
        <ele>124.59999847412</ele>
        <time>2011-08-21T07:27:51.000Z</time>
      </trkpt>
      <trkpt lat="45.08732" lon="1.18762">
        <ele>127.80000305176</ele>
        <time>2011-08-21T07:27:59.000Z</time>
      </trkpt>
      <trkpt lat="45.08745" lon="1.1877">
        <ele>128.80000305176</ele>
        <time>2011-08-21T07:28:05.000Z</time>
      </trkpt>
      <trkpt lat="45.08749" lon="1.18769">
        <ele>129</ele>
        <time>2011-08-21T07:28:07.000Z</time>
      </trkpt>
      <trkpt lat="45.08757" lon="1.18752">
        <ele>133.19999694824</ele>
        <time>2011-08-21T07:28:15.000Z</time>
      </trkpt>
      <trkpt lat="45.08761" lon="1.18733">
        <ele>137.80000305176</ele>
        <time>2011-08-21T07:28:23.000Z</time>
      </trkpt>
      <trkpt lat="45.08762" lon="1.18717">
        <ele>140.80000305176</ele>
        <time>2011-08-21T07:28:30.000Z</time>
      </trkpt>
      <trkpt lat="45.08766" lon="1.18702">
        <ele>142.39999389648</ele>
        <time>2011-08-21T07:28:36.000Z</time>
      </trkpt>
      <trkpt lat="45.0877" lon="1.18681">
        <ele>142</ele>
        <time>2011-08-21T07:28:43.000Z</time>
      </trkpt>
      <trkpt lat="45.08777" lon="1.18664">
        <ele>142.60000610352</ele>
        <time>2011-08-21T07:28:50.000Z</time>
      </trkpt>
      <trkpt lat="45.08785" lon="1.18655">
        <ele>145.19999694824</ele>
        <time>2011-08-21T07:28:56.000Z</time>
      </trkpt>
      <trkpt lat="45.08788" lon="1.18653">
        <ele>146.39999389648</ele>
        <time>2011-08-21T07:28:58.000Z</time>
      </trkpt>
      <trkpt lat="45.08796" lon="1.18655">
        <ele>148.80000305176</ele>
        <time>2011-08-21T07:29:04.000Z</time>
      </trkpt>
      <trkpt lat="45.0881" lon="1.18659">
        <ele>149.19999694824</ele>
        <time>2011-08-21T07:29:12.000Z</time>
      </trkpt>
      <trkpt lat="45.08822" lon="1.18665">
        <ele>151.80000305176</ele>
        <time>2011-08-21T07:29:20.000Z</time>
      </trkpt>
      <trkpt lat="45.08833" lon="1.18669">
        <ele>152</ele>
        <time>2011-08-21T07:29:27.000Z</time>
      </trkpt>
      <trkpt lat="45.08846" lon="1.18673">
        <ele>154.39999389648</ele>
        <time>2011-08-21T07:29:35.000Z</time>
      </trkpt>
      <trkpt lat="45.08853" lon="1.18675">
        <ele>156.39999389648</ele>
        <time>2011-08-21T07:29:41.000Z</time>
      </trkpt>
      <trkpt lat="45.08861" lon="1.18677">
        <ele>158.19999694824</ele>
        <time>2011-08-21T07:29:46.000Z</time>
      </trkpt>
      <trkpt lat="45.08872" lon="1.18681">
        <ele>160.19999694824</ele>
        <time>2011-08-21T07:29:53.000Z</time>
      </trkpt>
      <trkpt lat="45.08884" lon="1.18683">
        <ele>161.60000610352</ele>
        <time>2011-08-21T07:30:00.000Z</time>
      </trkpt>
      <trkpt lat="45.08898" lon="1.18686">
        <ele>163</ele>
        <time>2011-08-21T07:30:08.000Z</time>
      </trkpt>
      <trkpt lat="45.08912" lon="1.1869">
        <ele>165</ele>
        <time>2011-08-21T07:30:16.000Z</time>
      </trkpt>
      <trkpt lat="45.08924" lon="1.18694">
        <ele>165.60000610352</ele>
        <time>2011-08-21T07:30:22.000Z</time>
      </trkpt>
      <trkpt lat="45.08935" lon="1.18699">
        <ele>165.80000305176</ele>
        <time>2011-08-21T07:30:28.000Z</time>
      </trkpt>
      <trkpt lat="45.08948" lon="1.18703">
        <ele>166.60000610352</ele>
        <time>2011-08-21T07:30:34.000Z</time>
      </trkpt>
      <trkpt lat="45.0896" lon="1.18707">
        <ele>167.39999389648</ele>
        <time>2011-08-21T07:30:40.000Z</time>
      </trkpt>
      <trkpt lat="45.08978" lon="1.18713">
        <ele>167.19999694824</ele>
        <time>2011-08-21T07:30:48.000Z</time>
      </trkpt>
      <trkpt lat="45.08998" lon="1.1872">
        <ele>168.19999694824</ele>
        <time>2011-08-21T07:30:57.000Z</time>
      </trkpt>
      <trkpt lat="45.09019" lon="1.18726">
        <ele>171.39999389648</ele>
        <time>2011-08-21T07:31:05.000Z</time>
      </trkpt>
      <trkpt lat="45.09038" lon="1.18732">
        <ele>172.80000305176</ele>
        <time>2011-08-21T07:31:13.000Z</time>
      </trkpt>
      <trkpt lat="45.09059" lon="1.18734">
        <ele>174.80000305176</ele>
        <time>2011-08-21T07:31:21.000Z</time>
      </trkpt>
      <trkpt lat="45.09069" lon="1.18729">
        <ele>175</ele>
        <time>2011-08-21T07:31:25.000Z</time>
      </trkpt>
      <trkpt lat="45.09085" lon="1.18729">
        <ele>175.39999389648</ele>
        <time>2011-08-21T07:31:31.000Z</time>
      </trkpt>
      <trkpt lat="45.09103" lon="1.18735">
        <ele>175.80000305176</ele>
        <time>2011-08-21T07:31:39.000Z</time>
      </trkpt>
      <trkpt lat="45.09119" lon="1.1873">
        <ele>178</ele>
        <time>2011-08-21T07:31:45.000Z</time>
      </trkpt>
      <trkpt lat="45.09121" lon="1.18729">
        <ele>178.39999389648</ele>
        <time>2011-08-21T07:31:46.000Z</time>
      </trkpt>
      <trkpt lat="45.09125" lon="1.18712">
        <ele>178.39999389648</ele>
        <time>2011-08-21T07:31:51.000Z</time>
      </trkpt>
      <trkpt lat="45.09126" lon="1.18703">
        <ele>178</ele>
        <time>2011-08-21T07:31:53.000Z</time>
      </trkpt>
      <trkpt lat="45.09127" lon="1.18688">
        <ele>177.60000610352</ele>
        <time>2011-08-21T07:31:56.000Z</time>
      </trkpt>
      <trkpt lat="45.0916" lon="1.18644">
        <ele>183.60000610352</ele>
        <time>2011-08-21T07:32:16.000Z</time>
      </trkpt>
      <trkpt lat="45.09165" lon="1.1864">
        <ele>185.19999694824</ele>
        <time>2011-08-21T07:32:21.000Z</time>
      </trkpt>
      <trkpt lat="45.09168" lon="1.18639">
        <ele>186.19999694824</ele>
        <time>2011-08-21T07:32:24.000Z</time>
      </trkpt>
      <trkpt lat="45.09172" lon="1.18635">
        <ele>187</ele>
        <time>2011-08-21T07:32:32.000Z</time>
      </trkpt>
      <trkpt lat="45.09175" lon="1.18629">
        <ele>186.60000610352</ele>
        <time>2011-08-21T07:32:36.000Z</time>
      </trkpt>
      <trkpt lat="45.09178" lon="1.18613">
        <ele>185.60000610352</ele>
        <time>2011-08-21T07:32:43.000Z</time>
      </trkpt>
      <trkpt lat="45.09188" lon="1.18611">
        <ele>186</ele>
        <time>2011-08-21T07:32:48.000Z</time>
      </trkpt>
      <trkpt lat="45.09192" lon="1.18621">
        <ele>187.60000610352</ele>
        <time>2011-08-21T07:32:53.000Z</time>
      </trkpt>
      <trkpt lat="45.09196" lon="1.18629">
        <ele>188</ele>
        <time>2011-08-21T07:32:57.000Z</time>
      </trkpt>
      <trkpt lat="45.09204" lon="1.18633">
        <ele>188.60000610352</ele>
        <time>2011-08-21T07:33:03.000Z</time>
      </trkpt>
      <trkpt lat="45.09214" lon="1.18631">
        <ele>187.80000305176</ele>
        <time>2011-08-21T07:33:09.000Z</time>
      </trkpt>
      <trkpt lat="45.09224" lon="1.18627">
        <ele>189</ele>
        <time>2011-08-21T07:33:14.000Z</time>
      </trkpt>
      <trkpt lat="45.09232" lon="1.18623">
        <ele>192.39999389648</ele>
        <time>2011-08-21T07:33:20.000Z</time>
      </trkpt>
      <trkpt lat="45.09234" lon="1.18622">
        <ele>192.60000610352</ele>
        <time>2011-08-21T07:33:21.000Z</time>
      </trkpt>
      <trkpt lat="45.09247" lon="1.18619">
        <ele>196.19999694824</ele>
        <time>2011-08-21T07:33:28.000Z</time>
      </trkpt>
      <trkpt lat="45.09257" lon="1.18616">
        <ele>197</ele>
        <time>2011-08-21T07:33:34.000Z</time>
      </trkpt>
      <trkpt lat="45.09268" lon="1.18613">
        <ele>198.19999694824</ele>
        <time>2011-08-21T07:33:40.000Z</time>
      </trkpt>
      <trkpt lat="45.09278" lon="1.1861">
        <ele>199.39999389648</ele>
        <time>2011-08-21T07:33:46.000Z</time>
      </trkpt>
      <trkpt lat="45.09289" lon="1.18608">
        <ele>200.80000305176</ele>
        <time>2011-08-21T07:33:52.000Z</time>
      </trkpt>
      <trkpt lat="45.093" lon="1.18606">
        <ele>203</ele>
        <time>2011-08-21T07:33:58.000Z</time>
      </trkpt>
      <trkpt lat="45.09316" lon="1.18601">
        <ele>203.80000305176</ele>
        <time>2011-08-21T07:34:06.000Z</time>
      </trkpt>
      <trkpt lat="45.09336" lon="1.18592">
        <ele>203.80000305176</ele>
        <time>2011-08-21T07:34:15.000Z</time>
      </trkpt>
      <trkpt lat="45.09347" lon="1.18582">
        <ele>204.39999389648</ele>
        <time>2011-08-21T07:34:22.000Z</time>
      </trkpt>
      <trkpt lat="45.09347" lon="1.18581">
        <ele>204.80000305176</ele>
        <time>2011-08-21T07:34:24.000Z</time>
      </trkpt>
      <trkpt lat="45.09359" lon="1.18578">
        <ele>210.19999694824</ele>
        <time>2011-08-21T07:35:29.000Z</time>
      </trkpt>
      <trkpt lat="45.09369" lon="1.18573">
        <ele>209</ele>
        <time>2011-08-21T07:35:33.000Z</time>
      </trkpt>
      <trkpt lat="45.09382" lon="1.18569">
        <ele>207</ele>
        <time>2011-08-21T07:35:36.000Z</time>
      </trkpt>
      <trkpt lat="45.09403" lon="1.18572">
        <ele>204.19999694824</ele>
        <time>2011-08-21T07:35:40.000Z</time>
      </trkpt>
      <trkpt lat="45.09428" lon="1.1858">
        <ele>201.80000305176</ele>
        <time>2011-08-21T07:35:44.000Z</time>
      </trkpt>
      <trkpt lat="45.09444" lon="1.18601">
        <ele>198.19999694824</ele>
        <time>2011-08-21T07:35:48.000Z</time>
      </trkpt>
      <trkpt lat="45.09466" lon="1.18624">
        <ele>193.39999389648</ele>
        <time>2011-08-21T07:35:53.000Z</time>
      </trkpt>
      <trkpt lat="45.09466" lon="1.18631">
        <ele>192</ele>
        <time>2011-08-21T07:35:55.000Z</time>
      </trkpt>
      <trkpt lat="45.09469" lon="1.18639">
        <ele>190</ele>
        <time>2011-08-21T07:35:58.000Z</time>
      </trkpt>
      <trkpt lat="45.09486" lon="1.18637">
        <ele>187</ele>
        <time>2011-08-21T07:36:01.000Z</time>
      </trkpt>
      <trkpt lat="45.09511" lon="1.18647">
        <ele>182.39999389648</ele>
        <time>2011-08-21T07:36:04.000Z</time>
      </trkpt>
      <trkpt lat="45.09535" lon="1.18645">
        <ele>178.60000610352</ele>
        <time>2011-08-21T07:36:06.000Z</time>
      </trkpt>
      <trkpt lat="45.09598" lon="1.18636">
        <ele>171</ele>
        <time>2011-08-21T07:36:11.000Z</time>
      </trkpt>
      <trkpt lat="45.09633" lon="1.18652">
        <ele>166</ele>
        <time>2011-08-21T07:36:14.000Z</time>
      </trkpt>
      <trkpt lat="45.09653" lon="1.18676">
        <ele>164.19999694824</ele>
        <time>2011-08-21T07:36:16.000Z</time>
      </trkpt>
      <trkpt lat="45.09699" lon="1.18744">
        <ele>164.39999389648</ele>
        <time>2011-08-21T07:36:22.000Z</time>
      </trkpt>
      <trkpt lat="45.09718" lon="1.18772">
        <ele>165.19999694824</ele>
        <time>2011-08-21T07:36:25.000Z</time>
      </trkpt>
      <trkpt lat="45.09744" lon="1.18797">
        <ele>166</ele>
        <time>2011-08-21T07:36:29.000Z</time>
      </trkpt>
      <trkpt lat="45.09778" lon="1.18808">
        <ele>166.80000305176</ele>
        <time>2011-08-21T07:36:35.000Z</time>
      </trkpt>
      <trkpt lat="45.09791" lon="1.18821">
        <ele>167.60000610352</ele>
        <time>2011-08-21T07:36:39.000Z</time>
      </trkpt>
      <trkpt lat="45.09792" lon="1.18827">
        <ele>167.80000305176</ele>
        <time>2011-08-21T07:36:40.000Z</time>
      </trkpt>
      <trkpt lat="45.09788" lon="1.18889">
        <ele>170.60000610352</ele>
        <time>2011-08-21T07:36:50.000Z</time>
      </trkpt>
      <trkpt lat="45.09787" lon="1.18894">
        <ele>170.60000610352</ele>
        <time>2011-08-21T07:36:51.000Z</time>
      </trkpt>
      <trkpt lat="45.09799" lon="1.18908">
        <ele>170.39999389648</ele>
        <time>2011-08-21T07:36:55.000Z</time>
      </trkpt>
      <trkpt lat="45.09824" lon="1.18934">
        <ele>169.80000305176</ele>
        <time>2011-08-21T07:37:01.000Z</time>
      </trkpt>
      <trkpt lat="45.09837" lon="1.18948">
        <ele>169.80000305176</ele>
        <time>2011-08-21T07:37:04.000Z</time>
      </trkpt>
      <trkpt lat="45.09846" lon="1.1897">
        <ele>169.60000610352</ele>
        <time>2011-08-21T07:37:08.000Z</time>
      </trkpt>
      <trkpt lat="45.09849" lon="1.18983">
        <ele>170</ele>
        <time>2011-08-21T07:37:13.000Z</time>
      </trkpt>
      <trkpt lat="45.09849" lon="1.18983">
        <ele>169.80000305176</ele>
        <time>2011-08-21T07:37:14.000Z</time>
      </trkpt>
      <trkpt lat="45.09847" lon="1.18997">
        <ele>171.39999389648</ele>
        <time>2011-08-21T07:38:00.000Z</time>
      </trkpt>
      <trkpt lat="45.09849" lon="1.19022">
        <ele>172</ele>
        <time>2011-08-21T07:38:05.000Z</time>
      </trkpt>
      <trkpt lat="45.09849" lon="1.19035">
        <ele>171.19999694824</ele>
        <time>2011-08-21T07:38:07.000Z</time>
      </trkpt>
      <trkpt lat="45.09852" lon="1.19079">
        <ele>167.60000610352</ele>
        <time>2011-08-21T07:38:13.000Z</time>
      </trkpt>
      <trkpt lat="45.09855" lon="1.19103">
        <ele>166</ele>
        <time>2011-08-21T07:38:16.000Z</time>
      </trkpt>
      <trkpt lat="45.09857" lon="1.1912">
        <ele>165</ele>
        <time>2011-08-21T07:38:18.000Z</time>
      </trkpt>
      <trkpt lat="45.09873" lon="1.19156">
        <ele>164.80000305176</ele>
        <time>2011-08-21T07:38:23.000Z</time>
      </trkpt>
      <trkpt lat="45.09896" lon="1.19179">
        <ele>164.19999694824</ele>
        <time>2011-08-21T07:38:28.000Z</time>
      </trkpt>
      <trkpt lat="45.09928" lon="1.19197">
        <ele>161.80000305176</ele>
        <time>2011-08-21T07:38:34.000Z</time>
      </trkpt>
      <trkpt lat="45.09945" lon="1.1921">
        <ele>159.80000305176</ele>
        <time>2011-08-21T07:38:37.000Z</time>
      </trkpt>
      <trkpt lat="45.09983" lon="1.19217">
        <ele>156.60000610352</ele>
        <time>2011-08-21T07:38:42.000Z</time>
      </trkpt>
      <trkpt lat="45.10043" lon="1.192">
        <ele>154.60000610352</ele>
        <time>2011-08-21T07:38:49.000Z</time>
      </trkpt>
      <trkpt lat="45.1006" lon="1.19226">
        <ele>154</ele>
        <time>2011-08-21T07:38:52.000Z</time>
      </trkpt>
      <trkpt lat="45.10068" lon="1.19263">
        <ele>153</ele>
        <time>2011-08-21T07:38:55.000Z</time>
      </trkpt>
      <trkpt lat="45.10079" lon="1.19311">
        <ele>150</ele>
        <time>2011-08-21T07:38:59.000Z</time>
      </trkpt>
      <trkpt lat="45.10071" lon="1.19341">
        <ele>145.19999694824</ele>
        <time>2011-08-21T07:39:03.000Z</time>
      </trkpt>
      <trkpt lat="45.10051" lon="1.19353">
        <ele>142</ele>
        <time>2011-08-21T07:39:06.000Z</time>
      </trkpt>
      <trkpt lat="45.10029" lon="1.19347">
        <ele>140</ele>
        <time>2011-08-21T07:39:09.000Z</time>
      </trkpt>
      <trkpt lat="45.09998" lon="1.1934">
        <ele>135.60000610352</ele>
        <time>2011-08-21T07:39:13.000Z</time>
      </trkpt>
      <trkpt lat="45.09987" lon="1.19356">
        <ele>133</ele>
        <time>2011-08-21T07:39:15.000Z</time>
      </trkpt>
      <trkpt lat="45.09976" lon="1.19374">
        <ele>130.60000610352</ele>
        <time>2011-08-21T07:39:17.000Z</time>
      </trkpt>
      <trkpt lat="45.0994" lon="1.19437">
        <ele>122.40000152588</ele>
        <time>2011-08-21T07:39:23.000Z</time>
      </trkpt>
      <trkpt lat="45.09916" lon="1.19479">
        <ele>117.59999847412</ele>
        <time>2011-08-21T07:39:27.000Z</time>
      </trkpt>
      <trkpt lat="45.09884" lon="1.19532">
        <ele>111.19999694824</ele>
        <time>2011-08-21T07:39:33.000Z</time>
      </trkpt>
      <trkpt lat="45.09875" lon="1.19546">
        <ele>109</ele>
        <time>2011-08-21T07:39:35.000Z</time>
      </trkpt>
      <trkpt lat="45.0986" lon="1.19579">
        <ele>104.19999694824</ele>
        <time>2011-08-21T07:39:39.000Z</time>
      </trkpt>
      <trkpt lat="45.09855" lon="1.19587">
        <ele>102.80000305176</ele>
        <time>2011-08-21T07:39:40.000Z</time>
      </trkpt>
      <trkpt lat="45.09844" lon="1.19603">
        <ele>100.80000305176</ele>
        <time>2011-08-21T07:39:42.000Z</time>
      </trkpt>
      <trkpt lat="45.09819" lon="1.19641">
        <ele>95.800003051758</ele>
        <time>2011-08-21T07:39:47.000Z</time>
      </trkpt>
      <trkpt lat="45.09795" lon="1.19682">
        <ele>91</ele>
        <time>2011-08-21T07:39:52.000Z</time>
      </trkpt>
      <trkpt lat="45.09766" lon="1.19727">
        <ele>86.599998474121</ele>
        <time>2011-08-21T07:39:57.000Z</time>
      </trkpt>
      <trkpt lat="45.09761" lon="1.19736">
        <ele>85.800003051758</ele>
        <time>2011-08-21T07:39:58.000Z</time>
      </trkpt>
      <trkpt lat="45.09746" lon="1.19788">
        <ele>83.599998474121</ele>
        <time>2011-08-21T07:40:03.000Z</time>
      </trkpt>
      <trkpt lat="45.09746" lon="1.19809">
        <ele>83</ele>
        <time>2011-08-21T07:40:05.000Z</time>
      </trkpt>
      <trkpt lat="45.09741" lon="1.19874">
        <ele>81.199996948242</ele>
        <time>2011-08-21T07:40:11.000Z</time>
      </trkpt>
      <trkpt lat="45.09738" lon="1.19925">
        <ele>82</ele>
        <time>2011-08-21T07:40:17.000Z</time>
      </trkpt>
      <trkpt lat="45.09735" lon="1.19972">
        <ele>82</ele>
        <time>2011-08-21T07:40:23.000Z</time>
      </trkpt>
      <trkpt lat="45.0973" lon="1.20021">
        <ele>82</ele>
        <time>2011-08-21T07:40:28.000Z</time>
      </trkpt>
      <trkpt lat="45.09722" lon="1.20083">
        <ele>81.599998474121</ele>
        <time>2011-08-21T07:40:34.000Z</time>
      </trkpt>
      <trkpt lat="45.09726" lon="1.20114">
        <ele>81.800003051758</ele>
        <time>2011-08-21T07:40:37.000Z</time>
      </trkpt>
      <trkpt lat="45.09726" lon="1.20164">
        <ele>81.400001525879</ele>
        <time>2011-08-21T07:40:42.000Z</time>
      </trkpt>
      <trkpt lat="45.09724" lon="1.20225">
        <ele>80.599998474121</ele>
        <time>2011-08-21T07:40:48.000Z</time>
      </trkpt>
      <trkpt lat="45.09725" lon="1.20244">
        <ele>80.599998474121</ele>
        <time>2011-08-21T07:40:50.000Z</time>
      </trkpt>
      <trkpt lat="45.09725" lon="1.20272">
        <ele>80.599998474121</ele>
        <time>2011-08-21T07:40:53.000Z</time>
      </trkpt>
      <trkpt lat="45.09724" lon="1.2029">
        <ele>80.599998474121</ele>
        <time>2011-08-21T07:40:55.000Z</time>
      </trkpt>
      <trkpt lat="45.09723" lon="1.20326">
        <ele>81.800003051758</ele>
        <time>2011-08-21T07:41:00.000Z</time>
      </trkpt>
      <trkpt lat="45.09726" lon="1.20356">
        <ele>83.400001525879</ele>
        <time>2011-08-21T07:41:06.000Z</time>
      </trkpt>
      <trkpt lat="45.0973" lon="1.20373">
        <ele>84.599998474121</ele>
        <time>2011-08-21T07:41:12.000Z</time>
      </trkpt>
      <trkpt lat="45.09735" lon="1.20397">
        <ele>87.599998474121</ele>
        <time>2011-08-21T07:41:20.000Z</time>
      </trkpt>
      <trkpt lat="45.09738" lon="1.20412">
        <ele>89.599998474121</ele>
        <time>2011-08-21T07:41:25.000Z</time>
      </trkpt>
      <trkpt lat="45.09744" lon="1.20427">
        <ele>89.199996948242</ele>
        <time>2011-08-21T07:41:29.000Z</time>
      </trkpt>
      <trkpt lat="45.09753" lon="1.2045">
        <ele>88.400001525879</ele>
        <time>2011-08-21T07:41:33.000Z</time>
      </trkpt>
      <trkpt lat="45.0976" lon="1.20453">
        <ele>89.199996948242</ele>
        <time>2011-08-21T07:41:36.000Z</time>
      </trkpt>
      <trkpt lat="45.09762" lon="1.20446">
        <ele>91.199996948242</ele>
        <time>2011-08-21T07:41:40.000Z</time>
      </trkpt>
      <trkpt lat="45.09766" lon="1.20436">
        <ele>93.800003051758</ele>
        <time>2011-08-21T07:41:45.000Z</time>
      </trkpt>
      <trkpt lat="45.09769" lon="1.20432">
        <ele>95</ele>
        <time>2011-08-21T07:41:48.000Z</time>
      </trkpt>
      <trkpt lat="45.09776" lon="1.20431">
        <ele>96.599998474121</ele>
        <time>2011-08-21T07:41:54.000Z</time>
      </trkpt>
      <trkpt lat="45.09788" lon="1.20427">
        <ele>99</ele>
        <time>2011-08-21T07:42:01.000Z</time>
      </trkpt>
      <trkpt lat="45.09795" lon="1.20424">
        <ele>100.80000305176</ele>
        <time>2011-08-21T07:42:05.000Z</time>
      </trkpt>
      <trkpt lat="45.09815" lon="1.20425">
        <ele>102.80000305176</ele>
        <time>2011-08-21T07:42:15.000Z</time>
      </trkpt>
      <trkpt lat="45.09833" lon="1.20428">
        <ele>105.40000152588</ele>
        <time>2011-08-21T07:42:24.000Z</time>
      </trkpt>
      <trkpt lat="45.09851" lon="1.20432">
        <ele>107.19999694824</ele>
        <time>2011-08-21T07:42:33.000Z</time>
      </trkpt>
      <trkpt lat="45.09866" lon="1.20436">
        <ele>106.59999847412</ele>
        <time>2011-08-21T07:42:41.000Z</time>
      </trkpt>
      <trkpt lat="45.09878" lon="1.20438">
        <ele>107.19999694824</ele>
        <time>2011-08-21T07:42:47.000Z</time>
      </trkpt>
      <trkpt lat="45.09889" lon="1.20441">
        <ele>108.40000152588</ele>
        <time>2011-08-21T07:42:53.000Z</time>
      </trkpt>
      <trkpt lat="45.09903" lon="1.20438">
        <ele>110</ele>
        <time>2011-08-21T07:43:01.000Z</time>
      </trkpt>
      <trkpt lat="45.09915" lon="1.20435">
        <ele>111.59999847412</ele>
        <time>2011-08-21T07:43:07.000Z</time>
      </trkpt>
      <trkpt lat="45.09928" lon="1.20427">
        <ele>112.59999847412</ele>
        <time>2011-08-21T07:43:14.000Z</time>
      </trkpt>
      <trkpt lat="45.09938" lon="1.20416">
        <ele>113.59999847412</ele>
        <time>2011-08-21T07:43:20.000Z</time>
      </trkpt>
      <trkpt lat="45.09942" lon="1.20406">
        <ele>115.80000305176</ele>
        <time>2011-08-21T07:43:25.000Z</time>
      </trkpt>
      <trkpt lat="45.09944" lon="1.20392">
        <ele>119</ele>
        <time>2011-08-21T07:43:32.000Z</time>
      </trkpt>
      <trkpt lat="45.09944" lon="1.20377">
        <ele>122.19999694824</ele>
        <time>2011-08-21T07:43:39.000Z</time>
      </trkpt>
      <trkpt lat="45.09944" lon="1.20375">
        <ele>122.59999847412</ele>
        <time>2011-08-21T07:43:40.000Z</time>
      </trkpt>
      <trkpt lat="45.0995" lon="1.20358">
        <ele>122.80000305176</ele>
        <time>2011-08-21T07:43:47.000Z</time>
      </trkpt>
      <trkpt lat="45.09954" lon="1.20344">
        <ele>124</ele>
        <time>2011-08-21T07:43:53.000Z</time>
      </trkpt>
      <trkpt lat="45.09956" lon="1.20339">
        <ele>124.19999694824</ele>
        <time>2011-08-21T07:43:55.000Z</time>
      </trkpt>
      <trkpt lat="45.09963" lon="1.2032">
        <ele>128.19999694824</ele>
        <time>2011-08-21T07:44:03.000Z</time>
      </trkpt>
      <trkpt lat="45.09969" lon="1.20302">
        <ele>132.39999389648</ele>
        <time>2011-08-21T07:44:10.000Z</time>
      </trkpt>
      <trkpt lat="45.09974" lon="1.20289">
        <ele>134.39999389648</ele>
        <time>2011-08-21T07:44:16.000Z</time>
      </trkpt>
      <trkpt lat="45.09979" lon="1.20272">
        <ele>135.60000610352</ele>
        <time>2011-08-21T07:44:23.000Z</time>
      </trkpt>
      <trkpt lat="45.09984" lon="1.20259">
        <ele>136</ele>
        <time>2011-08-21T07:44:29.000Z</time>
      </trkpt>
      <trkpt lat="45.09989" lon="1.20244">
        <ele>137.60000610352</ele>
        <time>2011-08-21T07:44:35.000Z</time>
      </trkpt>
      <trkpt lat="45.09996" lon="1.20231">
        <ele>140.19999694824</ele>
        <time>2011-08-21T07:44:41.000Z</time>
      </trkpt>
      <trkpt lat="45.10002" lon="1.20221">
        <ele>141.60000610352</ele>
        <time>2011-08-21T07:44:47.000Z</time>
      </trkpt>
      <trkpt lat="45.1001" lon="1.20205">
        <ele>143.80000305176</ele>
        <time>2011-08-21T07:44:56.000Z</time>
      </trkpt>
      <trkpt lat="45.10016" lon="1.20193">
        <ele>147.39999389648</ele>
        <time>2011-08-21T07:45:04.000Z</time>
      </trkpt>
      <trkpt lat="45.10023" lon="1.20185">
        <ele>148.60000610352</ele>
        <time>2011-08-21T07:45:09.000Z</time>
      </trkpt>
      <trkpt lat="45.10031" lon="1.20173">
        <ele>149.60000610352</ele>
        <time>2011-08-21T07:45:15.000Z</time>
      </trkpt>
      <trkpt lat="45.10035" lon="1.20165">
        <ele>151.19999694824</ele>
        <time>2011-08-21T07:45:19.000Z</time>
      </trkpt>
      <trkpt lat="45.10043" lon="1.20153">
        <ele>152.80000305176</ele>
        <time>2011-08-21T07:45:26.000Z</time>
      </trkpt>
      <trkpt lat="45.1005" lon="1.20142">
        <ele>153.80000305176</ele>
        <time>2011-08-21T07:45:32.000Z</time>
      </trkpt>
      <trkpt lat="45.10059" lon="1.20124">
        <ele>155</ele>
        <time>2011-08-21T07:45:41.000Z</time>
      </trkpt>
      <trkpt lat="45.10067" lon="1.20109">
        <ele>156</ele>
        <time>2011-08-21T07:45:48.000Z</time>
      </trkpt>
      <trkpt lat="45.10075" lon="1.20094">
        <ele>158.60000610352</ele>
        <time>2011-08-21T07:45:55.000Z</time>
      </trkpt>
      <trkpt lat="45.10075" lon="1.20081">
        <ele>159.19999694824</ele>
        <time>2011-08-21T07:46:00.000Z</time>
      </trkpt>
      <trkpt lat="45.10081" lon="1.20062">
        <ele>161.60000610352</ele>
        <time>2011-08-21T07:46:08.000Z</time>
      </trkpt>
      <trkpt lat="45.10082" lon="1.2005">
        <ele>163.80000305176</ele>
        <time>2011-08-21T07:46:13.000Z</time>
      </trkpt>
      <trkpt lat="45.10085" lon="1.20037">
        <ele>164.80000305176</ele>
        <time>2011-08-21T07:46:19.000Z</time>
      </trkpt>
      <trkpt lat="45.10087" lon="1.20022">
        <ele>165</ele>
        <time>2011-08-21T07:46:25.000Z</time>
      </trkpt>
      <trkpt lat="45.10096" lon="1.20002">
        <ele>166.60000610352</ele>
        <time>2011-08-21T07:46:33.000Z</time>
      </trkpt>
      <trkpt lat="45.10109" lon="1.1998">
        <ele>168.60000610352</ele>
        <time>2011-08-21T07:46:42.000Z</time>
      </trkpt>
      <trkpt lat="45.10117" lon="1.19958">
        <ele>170.19999694824</ele>
        <time>2011-08-21T07:46:50.000Z</time>
      </trkpt>
      <trkpt lat="45.10122" lon="1.19935">
        <ele>170.39999389648</ele>
        <time>2011-08-21T07:46:58.000Z</time>
      </trkpt>
      <trkpt lat="45.10132" lon="1.19909">
        <ele>171.19999694824</ele>
        <time>2011-08-21T07:47:07.000Z</time>
      </trkpt>
      <trkpt lat="45.10144" lon="1.19883">
        <ele>172.39999389648</ele>
        <time>2011-08-21T07:47:16.000Z</time>
      </trkpt>
      <trkpt lat="45.10159" lon="1.19864">
        <ele>172.80000305176</ele>
        <time>2011-08-21T07:47:24.000Z</time>
      </trkpt>
      <trkpt lat="45.10172" lon="1.1984">
        <ele>173.39999389648</ele>
        <time>2011-08-21T07:47:32.000Z</time>
      </trkpt>
      <trkpt lat="45.10186" lon="1.19817">
        <ele>174.80000305176</ele>
        <time>2011-08-21T07:47:40.000Z</time>
      </trkpt>
      <trkpt lat="45.10205" lon="1.19799">
        <ele>175.60000610352</ele>
        <time>2011-08-21T07:47:49.000Z</time>
      </trkpt>
      <trkpt lat="45.10222" lon="1.19784">
        <ele>176.19999694824</ele>
        <time>2011-08-21T07:47:56.000Z</time>
      </trkpt>
      <trkpt lat="45.10242" lon="1.19768">
        <ele>177</ele>
        <time>2011-08-21T07:48:02.000Z</time>
      </trkpt>
      <trkpt lat="45.10266" lon="1.19739">
        <ele>177.80000305176</ele>
        <time>2011-08-21T07:48:09.000Z</time>
      </trkpt>
      <trkpt lat="45.10289" lon="1.19723">
        <ele>178.39999389648</ele>
        <time>2011-08-21T07:48:14.000Z</time>
      </trkpt>
      <trkpt lat="45.10293" lon="1.19718">
        <ele>178.60000610352</ele>
        <time>2011-08-21T07:48:15.000Z</time>
      </trkpt>
      <trkpt lat="45.10308" lon="1.19694">
        <ele>179</ele>
        <time>2011-08-21T07:48:21.000Z</time>
      </trkpt>
      <trkpt lat="45.10334" lon="1.19671">
        <ele>181.19999694824</ele>
        <time>2011-08-21T07:48:31.000Z</time>
      </trkpt>
      <trkpt lat="45.10361" lon="1.19653">
        <ele>183.19999694824</ele>
        <time>2011-08-21T07:48:41.000Z</time>
      </trkpt>
      <trkpt lat="45.10389" lon="1.19635">
        <ele>184.39999389648</ele>
        <time>2011-08-21T07:48:51.000Z</time>
      </trkpt>
      <trkpt lat="45.10414" lon="1.19619">
        <ele>185.60000610352</ele>
        <time>2011-08-21T07:49:00.000Z</time>
      </trkpt>
      <trkpt lat="45.10431" lon="1.1962">
        <ele>186.39999389648</ele>
        <time>2011-08-21T07:49:06.000Z</time>
      </trkpt>
      <trkpt lat="45.10446" lon="1.19617">
        <ele>186.80000305176</ele>
        <time>2011-08-21T07:49:11.000Z</time>
      </trkpt>
      <trkpt lat="45.10471" lon="1.19612">
        <ele>187.19999694824</ele>
        <time>2011-08-21T07:49:19.000Z</time>
      </trkpt>
      <trkpt lat="45.1049" lon="1.19594">
        <ele>188.39999389648</ele>
        <time>2011-08-21T07:49:26.000Z</time>
      </trkpt>
      <trkpt lat="45.10522" lon="1.19566">
        <ele>188.80000305176</ele>
        <time>2011-08-21T07:49:36.000Z</time>
      </trkpt>
      <trkpt lat="45.10528" lon="1.1956">
        <ele>188.60000610352</ele>
        <time>2011-08-21T07:49:38.000Z</time>
      </trkpt>
      <trkpt lat="45.10538" lon="1.19541">
        <ele>187.80000305176</ele>
        <time>2011-08-21T07:49:42.000Z</time>
      </trkpt>
      <trkpt lat="45.10556" lon="1.19518">
        <ele>186.39999389648</ele>
        <time>2011-08-21T07:49:47.000Z</time>
      </trkpt>
      <trkpt lat="45.10582" lon="1.19504">
        <ele>184.60000610352</ele>
        <time>2011-08-21T07:49:52.000Z</time>
      </trkpt>
      <trkpt lat="45.10611" lon="1.19504">
        <ele>183.39999389648</ele>
        <time>2011-08-21T07:49:57.000Z</time>
      </trkpt>
      <trkpt lat="45.10632" lon="1.19513">
        <ele>182.60000610352</ele>
        <time>2011-08-21T07:50:01.000Z</time>
      </trkpt>
      <trkpt lat="45.10637" lon="1.1951">
        <ele>182.39999389648</ele>
        <time>2011-08-21T07:50:02.000Z</time>
      </trkpt>
      <trkpt lat="45.10664" lon="1.19492">
        <ele>182.19999694824</ele>
        <time>2011-08-21T07:50:09.000Z</time>
      </trkpt>
      <trkpt lat="45.10688" lon="1.19475">
        <ele>182.60000610352</ele>
        <time>2011-08-21T07:50:16.000Z</time>
      </trkpt>
      <trkpt lat="45.1072" lon="1.19454">
        <ele>183.39999389648</ele>
        <time>2011-08-21T07:50:25.000Z</time>
      </trkpt>
      <trkpt lat="45.10744" lon="1.19449">
        <ele>184.39999389648</ele>
        <time>2011-08-21T07:50:32.000Z</time>
      </trkpt>
      <trkpt lat="45.10765" lon="1.1944">
        <ele>185.19999694824</ele>
        <time>2011-08-21T07:50:38.000Z</time>
      </trkpt>
      <trkpt lat="45.10793" lon="1.19423">
        <ele>186.80000305176</ele>
        <time>2011-08-21T07:50:48.000Z</time>
      </trkpt>
      <trkpt lat="45.1082" lon="1.19408">
        <ele>188.39999389648</ele>
        <time>2011-08-21T07:50:57.000Z</time>
      </trkpt>
      <trkpt lat="45.10851" lon="1.19392">
        <ele>190.39999389648</ele>
        <time>2011-08-21T07:51:08.000Z</time>
      </trkpt>
      <trkpt lat="45.1088" lon="1.19379">
        <ele>192.60000610352</ele>
        <time>2011-08-21T07:51:18.000Z</time>
      </trkpt>
      <trkpt lat="45.10907" lon="1.19372">
        <ele>194.19999694824</ele>
        <time>2011-08-21T07:51:27.000Z</time>
      </trkpt>
      <trkpt lat="45.10928" lon="1.19367">
        <ele>195.60000610352</ele>
        <time>2011-08-21T07:51:35.000Z</time>
      </trkpt>
      <trkpt lat="45.1095" lon="1.19362">
        <ele>197</ele>
        <time>2011-08-21T07:51:43.000Z</time>
      </trkpt>
      <trkpt lat="45.10972" lon="1.19347">
        <ele>198.60000610352</ele>
        <time>2011-08-21T07:51:52.000Z</time>
      </trkpt>
      <trkpt lat="45.10989" lon="1.19333">
        <ele>200</ele>
        <time>2011-08-21T07:51:59.000Z</time>
      </trkpt>
      <trkpt lat="45.11004" lon="1.19327">
        <ele>201.39999389648</ele>
        <time>2011-08-21T07:52:05.000Z</time>
      </trkpt>
      <trkpt lat="45.11018" lon="1.19339">
        <ele>202.39999389648</ele>
        <time>2011-08-21T07:52:11.000Z</time>
      </trkpt>
      <trkpt lat="45.11033" lon="1.19357">
        <ele>203.19999694824</ele>
        <time>2011-08-21T07:52:18.000Z</time>
      </trkpt>
      <trkpt lat="45.1105" lon="1.19386">
        <ele>205</ele>
        <time>2011-08-21T07:52:27.000Z</time>
      </trkpt>
      <trkpt lat="45.1107" lon="1.19425">
        <ele>207</ele>
        <time>2011-08-21T07:52:38.000Z</time>
      </trkpt>
      <trkpt lat="45.11089" lon="1.19453">
        <ele>207.60000610352</ele>
        <time>2011-08-21T07:52:47.000Z</time>
      </trkpt>
      <trkpt lat="45.11104" lon="1.19467">
        <ele>208</ele>
        <time>2011-08-21T07:52:53.000Z</time>
      </trkpt>
      <trkpt lat="45.11113" lon="1.19472">
        <ele>208.39999389648</ele>
        <time>2011-08-21T07:52:56.000Z</time>
      </trkpt>
      <trkpt lat="45.11112" lon="1.19493">
        <ele>206</ele>
        <time>2011-08-21T07:53:00.000Z</time>
      </trkpt>
      <trkpt lat="45.1111" lon="1.19511">
        <ele>203.80000305176</ele>
        <time>2011-08-21T07:53:02.000Z</time>
      </trkpt>
      <trkpt lat="45.1111" lon="1.1953">
        <ele>200.39999389648</ele>
        <time>2011-08-21T07:53:04.000Z</time>
      </trkpt>
      <trkpt lat="45.11116" lon="1.19588">
        <ele>191</ele>
        <time>2011-08-21T07:53:08.000Z</time>
      </trkpt>
      <trkpt lat="45.11121" lon="1.19643">
        <ele>191.19999694824</ele>
        <time>2011-08-21T07:53:12.000Z</time>
      </trkpt>
      <trkpt lat="45.11123" lon="1.19663">
        <ele>193.60000610352</ele>
        <time>2011-08-21T07:53:15.000Z</time>
      </trkpt>
      <trkpt lat="45.11126" lon="1.19701">
        <ele>198.80000305176</ele>
        <time>2011-08-21T07:53:23.000Z</time>
      </trkpt>
      <trkpt lat="45.11128" lon="1.19726">
        <ele>201</ele>
        <time>2011-08-21T07:53:30.000Z</time>
      </trkpt>
      <trkpt lat="45.11127" lon="1.19754">
        <ele>202.60000610352</ele>
        <time>2011-08-21T07:53:38.000Z</time>
      </trkpt>
      <trkpt lat="45.11121" lon="1.19784">
        <ele>201.19999694824</ele>
        <time>2011-08-21T07:53:46.000Z</time>
      </trkpt>
      <trkpt lat="45.11116" lon="1.19811">
        <ele>199.39999389648</ele>
        <time>2011-08-21T07:53:50.000Z</time>
      </trkpt>
      <trkpt lat="45.1111" lon="1.19848">
        <ele>196</ele>
        <time>2011-08-21T07:53:54.000Z</time>
      </trkpt>
      <trkpt lat="45.11106" lon="1.19871">
        <ele>192</ele>
        <time>2011-08-21T07:53:57.000Z</time>
      </trkpt>
      <trkpt lat="45.11101" lon="1.1991">
        <ele>186</ele>
        <time>2011-08-21T07:54:01.000Z</time>
      </trkpt>
      <trkpt lat="45.11094" lon="1.19936">
        <ele>183.60000610352</ele>
        <time>2011-08-21T07:54:05.000Z</time>
      </trkpt>
      <trkpt lat="45.11091" lon="1.19951">
        <ele>185.60000610352</ele>
        <time>2011-08-21T07:54:10.000Z</time>
      </trkpt>
      <trkpt lat="45.11088" lon="1.19977">
        <ele>191.19999694824</ele>
        <time>2011-08-21T07:54:18.000Z</time>
      </trkpt>
      <trkpt lat="45.11086" lon="1.20006">
        <ele>196.60000610352</ele>
        <time>2011-08-21T07:54:27.000Z</time>
      </trkpt>
      <trkpt lat="45.11083" lon="1.20034">
        <ele>200</ele>
        <time>2011-08-21T07:54:35.000Z</time>
      </trkpt>
      <trkpt lat="45.1108" lon="1.2006">
        <ele>202.39999389648</ele>
        <time>2011-08-21T07:54:43.000Z</time>
      </trkpt>
      <trkpt lat="45.11075" lon="1.20099">
        <ele>204.60000610352</ele>
        <time>2011-08-21T07:54:55.000Z</time>
      </trkpt>
      <trkpt lat="45.11073" lon="1.2013">
        <ele>204.39999389648</ele>
        <time>2011-08-21T07:55:04.000Z</time>
      </trkpt>
      <trkpt lat="45.11062" lon="1.20136">
        <ele>203.80000305176</ele>
        <time>2011-08-21T07:55:09.000Z</time>
      </trkpt>
      <trkpt lat="45.11054" lon="1.20136">
        <ele>203.19999694824</ele>
        <time>2011-08-21T07:55:12.000Z</time>
      </trkpt>
      <trkpt lat="45.11041" lon="1.20144">
        <ele>202</ele>
        <time>2011-08-21T07:55:18.000Z</time>
      </trkpt>
      <trkpt lat="45.11036" lon="1.20157">
        <ele>201.60000610352</ele>
        <time>2011-08-21T07:55:22.000Z</time>
      </trkpt>
      <trkpt lat="45.11034" lon="1.2016">
        <ele>201.39999389648</ele>
        <time>2011-08-21T07:55:26.000Z</time>
      </trkpt>
      <trkpt lat="45.11027" lon="1.20163">
        <ele>202.60000610352</ele>
        <time>2011-08-21T07:57:56.000Z</time>
      </trkpt>
      <trkpt lat="45.11014" lon="1.20167">
        <ele>202.39999389648</ele>
        <time>2011-08-21T07:58:01.000Z</time>
      </trkpt>
      <trkpt lat="45.10994" lon="1.20179">
        <ele>201.60000610352</ele>
        <time>2011-08-21T07:58:07.000Z</time>
      </trkpt>
      <trkpt lat="45.10965" lon="1.20196">
        <ele>200.19999694824</ele>
        <time>2011-08-21T07:58:14.000Z</time>
      </trkpt>
      <trkpt lat="45.10925" lon="1.20218">
        <ele>197.80000305176</ele>
        <time>2011-08-21T07:58:21.000Z</time>
      </trkpt>
      <trkpt lat="45.1089" lon="1.20239">
        <ele>196.39999389648</ele>
        <time>2011-08-21T07:58:27.000Z</time>
      </trkpt>
      <trkpt lat="45.10848" lon="1.20262">
        <ele>194.80000305176</ele>
        <time>2011-08-21T07:58:34.000Z</time>
      </trkpt>
      <trkpt lat="45.10789" lon="1.20292">
        <ele>193.60000610352</ele>
        <time>2011-08-21T07:58:43.000Z</time>
      </trkpt>
      <trkpt lat="45.10757" lon="1.20311">
        <ele>194</ele>
        <time>2011-08-21T07:58:49.000Z</time>
      </trkpt>
      <trkpt lat="45.10721" lon="1.20331">
        <ele>193.60000610352</ele>
        <time>2011-08-21T07:58:57.000Z</time>
      </trkpt>
      <trkpt lat="45.10681" lon="1.20353">
        <ele>192.39999389648</ele>
        <time>2011-08-21T07:59:07.000Z</time>
      </trkpt>
      <trkpt lat="45.10645" lon="1.20372">
        <ele>190.80000305176</ele>
        <time>2011-08-21T07:59:15.000Z</time>
      </trkpt>
      <trkpt lat="45.10602" lon="1.20397">
        <ele>188.19999694824</ele>
        <time>2011-08-21T07:59:23.000Z</time>
      </trkpt>
      <trkpt lat="45.1056" lon="1.20419">
        <ele>184.39999389648</ele>
        <time>2011-08-21T07:59:29.000Z</time>
      </trkpt>
      <trkpt lat="45.1051" lon="1.20445">
        <ele>180.39999389648</ele>
        <time>2011-08-21T07:59:35.000Z</time>
      </trkpt>
      <trkpt lat="45.10465" lon="1.20473">
        <ele>176.39999389648</ele>
        <time>2011-08-21T07:59:40.000Z</time>
      </trkpt>
      <trkpt lat="45.1041" lon="1.20503">
        <ele>171.60000610352</ele>
        <time>2011-08-21T07:59:46.000Z</time>
      </trkpt>
      <trkpt lat="45.10402" lon="1.20508">
        <ele>171</ele>
        <time>2011-08-21T07:59:47.000Z</time>
      </trkpt>
      <trkpt lat="45.10383" lon="1.20537">
        <ele>168.39999389648</ele>
        <time>2011-08-21T07:59:51.000Z</time>
      </trkpt>
      <trkpt lat="45.10379" lon="1.20556">
        <ele>166.80000305176</ele>
        <time>2011-08-21T07:59:53.000Z</time>
      </trkpt>
      <trkpt lat="45.10374" lon="1.20575">
        <ele>165.39999389648</ele>
        <time>2011-08-21T07:59:55.000Z</time>
      </trkpt>
      <trkpt lat="45.10354" lon="1.20602">
        <ele>163.60000610352</ele>
        <time>2011-08-21T07:59:59.000Z</time>
      </trkpt>
      <trkpt lat="45.10339" lon="1.20602">
        <ele>163.39999389648</ele>
        <time>2011-08-21T08:00:01.000Z</time>
      </trkpt>
      <trkpt lat="45.10306" lon="1.20604">
        <ele>163.19999694824</ele>
        <time>2011-08-21T08:00:05.000Z</time>
      </trkpt>
      <trkpt lat="45.10283" lon="1.20614">
        <ele>162.19999694824</ele>
        <time>2011-08-21T08:00:08.000Z</time>
      </trkpt>
      <trkpt lat="45.10245" lon="1.20639">
        <ele>161.19999694824</ele>
        <time>2011-08-21T08:00:13.000Z</time>
      </trkpt>
      <trkpt lat="45.10208" lon="1.20673">
        <ele>159.39999389648</ele>
        <time>2011-08-21T08:00:18.000Z</time>
      </trkpt>
      <trkpt lat="45.10183" lon="1.20705">
        <ele>158</ele>
        <time>2011-08-21T08:00:22.000Z</time>
      </trkpt>
      <trkpt lat="45.10176" lon="1.20735">
        <ele>155.80000305176</ele>
        <time>2011-08-21T08:00:25.000Z</time>
      </trkpt>
      <trkpt lat="45.10164" lon="1.20793">
        <ele>151.80000305176</ele>
        <time>2011-08-21T08:00:30.000Z</time>
      </trkpt>
      <trkpt lat="45.10153" lon="1.20842">
        <ele>148.39999389648</ele>
        <time>2011-08-21T08:00:34.000Z</time>
      </trkpt>
      <trkpt lat="45.1015" lon="1.20873">
        <ele>144.80000305176</ele>
        <time>2011-08-21T08:00:37.000Z</time>
      </trkpt>
      <trkpt lat="45.10146" lon="1.20907">
        <ele>140.80000305176</ele>
        <time>2011-08-21T08:00:40.000Z</time>
      </trkpt>
      <trkpt lat="45.10125" lon="1.20941">
        <ele>136.19999694824</ele>
        <time>2011-08-21T08:00:44.000Z</time>
      </trkpt>
      <trkpt lat="45.10084" lon="1.2098">
        <ele>131.80000305176</ele>
        <time>2011-08-21T08:00:50.000Z</time>
      </trkpt>
      <trkpt lat="45.10076" lon="1.20997">
        <ele>130.80000305176</ele>
        <time>2011-08-21T08:00:52.000Z</time>
      </trkpt>
      <trkpt lat="45.1006" lon="1.21029">
        <ele>128.39999389648</ele>
        <time>2011-08-21T08:00:56.000Z</time>
      </trkpt>
      <trkpt lat="45.10047" lon="1.21055">
        <ele>127.59999847412</ele>
        <time>2011-08-21T08:00:59.000Z</time>
      </trkpt>
      <trkpt lat="45.10035" lon="1.21082">
        <ele>127</ele>
        <time>2011-08-21T08:01:02.000Z</time>
      </trkpt>
      <trkpt lat="45.10013" lon="1.21139">
        <ele>125.59999847412</ele>
        <time>2011-08-21T08:01:08.000Z</time>
      </trkpt>
      <trkpt lat="45.09987" lon="1.21152">
        <ele>124.80000305176</ele>
        <time>2011-08-21T08:01:12.000Z</time>
      </trkpt>
      <trkpt lat="45.09981" lon="1.21156">
        <ele>124.59999847412</ele>
        <time>2011-08-21T08:01:13.000Z</time>
      </trkpt>
      <trkpt lat="45.09962" lon="1.21191">
        <ele>119.80000305176</ele>
        <time>2011-08-21T08:01:18.000Z</time>
      </trkpt>
      <trkpt lat="45.09939" lon="1.21227">
        <ele>116.59999847412</ele>
        <time>2011-08-21T08:01:22.000Z</time>
      </trkpt>
      <trkpt lat="45.09916" lon="1.21244">
        <ele>114.80000305176</ele>
        <time>2011-08-21T08:01:25.000Z</time>
      </trkpt>
      <trkpt lat="45.09882" lon="1.21277">
        <ele>110.59999847412</ele>
        <time>2011-08-21T08:01:30.000Z</time>
      </trkpt>
      <trkpt lat="45.0987" lon="1.21294">
        <ele>109.19999694824</ele>
        <time>2011-08-21T08:01:32.000Z</time>
      </trkpt>
      <trkpt lat="45.09835" lon="1.21325">
        <ele>107.80000305176</ele>
        <time>2011-08-21T08:01:37.000Z</time>
      </trkpt>
      <trkpt lat="45.09828" lon="1.2133">
        <ele>107.59999847412</ele>
        <time>2011-08-21T08:01:38.000Z</time>
      </trkpt>
      <trkpt lat="45.09808" lon="1.21337">
        <ele>107.19999694824</ele>
        <time>2011-08-21T08:01:41.000Z</time>
      </trkpt>
      <trkpt lat="45.09799" lon="1.21355">
        <ele>106.80000305176</ele>
        <time>2011-08-21T08:01:45.000Z</time>
      </trkpt>
      <trkpt lat="45.09802" lon="1.21361">
        <ele>107</ele>
        <time>2011-08-21T08:01:46.000Z</time>
      </trkpt>
      <trkpt lat="45.09816" lon="1.21402">
        <ele>105</ele>
        <time>2011-08-21T08:01:52.000Z</time>
      </trkpt>
      <trkpt lat="45.09834" lon="1.21437">
        <ele>103.80000305176</ele>
        <time>2011-08-21T08:01:57.000Z</time>
      </trkpt>
      <trkpt lat="45.09857" lon="1.21487">
        <ele>101.19999694824</ele>
        <time>2011-08-21T08:02:03.000Z</time>
      </trkpt>
      <trkpt lat="45.09868" lon="1.21514">
        <ele>99.400001525879</ele>
        <time>2011-08-21T08:02:06.000Z</time>
      </trkpt>
      <trkpt lat="45.09889" lon="1.21554">
        <ele>96.199996948242</ele>
        <time>2011-08-21T08:02:11.000Z</time>
      </trkpt>
      <trkpt lat="45.09892" lon="1.21563">
        <ele>95.400001525879</ele>
        <time>2011-08-21T08:02:12.000Z</time>
      </trkpt>
      <trkpt lat="45.09897" lon="1.21581">
        <ele>94.199996948242</ele>
        <time>2011-08-21T08:02:14.000Z</time>
      </trkpt>
      <trkpt lat="45.09904" lon="1.21611">
        <ele>90.199996948242</ele>
        <time>2011-08-21T08:02:18.000Z</time>
      </trkpt>
      <trkpt lat="45.09905" lon="1.21645">
        <ele>86.599998474121</ele>
        <time>2011-08-21T08:02:22.000Z</time>
      </trkpt>
      <trkpt lat="45.09905" lon="1.21671">
        <ele>85.199996948242</ele>
        <time>2011-08-21T08:02:25.000Z</time>
      </trkpt>
      <trkpt lat="45.09897" lon="1.21701">
        <ele>83.199996948242</ele>
        <time>2011-08-21T08:02:30.000Z</time>
      </trkpt>
      <trkpt lat="45.0989" lon="1.21722">
        <ele>81</ele>
        <time>2011-08-21T08:02:35.000Z</time>
      </trkpt>
      <trkpt lat="45.09883" lon="1.21741">
        <ele>82.800003051758</ele>
        <time>2011-08-21T08:02:41.000Z</time>
      </trkpt>
      <trkpt lat="45.09876" lon="1.21765">
        <ele>88.800003051758</ele>
        <time>2011-08-21T08:02:49.000Z</time>
      </trkpt>
      <trkpt lat="45.09876" lon="1.21781">
        <ele>92.800003051758</ele>
        <time>2011-08-21T08:02:55.000Z</time>
      </trkpt>
      <trkpt lat="45.09879" lon="1.21799">
        <ele>96.599998474121</ele>
        <time>2011-08-21T08:03:03.000Z</time>
      </trkpt>
      <trkpt lat="45.09881" lon="1.21809">
        <ele>98.800003051758</ele>
        <time>2011-08-21T08:03:08.000Z</time>
      </trkpt>
      <trkpt lat="45.09889" lon="1.21826">
        <ele>100.19999694824</ele>
        <time>2011-08-21T08:03:16.000Z</time>
      </trkpt>
      <trkpt lat="45.09899" lon="1.21828">
        <ele>101.80000305176</ele>
        <time>2011-08-21T08:03:22.000Z</time>
      </trkpt>
      <trkpt lat="45.09911" lon="1.21831">
        <ele>104</ele>
        <time>2011-08-21T08:03:29.000Z</time>
      </trkpt>
      <trkpt lat="45.09922" lon="1.21833">
        <ele>104.40000152588</ele>
        <time>2011-08-21T08:03:36.000Z</time>
      </trkpt>
      <trkpt lat="45.09937" lon="1.2183">
        <ele>107.40000152588</ele>
        <time>2011-08-21T08:03:44.000Z</time>
      </trkpt>
      <trkpt lat="45.09956" lon="1.21823">
        <ele>111.80000305176</ele>
        <time>2011-08-21T08:03:54.000Z</time>
      </trkpt>
      <trkpt lat="45.09967" lon="1.21829">
        <ele>113.80000305176</ele>
        <time>2011-08-21T08:04:01.000Z</time>
      </trkpt>
      <trkpt lat="45.09982" lon="1.21835">
        <ele>116</ele>
        <time>2011-08-21T08:04:09.000Z</time>
      </trkpt>
      <trkpt lat="45.09996" lon="1.21834">
        <ele>116.80000305176</ele>
        <time>2011-08-21T08:04:16.000Z</time>
      </trkpt>
      <trkpt lat="45.1" lon="1.21832">
        <ele>117.40000152588</ele>
        <time>2011-08-21T08:04:18.000Z</time>
      </trkpt>
      <trkpt lat="45.10001" lon="1.21824">
        <ele>118.40000152588</ele>
        <time>2011-08-21T08:04:23.000Z</time>
      </trkpt>
      <trkpt lat="45.09998" lon="1.21817">
        <ele>119</ele>
        <time>2011-08-21T08:04:27.000Z</time>
      </trkpt>
      <trkpt lat="45.09992" lon="1.21799">
        <ele>120</ele>
        <time>2011-08-21T08:04:34.000Z</time>
      </trkpt>
      <trkpt lat="45.09988" lon="1.21788">
        <ele>119.40000152588</ele>
        <time>2011-08-21T08:04:39.000Z</time>
      </trkpt>
      <trkpt lat="45.09986" lon="1.21783">
        <ele>119</ele>
        <time>2011-08-21T08:04:43.000Z</time>
      </trkpt>
      <trkpt lat="45.09977" lon="1.21764">
        <ele>121.19999694824</ele>
        <time>2011-08-21T08:06:17.000Z</time>
      </trkpt>
      <trkpt lat="45.09974" lon="1.21755">
        <ele>120.59999847412</ele>
        <time>2011-08-21T08:06:19.000Z</time>
      </trkpt>
      <trkpt lat="45.09972" lon="1.21711">
        <ele>117.40000152588</ele>
        <time>2011-08-21T08:06:25.000Z</time>
      </trkpt>
      <trkpt lat="45.09982" lon="1.21673">
        <ele>115.80000305176</ele>
        <time>2011-08-21T08:06:29.000Z</time>
      </trkpt>
      <trkpt lat="45.0999" lon="1.2166">
        <ele>115.59999847412</ele>
        <time>2011-08-21T08:06:31.000Z</time>
      </trkpt>
      <trkpt lat="45.10006" lon="1.21646">
        <ele>119</ele>
        <time>2011-08-21T08:06:37.000Z</time>
      </trkpt>
      <trkpt lat="45.10029" lon="1.21632">
        <ele>122</ele>
        <time>2011-08-21T08:06:45.000Z</time>
      </trkpt>
      <trkpt lat="45.10047" lon="1.21622">
        <ele>125.40000152588</ele>
        <time>2011-08-21T08:06:52.000Z</time>
      </trkpt>
      <trkpt lat="45.10061" lon="1.21608">
        <ele>127.19999694824</ele>
        <time>2011-08-21T08:06:58.000Z</time>
      </trkpt>
      <trkpt lat="45.10083" lon="1.21585">
        <ele>129.60000610352</ele>
        <time>2011-08-21T08:07:07.000Z</time>
      </trkpt>
      <trkpt lat="45.10116" lon="1.21563">
        <ele>132.19999694824</ele>
        <time>2011-08-21T08:07:18.000Z</time>
      </trkpt>
      <trkpt lat="45.10147" lon="1.21544">
        <ele>133.80000305176</ele>
        <time>2011-08-21T08:07:29.000Z</time>
      </trkpt>
      <trkpt lat="45.10172" lon="1.21526">
        <ele>134.39999389648</ele>
        <time>2011-08-21T08:07:38.000Z</time>
      </trkpt>
      <trkpt lat="45.10194" lon="1.215">
        <ele>134</ele>
        <time>2011-08-21T08:07:45.000Z</time>
      </trkpt>
      <trkpt lat="45.10219" lon="1.21472">
        <ele>134.19999694824</ele>
        <time>2011-08-21T08:07:52.000Z</time>
      </trkpt>
      <trkpt lat="45.10257" lon="1.21444">
        <ele>133.80000305176</ele>
        <time>2011-08-21T08:08:01.000Z</time>
      </trkpt>
      <trkpt lat="45.10285" lon="1.21425">
        <ele>133.39999389648</ele>
        <time>2011-08-21T08:08:07.000Z</time>
      </trkpt>
      <trkpt lat="45.10311" lon="1.21419">
        <ele>133.39999389648</ele>
        <time>2011-08-21T08:08:12.000Z</time>
      </trkpt>
      <trkpt lat="45.1032" lon="1.21425">
        <ele>133.60000610352</ele>
        <time>2011-08-21T08:08:14.000Z</time>
      </trkpt>
      <trkpt lat="45.10342" lon="1.21442">
        <ele>134.39999389648</ele>
        <time>2011-08-21T08:08:21.000Z</time>
      </trkpt>
      <trkpt lat="45.10362" lon="1.2145">
        <ele>135</ele>
        <time>2011-08-21T08:08:27.000Z</time>
      </trkpt>
      <trkpt lat="45.10392" lon="1.21454">
        <ele>135.39999389648</ele>
        <time>2011-08-21T08:08:35.000Z</time>
      </trkpt>
      <trkpt lat="45.10396" lon="1.21453">
        <ele>135.60000610352</ele>
        <time>2011-08-21T08:08:36.000Z</time>
      </trkpt>
      <trkpt lat="45.10427" lon="1.21441">
        <ele>136.80000305176</ele>
        <time>2011-08-21T08:08:44.000Z</time>
      </trkpt>
      <trkpt lat="45.10461" lon="1.21427">
        <ele>138.80000305176</ele>
        <time>2011-08-21T08:08:53.000Z</time>
      </trkpt>
      <trkpt lat="45.10494" lon="1.21411">
        <ele>141</ele>
        <time>2011-08-21T08:09:02.000Z</time>
      </trkpt>
      <trkpt lat="45.10512" lon="1.21389">
        <ele>141</ele>
        <time>2011-08-21T08:09:08.000Z</time>
      </trkpt>
      <trkpt lat="45.10535" lon="1.21355">
        <ele>139.39999389648</ele>
        <time>2011-08-21T08:09:14.000Z</time>
      </trkpt>
      <trkpt lat="45.10558" lon="1.21321">
        <ele>137.39999389648</ele>
        <time>2011-08-21T08:09:19.000Z</time>
      </trkpt>
      <trkpt lat="45.10576" lon="1.21292">
        <ele>135.39999389648</ele>
        <time>2011-08-21T08:09:23.000Z</time>
      </trkpt>
      <trkpt lat="45.10591" lon="1.21245">
        <ele>133.39999389648</ele>
        <time>2011-08-21T08:09:28.000Z</time>
      </trkpt>
      <trkpt lat="45.10605" lon="1.21196">
        <ele>131.60000610352</ele>
        <time>2011-08-21T08:09:33.000Z</time>
      </trkpt>
      <trkpt lat="45.10633" lon="1.2114">
        <ele>129.19999694824</ele>
        <time>2011-08-21T08:09:39.000Z</time>
      </trkpt>
      <trkpt lat="45.10676" lon="1.21084">
        <ele>127.80000305176</ele>
        <time>2011-08-21T08:09:46.000Z</time>
      </trkpt>
      <trkpt lat="45.10694" lon="1.21061">
        <ele>126.80000305176</ele>
        <time>2011-08-21T08:09:49.000Z</time>
      </trkpt>
      <trkpt lat="45.10727" lon="1.21033">
        <ele>125</ele>
        <time>2011-08-21T08:09:54.000Z</time>
      </trkpt>
      <trkpt lat="45.10728" lon="1.21019">
        <ele>123.40000152588</ele>
        <time>2011-08-21T08:09:57.000Z</time>
      </trkpt>
      <trkpt lat="45.10715" lon="1.2102">
        <ele>121.80000305176</ele>
        <time>2011-08-21T08:10:00.000Z</time>
      </trkpt>
      <trkpt lat="45.10705" lon="1.21026">
        <ele>121.19999694824</ele>
        <time>2011-08-21T08:10:02.000Z</time>
      </trkpt>
      <trkpt lat="45.10682" lon="1.2103">
        <ele>120.80000305176</ele>
        <time>2011-08-21T08:10:06.000Z</time>
      </trkpt>
      <trkpt lat="45.10661" lon="1.21043">
        <ele>121.40000152588</ele>
        <time>2011-08-21T08:10:10.000Z</time>
      </trkpt>
      <trkpt lat="45.10651" lon="1.21052">
        <ele>121.40000152588</ele>
        <time>2011-08-21T08:10:12.000Z</time>
      </trkpt>
      <trkpt lat="45.10618" lon="1.21074">
        <ele>122</ele>
        <time>2011-08-21T08:10:18.000Z</time>
      </trkpt>
      <trkpt lat="45.1058" lon="1.21102">
        <ele>123</ele>
        <time>2011-08-21T08:10:25.000Z</time>
      </trkpt>
      <trkpt lat="45.10563" lon="1.2111">
        <ele>123.80000305176</ele>
        <time>2011-08-21T08:10:28.000Z</time>
      </trkpt>
      <trkpt lat="45.10553" lon="1.21117">
        <ele>123.80000305176</ele>
        <time>2011-08-21T08:10:30.000Z</time>
      </trkpt>
      <trkpt lat="45.10531" lon="1.21132">
        <ele>125.40000152588</ele>
        <time>2011-08-21T08:10:35.000Z</time>
      </trkpt>
      <trkpt lat="45.10527" lon="1.21133">
        <ele>126</ele>
        <time>2011-08-21T08:10:36.000Z</time>
      </trkpt>
      <trkpt lat="45.10511" lon="1.21137">
        <ele>129.60000610352</ele>
        <time>2011-08-21T08:10:41.000Z</time>
      </trkpt>
      <trkpt lat="45.10494" lon="1.21132">
        <ele>133</ele>
        <time>2011-08-21T08:10:47.000Z</time>
      </trkpt>
      <trkpt lat="45.10472" lon="1.21128">
        <ele>136.80000305176</ele>
        <time>2011-08-21T08:10:55.000Z</time>
      </trkpt>
      <trkpt lat="45.10458" lon="1.21129">
        <ele>138.80000305176</ele>
        <time>2011-08-21T08:11:00.000Z</time>
      </trkpt>
      <trkpt lat="45.10442" lon="1.21137">
        <ele>139.80000305176</ele>
        <time>2011-08-21T08:11:05.000Z</time>
      </trkpt>
      <trkpt lat="45.10417" lon="1.21147">
        <ele>139.39999389648</ele>
        <time>2011-08-21T08:11:12.000Z</time>
      </trkpt>
      <trkpt lat="45.10413" lon="1.21149">
        <ele>139.19999694824</ele>
        <time>2011-08-21T08:11:13.000Z</time>
      </trkpt>
      <trkpt lat="45.10387" lon="1.21145">
        <ele>138.60000610352</ele>
        <time>2011-08-21T08:11:19.000Z</time>
      </trkpt>
      <trkpt lat="45.1038" lon="1.21129">
        <ele>138.39999389648</ele>
        <time>2011-08-21T08:11:23.000Z</time>
      </trkpt>
      <trkpt lat="45.10379" lon="1.21118">
        <ele>138.60000610352</ele>
        <time>2011-08-21T08:11:26.000Z</time>
      </trkpt>
      <trkpt lat="45.1038" lon="1.21089">
        <ele>140.39999389648</ele>
        <time>2011-08-21T08:11:35.000Z</time>
      </trkpt>
      <trkpt lat="45.10381" lon="1.21065">
        <ele>143</ele>
        <time>2011-08-21T08:11:42.000Z</time>
      </trkpt>
      <trkpt lat="45.10382" lon="1.21059">
        <ele>143.60000610352</ele>
        <time>2011-08-21T08:11:44.000Z</time>
      </trkpt>
      <trkpt lat="45.1039" lon="1.21039">
        <ele>146.80000305176</ele>
        <time>2011-08-21T08:11:52.000Z</time>
      </trkpt>
      <trkpt lat="45.10397" lon="1.21023">
        <ele>147.19999694824</ele>
        <time>2011-08-21T08:11:58.000Z</time>
      </trkpt>
      <trkpt lat="45.10404" lon="1.21002">
        <ele>149</ele>
        <time>2011-08-21T08:12:05.000Z</time>
      </trkpt>
      <trkpt lat="45.10411" lon="1.20966">
        <ele>150.60000610352</ele>
        <time>2011-08-21T08:12:16.000Z</time>
      </trkpt>
      <trkpt lat="45.10418" lon="1.20938">
        <ele>152.60000610352</ele>
        <time>2011-08-21T08:12:25.000Z</time>
      </trkpt>
      <trkpt lat="45.10426" lon="1.2091">
        <ele>154.19999694824</ele>
        <time>2011-08-21T08:12:34.000Z</time>
      </trkpt>
      <trkpt lat="45.10434" lon="1.20885">
        <ele>155.60000610352</ele>
        <time>2011-08-21T08:12:42.000Z</time>
      </trkpt>
      <trkpt lat="45.10446" lon="1.20865">
        <ele>157.19999694824</ele>
        <time>2011-08-21T08:12:50.000Z</time>
      </trkpt>
      <trkpt lat="45.10459" lon="1.20851">
        <ele>158.39999389648</ele>
        <time>2011-08-21T08:12:56.000Z</time>
      </trkpt>
      <trkpt lat="45.10474" lon="1.20821">
        <ele>160.39999389648</ele>
        <time>2011-08-21T08:13:05.000Z</time>
      </trkpt>
      <trkpt lat="45.10489" lon="1.20784">
        <ele>163</ele>
        <time>2011-08-21T08:13:15.000Z</time>
      </trkpt>
      <trkpt lat="45.10505" lon="1.20748">
        <ele>164.39999389648</ele>
        <time>2011-08-21T08:13:25.000Z</time>
      </trkpt>
      <trkpt lat="45.10517" lon="1.20735">
        <ele>165.19999694824</ele>
        <time>2011-08-21T08:13:30.000Z</time>
      </trkpt>
      <trkpt lat="45.1054" lon="1.20729">
        <ele>168</ele>
        <time>2011-08-21T08:13:37.000Z</time>
      </trkpt>
      <trkpt lat="45.10563" lon="1.2072">
        <ele>171</ele>
        <time>2011-08-21T08:13:44.000Z</time>
      </trkpt>
      <trkpt lat="45.10582" lon="1.20709">
        <ele>172.19999694824</ele>
        <time>2011-08-21T08:13:50.000Z</time>
      </trkpt>
      <trkpt lat="45.10605" lon="1.2069">
        <ele>174</ele>
        <time>2011-08-21T08:13:58.000Z</time>
      </trkpt>
      <trkpt lat="45.10612" lon="1.20671">
        <ele>174.39999389648</ele>
        <time>2011-08-21T08:14:03.000Z</time>
      </trkpt>
      <trkpt lat="45.10611" lon="1.20644">
        <ele>177.19999694824</ele>
        <time>2011-08-21T08:14:10.000Z</time>
      </trkpt>
      <trkpt lat="45.10612" lon="1.2062">
        <ele>180.39999389648</ele>
        <time>2011-08-21T08:14:16.000Z</time>
      </trkpt>
      <trkpt lat="45.10615" lon="1.20593">
        <ele>182</ele>
        <time>2011-08-21T08:14:22.000Z</time>
      </trkpt>
      <trkpt lat="45.10614" lon="1.20568">
        <ele>183.60000610352</ele>
        <time>2011-08-21T08:14:28.000Z</time>
      </trkpt>
      <trkpt lat="45.10608" lon="1.20539">
        <ele>185.19999694824</ele>
        <time>2011-08-21T08:14:35.000Z</time>
      </trkpt>
      <trkpt lat="45.10605" lon="1.20512">
        <ele>185.60000610352</ele>
        <time>2011-08-21T08:14:42.000Z</time>
      </trkpt>
      <trkpt lat="45.10607" lon="1.2048">
        <ele>186.80000305176</ele>
        <time>2011-08-21T08:14:50.000Z</time>
      </trkpt>
      <trkpt lat="45.10619" lon="1.20446">
        <ele>188.39999389648</ele>
        <time>2011-08-21T08:15:00.000Z</time>
      </trkpt>
      <trkpt lat="45.10632" lon="1.20423">
        <ele>189.39999389648</ele>
        <time>2011-08-21T08:15:08.000Z</time>
      </trkpt>
      <trkpt lat="45.10654" lon="1.20397">
        <ele>191.39999389648</ele>
        <time>2011-08-21T08:15:18.000Z</time>
      </trkpt>
      <trkpt lat="45.10667" lon="1.20382">
        <ele>191.80000305176</ele>
        <time>2011-08-21T08:15:24.000Z</time>
      </trkpt>
      <trkpt lat="45.10682" lon="1.20372">
        <ele>192.80000305176</ele>
        <time>2011-08-21T08:15:30.000Z</time>
      </trkpt>
      <trkpt lat="45.10707" lon="1.20362">
        <ele>193.39999389648</ele>
        <time>2011-08-21T08:15:40.000Z</time>
      </trkpt>
      <trkpt lat="45.10721" lon="1.20358">
        <ele>194.19999694824</ele>
        <time>2011-08-21T08:15:45.000Z</time>
      </trkpt>
      <trkpt lat="45.10741" lon="1.20355">
        <ele>194.39999389648</ele>
        <time>2011-08-21T08:15:52.000Z</time>
      </trkpt>
      <trkpt lat="45.10762" lon="1.2035">
        <ele>194.80000305176</ele>
        <time>2011-08-21T08:15:59.000Z</time>
      </trkpt>
      <trkpt lat="45.1079" lon="1.20342">
        <ele>195.19999694824</ele>
        <time>2011-08-21T08:16:07.000Z</time>
      </trkpt>
      <trkpt lat="45.1081" lon="1.20335">
        <ele>195</ele>
        <time>2011-08-21T08:16:12.000Z</time>
      </trkpt>
      <trkpt lat="45.1084" lon="1.20323">
        <ele>195.19999694824</ele>
        <time>2011-08-21T08:16:19.000Z</time>
      </trkpt>
      <trkpt lat="45.10855" lon="1.20312">
        <ele>195.39999389648</ele>
        <time>2011-08-21T08:16:23.000Z</time>
      </trkpt>
      <trkpt lat="45.10885" lon="1.20286">
        <ele>195.19999694824</ele>
        <time>2011-08-21T08:16:31.000Z</time>
      </trkpt>
      <trkpt lat="45.10918" lon="1.20258">
        <ele>195.60000610352</ele>
        <time>2011-08-21T08:16:40.000Z</time>
      </trkpt>
      <trkpt lat="45.10947" lon="1.20234">
        <ele>196.80000305176</ele>
        <time>2011-08-21T08:16:48.000Z</time>
      </trkpt>
      <trkpt lat="45.1097" lon="1.20212">
        <ele>197.80000305176</ele>
        <time>2011-08-21T08:16:55.000Z</time>
      </trkpt>
      <trkpt lat="45.10987" lon="1.20203">
        <ele>198.60000610352</ele>
        <time>2011-08-21T08:16:59.000Z</time>
      </trkpt>
      <trkpt lat="45.11025" lon="1.20185">
        <ele>200.19999694824</ele>
        <time>2011-08-21T08:17:07.000Z</time>
      </trkpt>
      <trkpt lat="45.11041" lon="1.20174">
        <ele>200.80000305176</ele>
        <time>2011-08-21T08:17:10.000Z</time>
      </trkpt>
      <trkpt lat="45.11067" lon="1.20163">
        <ele>201.80000305176</ele>
        <time>2011-08-21T08:17:15.000Z</time>
      </trkpt>
      <trkpt lat="45.11078" lon="1.20152">
        <ele>202.39999389648</ele>
        <time>2011-08-21T08:17:18.000Z</time>
      </trkpt>
      <trkpt lat="45.11092" lon="1.20137">
        <ele>203.19999694824</ele>
        <time>2011-08-21T08:17:22.000Z</time>
      </trkpt>
      <trkpt lat="45.11123" lon="1.20121">
        <ele>204.60000610352</ele>
        <time>2011-08-21T08:17:30.000Z</time>
      </trkpt>
      <trkpt lat="45.11146" lon="1.20106">
        <ele>205.39999389648</ele>
        <time>2011-08-21T08:17:36.000Z</time>
      </trkpt>
      <trkpt lat="45.11162" lon="1.20095">
        <ele>205.80000305176</ele>
        <time>2011-08-21T08:17:40.000Z</time>
      </trkpt>
      <trkpt lat="45.11177" lon="1.20081">
        <ele>205.39999389648</ele>
        <time>2011-08-21T08:17:44.000Z</time>
      </trkpt>
      <trkpt lat="45.11214" lon="1.20055">
        <ele>206</ele>
        <time>2011-08-21T08:17:53.000Z</time>
      </trkpt>
      <trkpt lat="45.11238" lon="1.20034">
        <ele>206</ele>
        <time>2011-08-21T08:17:59.000Z</time>
      </trkpt>
      <trkpt lat="45.11252" lon="1.20016">
        <ele>206.39999389648</ele>
        <time>2011-08-21T08:18:03.000Z</time>
      </trkpt>
      <trkpt lat="45.11266" lon="1.1998">
        <ele>208</ele>
        <time>2011-08-21T08:18:10.000Z</time>
      </trkpt>
      <trkpt lat="45.11275" lon="1.19957">
        <ele>208.80000305176</ele>
        <time>2011-08-21T08:18:14.000Z</time>
      </trkpt>
      <trkpt lat="45.11291" lon="1.19908">
        <ele>210.60000610352</ele>
        <time>2011-08-21T08:18:22.000Z</time>
      </trkpt>
      <trkpt lat="45.11304" lon="1.19872">
        <ele>211.80000305176</ele>
        <time>2011-08-21T08:18:29.000Z</time>
      </trkpt>
      <trkpt lat="45.11306" lon="1.19869">
        <ele>212</ele>
        <time>2011-08-21T08:18:30.000Z</time>
      </trkpt>
      <trkpt lat="45.11309" lon="1.19878">
        <ele>212</ele>
        <time>2011-08-21T08:18:34.000Z</time>
      </trkpt>
      <trkpt lat="45.11311" lon="1.19921">
        <ele>211.39999389648</ele>
        <time>2011-08-21T08:18:41.000Z</time>
      </trkpt>
      <trkpt lat="45.11316" lon="1.19989">
        <ele>210</ele>
        <time>2011-08-21T08:18:50.000Z</time>
      </trkpt>
      <trkpt lat="45.11313" lon="1.20046">
        <ele>208.80000305176</ele>
        <time>2011-08-21T08:18:57.000Z</time>
      </trkpt>
      <trkpt lat="45.11313" lon="1.20112">
        <ele>206.39999389648</ele>
        <time>2011-08-21T08:19:04.000Z</time>
      </trkpt>
      <trkpt lat="45.11312" lon="1.20182">
        <ele>202.39999389648</ele>
        <time>2011-08-21T08:19:10.000Z</time>
      </trkpt>
      <trkpt lat="45.11307" lon="1.2025">
        <ele>197.80000305176</ele>
        <time>2011-08-21T08:19:15.000Z</time>
      </trkpt>
      <trkpt lat="45.11286" lon="1.20326">
        <ele>190.80000305176</ele>
        <time>2011-08-21T08:19:21.000Z</time>
      </trkpt>
      <trkpt lat="45.11262" lon="1.20391">
        <ele>184.39999389648</ele>
        <time>2011-08-21T08:19:26.000Z</time>
      </trkpt>
      <trkpt lat="45.11257" lon="1.20403">
        <ele>183.19999694824</ele>
        <time>2011-08-21T08:19:27.000Z</time>
      </trkpt>
      <trkpt lat="45.11233" lon="1.2044">
        <ele>179.80000305176</ele>
        <time>2011-08-21T08:19:31.000Z</time>
      </trkpt>
      <trkpt lat="45.11212" lon="1.20466">
        <ele>177</ele>
        <time>2011-08-21T08:19:34.000Z</time>
      </trkpt>
      <trkpt lat="45.11194" lon="1.20498">
        <ele>174.39999389648</ele>
        <time>2011-08-21T08:19:37.000Z</time>
      </trkpt>
      <trkpt lat="45.11168" lon="1.2055">
        <ele>169.80000305176</ele>
        <time>2011-08-21T08:19:41.000Z</time>
      </trkpt>
      <trkpt lat="45.11152" lon="1.20588">
        <ele>166.60000610352</ele>
        <time>2011-08-21T08:19:44.000Z</time>
      </trkpt>
      <trkpt lat="45.11149" lon="1.20612">
        <ele>164.39999389648</ele>
        <time>2011-08-21T08:19:46.000Z</time>
      </trkpt>
      <trkpt lat="45.11149" lon="1.20664">
        <ele>161.60000610352</ele>
        <time>2011-08-21T08:19:50.000Z</time>
      </trkpt>
      <trkpt lat="45.11151" lon="1.207">
        <ele>157.80000305176</ele>
        <time>2011-08-21T08:19:54.000Z</time>
      </trkpt>
      <trkpt lat="45.11144" lon="1.20712">
        <ele>155.80000305176</ele>
        <time>2011-08-21T08:19:56.000Z</time>
      </trkpt>
      <trkpt lat="45.11113" lon="1.20746">
        <ele>150.80000305176</ele>
        <time>2011-08-21T08:20:01.000Z</time>
      </trkpt>
      <trkpt lat="45.1109" lon="1.20771">
        <ele>148.60000610352</ele>
        <time>2011-08-21T08:20:04.000Z</time>
      </trkpt>
      <trkpt lat="45.11067" lon="1.20815">
        <ele>145</ele>
        <time>2011-08-21T08:20:08.000Z</time>
      </trkpt>
      <trkpt lat="45.11058" lon="1.20841">
        <ele>143.19999694824</ele>
        <time>2011-08-21T08:20:10.000Z</time>
      </trkpt>
      <trkpt lat="45.11048" lon="1.20881">
        <ele>140.60000610352</ele>
        <time>2011-08-21T08:20:13.000Z</time>
      </trkpt>
      <trkpt lat="45.11046" lon="1.20922">
        <ele>137.19999694824</ele>
        <time>2011-08-21T08:20:17.000Z</time>
      </trkpt>
      <trkpt lat="45.11052" lon="1.20956">
        <ele>134.19999694824</ele>
        <time>2011-08-21T08:20:20.000Z</time>
      </trkpt>
      <trkpt lat="45.1105" lon="1.21005">
        <ele>131.19999694824</ele>
        <time>2011-08-21T08:20:24.000Z</time>
      </trkpt>
      <trkpt lat="45.11035" lon="1.21029">
        <ele>130.39999389648</ele>
        <time>2011-08-21T08:20:27.000Z</time>
      </trkpt>
      <trkpt lat="45.11024" lon="1.21032">
        <ele>130.60000610352</ele>
        <time>2011-08-21T08:20:29.000Z</time>
      </trkpt>
      <trkpt lat="45.11013" lon="1.21036">
        <ele>131.39999389648</ele>
        <time>2011-08-21T08:20:31.000Z</time>
      </trkpt>
      <trkpt lat="45.10998" lon="1.21051">
        <ele>132.60000610352</ele>
        <time>2011-08-21T08:20:35.000Z</time>
      </trkpt>
      <trkpt lat="45.10976" lon="1.21064">
        <ele>134</ele>
        <time>2011-08-21T08:20:40.000Z</time>
      </trkpt>
      <trkpt lat="45.10972" lon="1.21064">
        <ele>134.19999694824</ele>
        <time>2011-08-21T08:20:41.000Z</time>
      </trkpt>
      <trkpt lat="45.10947" lon="1.21056">
        <ele>136.60000610352</ele>
        <time>2011-08-21T08:20:48.000Z</time>
      </trkpt>
      <trkpt lat="45.10934" lon="1.21046">
        <ele>136.80000305176</ele>
        <time>2011-08-21T08:20:52.000Z</time>
      </trkpt>
      <trkpt lat="45.10915" lon="1.21044">
        <ele>138.19999694824</ele>
        <time>2011-08-21T08:20:57.000Z</time>
      </trkpt>
      <trkpt lat="45.10886" lon="1.21049">
        <ele>140.19999694824</ele>
        <time>2011-08-21T08:21:05.000Z</time>
      </trkpt>
      <trkpt lat="45.10847" lon="1.2106">
        <ele>141.60000610352</ele>
        <time>2011-08-21T08:21:15.000Z</time>
      </trkpt>
      <trkpt lat="45.10829" lon="1.21066">
        <ele>141</ele>
        <time>2011-08-21T08:21:19.000Z</time>
      </trkpt>
      <trkpt lat="45.10807" lon="1.21069">
        <ele>140</ele>
        <time>2011-08-21T08:21:23.000Z</time>
      </trkpt>
      <trkpt lat="45.10749" lon="1.21099">
        <ele>139.39999389648</ele>
        <time>2011-08-21T08:21:33.000Z</time>
      </trkpt>
      <trkpt lat="45.10724" lon="1.21126">
        <ele>140.60000610352</ele>
        <time>2011-08-21T08:21:39.000Z</time>
      </trkpt>
      <trkpt lat="45.10693" lon="1.21169">
        <ele>142.19999694824</ele>
        <time>2011-08-21T08:21:47.000Z</time>
      </trkpt>
      <trkpt lat="45.10653" lon="1.21239">
        <ele>143.80000305176</ele>
        <time>2011-08-21T08:22:00.000Z</time>
      </trkpt>
      <trkpt lat="45.10638" lon="1.2126">
        <ele>143.19999694824</ele>
        <time>2011-08-21T08:22:04.000Z</time>
      </trkpt>
      <trkpt lat="45.10616" lon="1.21308">
        <ele>142.80000305176</ele>
        <time>2011-08-21T08:22:11.000Z</time>
      </trkpt>
      <trkpt lat="45.10617" lon="1.21329">
        <ele>144.19999694824</ele>
        <time>2011-08-21T08:22:15.000Z</time>
      </trkpt>
      <trkpt lat="45.10627" lon="1.2133">
        <ele>145.80000305176</ele>
        <time>2011-08-21T08:22:19.000Z</time>
      </trkpt>
      <trkpt lat="45.10656" lon="1.21318">
        <ele>150.80000305176</ele>
        <time>2011-08-21T08:22:30.000Z</time>
      </trkpt>
      <trkpt lat="45.10683" lon="1.21306">
        <ele>155.60000610352</ele>
        <time>2011-08-21T08:22:41.000Z</time>
      </trkpt>
      <trkpt lat="45.10708" lon="1.21299">
        <ele>160</ele>
        <time>2011-08-21T08:22:53.000Z</time>
      </trkpt>
      <trkpt lat="45.10729" lon="1.21295">
        <ele>163</ele>
        <time>2011-08-21T08:23:04.000Z</time>
      </trkpt>
      <trkpt lat="45.10731" lon="1.21295">
        <ele>163.19999694824</ele>
        <time>2011-08-21T08:23:05.000Z</time>
      </trkpt>
      <trkpt lat="45.10743" lon="1.21306">
        <ele>164.80000305176</ele>
        <time>2011-08-21T08:23:13.000Z</time>
      </trkpt>
      <trkpt lat="45.10756" lon="1.21311">
        <ele>166</ele>
        <time>2011-08-21T08:23:20.000Z</time>
      </trkpt>
      <trkpt lat="45.10773" lon="1.21313">
        <ele>167.80000305176</ele>
        <time>2011-08-21T08:23:29.000Z</time>
      </trkpt>
      <trkpt lat="45.10785" lon="1.21308">
        <ele>169</ele>
        <time>2011-08-21T08:23:35.000Z</time>
      </trkpt>
      <trkpt lat="45.10805" lon="1.21301">
        <ele>170.19999694824</ele>
        <time>2011-08-21T08:23:44.000Z</time>
      </trkpt>
      <trkpt lat="45.10823" lon="1.2129">
        <ele>171.19999694824</ele>
        <time>2011-08-21T08:23:52.000Z</time>
      </trkpt>
      <trkpt lat="45.10843" lon="1.21279">
        <ele>172</ele>
        <time>2011-08-21T08:23:59.000Z</time>
      </trkpt>
      <trkpt lat="45.10866" lon="1.21275">
        <ele>172.39999389648</ele>
        <time>2011-08-21T08:24:06.000Z</time>
      </trkpt>
      <trkpt lat="45.10894" lon="1.21285">
        <ele>172.60000610352</ele>
        <time>2011-08-21T08:24:14.000Z</time>
      </trkpt>
      <trkpt lat="45.10922" lon="1.21303">
        <ele>172</ele>
        <time>2011-08-21T08:24:21.000Z</time>
      </trkpt>
      <trkpt lat="45.10957" lon="1.21324">
        <ele>173</ele>
        <time>2011-08-21T08:24:29.000Z</time>
      </trkpt>
      <trkpt lat="45.10993" lon="1.21337">
        <ele>175</ele>
        <time>2011-08-21T08:24:38.000Z</time>
      </trkpt>
      <trkpt lat="45.1102" lon="1.21347">
        <ele>176.60000610352</ele>
        <time>2011-08-21T08:24:45.000Z</time>
      </trkpt>
      <trkpt lat="45.1104" lon="1.21343">
        <ele>178.19999694824</ele>
        <time>2011-08-21T08:24:50.000Z</time>
      </trkpt>
      <trkpt lat="45.11056" lon="1.21329">
        <ele>180</ele>
        <time>2011-08-21T08:24:55.000Z</time>
      </trkpt>
      <trkpt lat="45.11081" lon="1.21315">
        <ele>181.80000305176</ele>
        <time>2011-08-21T08:25:02.000Z</time>
      </trkpt>
      <trkpt lat="45.11098" lon="1.21305">
        <ele>183</ele>
        <time>2011-08-21T08:25:07.000Z</time>
      </trkpt>
      <trkpt lat="45.1111" lon="1.21301">
        <ele>183.60000610352</ele>
        <time>2011-08-21T08:25:10.000Z</time>
      </trkpt>
      <trkpt lat="45.11129" lon="1.21309">
        <ele>184.60000610352</ele>
        <time>2011-08-21T08:25:15.000Z</time>
      </trkpt>
      <trkpt lat="45.11143" lon="1.21329">
        <ele>185.80000305176</ele>
        <time>2011-08-21T08:25:20.000Z</time>
      </trkpt>
      <trkpt lat="45.11145" lon="1.21334">
        <ele>186</ele>
        <time>2011-08-21T08:25:21.000Z</time>
      </trkpt>
      <trkpt lat="45.11147" lon="1.21377">
        <ele>187</ele>
        <time>2011-08-21T08:25:28.000Z</time>
      </trkpt>
      <trkpt lat="45.11147" lon="1.21399">
        <ele>187.19999694824</ele>
        <time>2011-08-21T08:25:32.000Z</time>
      </trkpt>
      <trkpt lat="45.11155" lon="1.2142">
        <ele>186.60000610352</ele>
        <time>2011-08-21T08:25:36.000Z</time>
      </trkpt>
      <trkpt lat="45.11168" lon="1.2143">
        <ele>186.39999389648</ele>
        <time>2011-08-21T08:25:39.000Z</time>
      </trkpt>
      <trkpt lat="45.11198" lon="1.21445">
        <ele>188</ele>
        <time>2011-08-21T08:25:47.000Z</time>
      </trkpt>
      <trkpt lat="45.11221" lon="1.21446">
        <ele>188.80000305176</ele>
        <time>2011-08-21T08:25:53.000Z</time>
      </trkpt>
      <trkpt lat="45.11238" lon="1.21416">
        <ele>189.19999694824</ele>
        <time>2011-08-21T08:26:00.000Z</time>
      </trkpt>
      <trkpt lat="45.1126" lon="1.21403">
        <ele>189.60000610352</ele>
        <time>2011-08-21T08:26:06.000Z</time>
      </trkpt>
      <trkpt lat="45.11277" lon="1.21398">
        <ele>190</ele>
        <time>2011-08-21T08:26:10.000Z</time>
      </trkpt>
      <trkpt lat="45.11301" lon="1.21399">
        <ele>191.19999694824</ele>
        <time>2011-08-21T08:26:16.000Z</time>
      </trkpt>
      <trkpt lat="45.11331" lon="1.21398">
        <ele>193.60000610352</ele>
        <time>2011-08-21T08:26:25.000Z</time>
      </trkpt>
      <trkpt lat="45.1135" lon="1.2139">
        <ele>195.80000305176</ele>
        <time>2011-08-21T08:26:31.000Z</time>
      </trkpt>
      <trkpt lat="45.11372" lon="1.21385">
        <ele>200.19999694824</ele>
        <time>2011-08-21T08:26:38.000Z</time>
      </trkpt>
      <trkpt lat="45.11392" lon="1.21379">
        <ele>203.39999389648</ele>
        <time>2011-08-21T08:26:45.000Z</time>
      </trkpt>
      <trkpt lat="45.11415" lon="1.21376">
        <ele>205</ele>
        <time>2011-08-21T08:26:53.000Z</time>
      </trkpt>
      <trkpt lat="45.11431" lon="1.21378">
        <ele>205.60000610352</ele>
        <time>2011-08-21T08:26:59.000Z</time>
      </trkpt>
      <trkpt lat="45.11443" lon="1.21386">
        <ele>206.39999389648</ele>
        <time>2011-08-21T08:27:04.000Z</time>
      </trkpt>
      <trkpt lat="45.11463" lon="1.21399">
        <ele>208.19999694824</ele>
        <time>2011-08-21T08:27:12.000Z</time>
      </trkpt>
      <trkpt lat="45.11488" lon="1.21418">
        <ele>210.39999389648</ele>
        <time>2011-08-21T08:27:22.000Z</time>
      </trkpt>
      <trkpt lat="45.11499" lon="1.21437">
        <ele>210.19999694824</ele>
        <time>2011-08-21T08:27:28.000Z</time>
      </trkpt>
      <trkpt lat="45.11514" lon="1.21465">
        <ele>210</ele>
        <time>2011-08-21T08:27:36.000Z</time>
      </trkpt>
      <trkpt lat="45.11516" lon="1.21476">
        <ele>209.39999389648</ele>
        <time>2011-08-21T08:27:38.000Z</time>
      </trkpt>
      <trkpt lat="45.11525" lon="1.21498">
        <ele>209</ele>
        <time>2011-08-21T08:27:42.000Z</time>
      </trkpt>
      <trkpt lat="45.11532" lon="1.21507">
        <ele>208.80000305176</ele>
        <time>2011-08-21T08:27:44.000Z</time>
      </trkpt>
      <trkpt lat="45.11542" lon="1.21518">
        <ele>208.80000305176</ele>
        <time>2011-08-21T08:27:47.000Z</time>
      </trkpt>
      <trkpt lat="45.11575" lon="1.21535">
        <ele>209.39999389648</ele>
        <time>2011-08-21T08:27:55.000Z</time>
      </trkpt>
      <trkpt lat="45.11603" lon="1.21547">
        <ele>209.80000305176</ele>
        <time>2011-08-21T08:28:02.000Z</time>
      </trkpt>
      <trkpt lat="45.11641" lon="1.21553">
        <ele>210.39999389648</ele>
        <time>2011-08-21T08:28:11.000Z</time>
      </trkpt>
      <trkpt lat="45.11675" lon="1.21545">
        <ele>211.80000305176</ele>
        <time>2011-08-21T08:28:20.000Z</time>
      </trkpt>
      <trkpt lat="45.11691" lon="1.21548">
        <ele>211.80000305176</ele>
        <time>2011-08-21T08:28:25.000Z</time>
      </trkpt>
      <trkpt lat="45.11698" lon="1.21554">
        <ele>211.19999694824</ele>
        <time>2011-08-21T08:28:27.000Z</time>
      </trkpt>
      <trkpt lat="45.11719" lon="1.21558">
        <ele>210.39999389648</ele>
        <time>2011-08-21T08:28:32.000Z</time>
      </trkpt>
      <trkpt lat="45.11739" lon="1.21571">
        <ele>209.39999389648</ele>
        <time>2011-08-21T08:28:37.000Z</time>
      </trkpt>
      <trkpt lat="45.11744" lon="1.21576">
        <ele>209.19999694824</ele>
        <time>2011-08-21T08:28:38.000Z</time>
      </trkpt>
      <trkpt lat="45.11767" lon="1.21607">
        <ele>208</ele>
        <time>2011-08-21T08:28:44.000Z</time>
      </trkpt>
      <trkpt lat="45.11791" lon="1.2166">
        <ele>206.60000610352</ele>
        <time>2011-08-21T08:28:51.000Z</time>
      </trkpt>
      <trkpt lat="45.11812" lon="1.21702">
        <ele>207.39999389648</ele>
        <time>2011-08-21T08:28:58.000Z</time>
      </trkpt>
      <trkpt lat="45.11836" lon="1.21737">
        <ele>207.39999389648</ele>
        <time>2011-08-21T08:29:05.000Z</time>
      </trkpt>
      <trkpt lat="45.11867" lon="1.21769">
        <ele>206</ele>
        <time>2011-08-21T08:29:12.000Z</time>
      </trkpt>
      <trkpt lat="45.11884" lon="1.21781">
        <ele>205.60000610352</ele>
        <time>2011-08-21T08:29:15.000Z</time>
      </trkpt>
      <trkpt lat="45.11914" lon="1.21787">
        <ele>204.80000305176</ele>
        <time>2011-08-21T08:29:20.000Z</time>
      </trkpt>
      <trkpt lat="45.11928" lon="1.21779">
        <ele>205</ele>
        <time>2011-08-21T08:29:23.000Z</time>
      </trkpt>
      <trkpt lat="45.11942" lon="1.21775">
        <ele>205.39999389648</ele>
        <time>2011-08-21T08:29:26.000Z</time>
      </trkpt>
      <trkpt lat="45.11968" lon="1.21772">
        <ele>205.39999389648</ele>
        <time>2011-08-21T08:29:31.000Z</time>
      </trkpt>
      <trkpt lat="45.11999" lon="1.2176">
        <ele>205.60000610352</ele>
        <time>2011-08-21T08:29:37.000Z</time>
      </trkpt>
      <trkpt lat="45.12004" lon="1.21757">
        <ele>205.80000305176</ele>
        <time>2011-08-21T08:29:38.000Z</time>
      </trkpt>
      <trkpt lat="45.12013" lon="1.21749">
        <ele>205.60000610352</ele>
        <time>2011-08-21T08:29:40.000Z</time>
      </trkpt>
      <trkpt lat="45.1204" lon="1.21736">
        <ele>205.19999694824</ele>
        <time>2011-08-21T08:29:45.000Z</time>
      </trkpt>
      <trkpt lat="45.12057" lon="1.21715">
        <ele>204.60000610352</ele>
        <time>2011-08-21T08:29:49.000Z</time>
      </trkpt>
      <trkpt lat="45.12056" lon="1.21694">
        <ele>204.60000610352</ele>
        <time>2011-08-21T08:29:52.000Z</time>
      </trkpt>
      <trkpt lat="45.12047" lon="1.21677">
        <ele>205.39999389648</ele>
        <time>2011-08-21T08:29:55.000Z</time>
      </trkpt>
      <trkpt lat="45.12019" lon="1.21626">
        <ele>208.60000610352</ele>
        <time>2011-08-21T08:30:04.000Z</time>
      </trkpt>
      <trkpt lat="45.12" lon="1.21587">
        <ele>210</ele>
        <time>2011-08-21T08:30:12.000Z</time>
      </trkpt>
      <trkpt lat="45.11985" lon="1.21547">
        <ele>210</ele>
        <time>2011-08-21T08:30:20.000Z</time>
      </trkpt>
      <trkpt lat="45.11981" lon="1.21529">
        <ele>209.19999694824</ele>
        <time>2011-08-21T08:30:23.000Z</time>
      </trkpt>
      <trkpt lat="45.11975" lon="1.21506">
        <ele>209</ele>
        <time>2011-08-21T08:30:27.000Z</time>
      </trkpt>
      <trkpt lat="45.11966" lon="1.21463">
        <ele>211</ele>
        <time>2011-08-21T08:30:36.000Z</time>
      </trkpt>
      <trkpt lat="45.11964" lon="1.21427">
        <ele>212.60000610352</ele>
        <time>2011-08-21T08:30:44.000Z</time>
      </trkpt>
      <trkpt lat="45.11964" lon="1.21386">
        <ele>215.80000305176</ele>
        <time>2011-08-21T08:30:54.000Z</time>
      </trkpt>
      <trkpt lat="45.11966" lon="1.21373">
        <ele>216.39999389648</ele>
        <time>2011-08-21T08:30:58.000Z</time>
      </trkpt>
      <trkpt lat="45.1197" lon="1.21365">
        <ele>216.80000305176</ele>
        <time>2011-08-21T08:31:01.000Z</time>
      </trkpt>
      <trkpt lat="45.11986" lon="1.21356">
        <ele>215.80000305176</ele>
        <time>2011-08-21T08:31:07.000Z</time>
      </trkpt>
      <trkpt lat="45.12015" lon="1.21353">
        <ele>212.60000610352</ele>
        <time>2011-08-21T08:31:13.000Z</time>
      </trkpt>
      <trkpt lat="45.12028" lon="1.21355">
        <ele>210.80000305176</ele>
        <time>2011-08-21T08:31:17.000Z</time>
      </trkpt>
      <trkpt lat="45.1204" lon="1.2136">
        <ele>207.60000610352</ele>
        <time>2011-08-21T08:31:21.000Z</time>
      </trkpt>
      <trkpt lat="45.12042" lon="1.21361">
        <ele>206.39999389648</ele>
        <time>2011-08-21T08:31:24.000Z</time>
      </trkpt>
      <trkpt lat="45.12047" lon="1.21362">
        <ele>206.80000305176</ele>
        <time>2011-08-21T08:31:46.000Z</time>
      </trkpt>
      <trkpt lat="45.12058" lon="1.21366">
        <ele>205.19999694824</ele>
        <time>2011-08-21T08:31:52.000Z</time>
      </trkpt>
      <trkpt lat="45.12062" lon="1.21367">
        <ele>204.39999389648</ele>
        <time>2011-08-21T08:31:53.000Z</time>
      </trkpt>
      <trkpt lat="45.1209" lon="1.21362">
        <ele>201.19999694824</ele>
        <time>2011-08-21T08:31:58.000Z</time>
      </trkpt>
      <trkpt lat="45.12097" lon="1.21362">
        <ele>200.39999389648</ele>
        <time>2011-08-21T08:31:59.000Z</time>
      </trkpt>
      <trkpt lat="45.12112" lon="1.21363">
        <ele>199.19999694824</ele>
        <time>2011-08-21T08:32:01.000Z</time>
      </trkpt>
      <trkpt lat="45.12138" lon="1.21359">
        <ele>199.19999694824</ele>
        <time>2011-08-21T08:32:05.000Z</time>
      </trkpt>
      <trkpt lat="45.12152" lon="1.21345">
        <ele>199.80000305176</ele>
        <time>2011-08-21T08:32:10.000Z</time>
      </trkpt>
      <trkpt lat="45.12169" lon="1.21324">
        <ele>203</ele>
        <time>2011-08-21T08:32:17.000Z</time>
      </trkpt>
      <trkpt lat="45.12183" lon="1.21298">
        <ele>205.19999694824</ele>
        <time>2011-08-21T08:32:24.000Z</time>
      </trkpt>
      <trkpt lat="45.12199" lon="1.21272">
        <ele>206</ele>
        <time>2011-08-21T08:32:31.000Z</time>
      </trkpt>
      <trkpt lat="45.1222" lon="1.21239">
        <ele>206</ele>
        <time>2011-08-21T08:32:38.000Z</time>
      </trkpt>
      <trkpt lat="45.12243" lon="1.21193">
        <ele>205.19999694824</ele>
        <time>2011-08-21T08:32:46.000Z</time>
      </trkpt>
      <trkpt lat="45.12259" lon="1.21144">
        <ele>204.60000610352</ele>
        <time>2011-08-21T08:32:53.000Z</time>
      </trkpt>
      <trkpt lat="45.12261" lon="1.21137">
        <ele>204.19999694824</ele>
        <time>2011-08-21T08:32:54.000Z</time>
      </trkpt>
      <trkpt lat="45.12262" lon="1.21105">
        <ele>203.60000610352</ele>
        <time>2011-08-21T08:32:58.000Z</time>
      </trkpt>
      <trkpt lat="45.12252" lon="1.21086">
        <ele>203.39999389648</ele>
        <time>2011-08-21T08:33:01.000Z</time>
      </trkpt>
      <trkpt lat="45.12247" lon="1.21081">
        <ele>203.19999694824</ele>
        <time>2011-08-21T08:33:02.000Z</time>
      </trkpt>
      <trkpt lat="45.12225" lon="1.21063">
        <ele>202.39999389648</ele>
        <time>2011-08-21T08:33:06.000Z</time>
      </trkpt>
      <trkpt lat="45.12206" lon="1.21039">
        <ele>202</ele>
        <time>2011-08-21T08:33:10.000Z</time>
      </trkpt>
      <trkpt lat="45.12182" lon="1.21007">
        <ele>202.60000610352</ele>
        <time>2011-08-21T08:33:16.000Z</time>
      </trkpt>
      <trkpt lat="45.12153" lon="1.20969">
        <ele>202.60000610352</ele>
        <time>2011-08-21T08:33:23.000Z</time>
      </trkpt>
      <trkpt lat="45.12134" lon="1.20931">
        <ele>203.60000610352</ele>
        <time>2011-08-21T08:33:29.000Z</time>
      </trkpt>
      <trkpt lat="45.12113" lon="1.20901">
        <ele>205.19999694824</ele>
        <time>2011-08-21T08:33:35.000Z</time>
      </trkpt>
      <trkpt lat="45.12079" lon="1.20872">
        <ele>205.39999389648</ele>
        <time>2011-08-21T08:33:44.000Z</time>
      </trkpt>
      <trkpt lat="45.12049" lon="1.20858">
        <ele>204</ele>
        <time>2011-08-21T08:33:50.000Z</time>
      </trkpt>
      <trkpt lat="45.12043" lon="1.20857">
        <ele>203.60000610352</ele>
        <time>2011-08-21T08:33:51.000Z</time>
      </trkpt>
      <trkpt lat="45.12036" lon="1.20848">
        <ele>202</ele>
        <time>2011-08-21T08:33:54.000Z</time>
      </trkpt>
      <trkpt lat="45.12042" lon="1.20839">
        <ele>201</ele>
        <time>2011-08-21T08:33:56.000Z</time>
      </trkpt>
      <trkpt lat="45.12064" lon="1.20803">
        <ele>198.39999389648</ele>
        <time>2011-08-21T08:34:02.000Z</time>
      </trkpt>
      <trkpt lat="45.12072" lon="1.20786">
        <ele>197.39999389648</ele>
        <time>2011-08-21T08:34:04.000Z</time>
      </trkpt>
      <trkpt lat="45.12101" lon="1.20738">
        <ele>195.60000610352</ele>
        <time>2011-08-21T08:34:10.000Z</time>
      </trkpt>
      <trkpt lat="45.12116" lon="1.20714">
        <ele>194.80000305176</ele>
        <time>2011-08-21T08:34:13.000Z</time>
      </trkpt>
      <trkpt lat="45.12146" lon="1.20685">
        <ele>193.80000305176</ele>
        <time>2011-08-21T08:34:18.000Z</time>
      </trkpt>
      <trkpt lat="45.12178" lon="1.20662">
        <ele>193</ele>
        <time>2011-08-21T08:34:23.000Z</time>
      </trkpt>
      <trkpt lat="45.12206" lon="1.20645">
        <ele>191</ele>
        <time>2011-08-21T08:34:27.000Z</time>
      </trkpt>
      <trkpt lat="45.12222" lon="1.20624">
        <ele>189.39999389648</ele>
        <time>2011-08-21T08:34:31.000Z</time>
      </trkpt>
      <trkpt lat="45.12227" lon="1.20553">
        <ele>188.39999389648</ele>
        <time>2011-08-21T08:34:39.000Z</time>
      </trkpt>
      <trkpt lat="45.12234" lon="1.20464">
        <ele>186.80000305176</ele>
        <time>2011-08-21T08:34:48.000Z</time>
      </trkpt>
      <trkpt lat="45.12234" lon="1.20445">
        <ele>186.80000305176</ele>
        <time>2011-08-21T08:34:50.000Z</time>
      </trkpt>
      <trkpt lat="45.12242" lon="1.20412">
        <ele>186.39999389648</ele>
        <time>2011-08-21T08:34:54.000Z</time>
      </trkpt>
      <trkpt lat="45.12259" lon="1.20398">
        <ele>185</ele>
        <time>2011-08-21T08:34:57.000Z</time>
      </trkpt>
      <trkpt lat="45.12277" lon="1.20398">
        <ele>183</ele>
        <time>2011-08-21T08:35:00.000Z</time>
      </trkpt>
      <trkpt lat="45.12293" lon="1.20392">
        <ele>181.19999694824</ele>
        <time>2011-08-21T08:35:03.000Z</time>
      </trkpt>
      <trkpt lat="45.12303" lon="1.20381">
        <ele>180.60000610352</ele>
        <time>2011-08-21T08:35:05.000Z</time>
      </trkpt>
      <trkpt lat="45.12313" lon="1.20369">
        <ele>180.19999694824</ele>
        <time>2011-08-21T08:35:07.000Z</time>
      </trkpt>
      <trkpt lat="45.12322" lon="1.20359">
        <ele>180</ele>
        <time>2011-08-21T08:35:09.000Z</time>
      </trkpt>
      <trkpt lat="45.12346" lon="1.20327">
        <ele>180.60000610352</ele>
        <time>2011-08-21T08:35:15.000Z</time>
      </trkpt>
      <trkpt lat="45.12359" lon="1.2029">
        <ele>181.19999694824</ele>
        <time>2011-08-21T08:35:21.000Z</time>
      </trkpt>
      <trkpt lat="45.12363" lon="1.20286">
        <ele>181.19999694824</ele>
        <time>2011-08-21T08:35:22.000Z</time>
      </trkpt>
      <trkpt lat="45.1238" lon="1.2026">
        <ele>181.19999694824</ele>
        <time>2011-08-21T08:35:27.000Z</time>
      </trkpt>
      <trkpt lat="45.12405" lon="1.20231">
        <ele>180.60000610352</ele>
        <time>2011-08-21T08:35:33.000Z</time>
      </trkpt>
      <trkpt lat="45.12418" lon="1.20218">
        <ele>180.19999694824</ele>
        <time>2011-08-21T08:35:36.000Z</time>
      </trkpt>
      <trkpt lat="45.12435" lon="1.20208">
        <ele>179.39999389648</ele>
        <time>2011-08-21T08:35:39.000Z</time>
      </trkpt>
      <trkpt lat="45.12468" lon="1.2018">
        <ele>178</ele>
        <time>2011-08-21T08:35:45.000Z</time>
      </trkpt>
      <trkpt lat="45.12489" lon="1.20155">
        <ele>176.39999389648</ele>
        <time>2011-08-21T08:35:49.000Z</time>
      </trkpt>
      <trkpt lat="45.12503" lon="1.20119">
        <ele>174.19999694824</ele>
        <time>2011-08-21T08:35:53.000Z</time>
      </trkpt>
      <trkpt lat="45.12509" lon="1.20085">
        <ele>172.60000610352</ele>
        <time>2011-08-21T08:35:56.000Z</time>
      </trkpt>
      <trkpt lat="45.12526" lon="1.20047">
        <ele>171</ele>
        <time>2011-08-21T08:36:00.000Z</time>
      </trkpt>
      <trkpt lat="45.12532" lon="1.20042">
        <ele>170.80000305176</ele>
        <time>2011-08-21T08:36:01.000Z</time>
      </trkpt>
      <trkpt lat="45.12558" lon="1.19996">
        <ele>168.19999694824</ele>
        <time>2011-08-21T08:36:07.000Z</time>
      </trkpt>
      <trkpt lat="45.12565" lon="1.19947">
        <ele>164.60000610352</ele>
        <time>2011-08-21T08:36:12.000Z</time>
      </trkpt>
      <trkpt lat="45.12561" lon="1.19928">
        <ele>162.60000610352</ele>
        <time>2011-08-21T08:36:15.000Z</time>
      </trkpt>
      <trkpt lat="45.12554" lon="1.19896">
        <ele>160</ele>
        <time>2011-08-21T08:36:20.000Z</time>
      </trkpt>
      <trkpt lat="45.12557" lon="1.19872">
        <ele>158.19999694824</ele>
        <time>2011-08-21T08:36:23.000Z</time>
      </trkpt>
      <trkpt lat="45.12563" lon="1.19854">
        <ele>156.60000610352</ele>
        <time>2011-08-21T08:36:26.000Z</time>
      </trkpt>
      <trkpt lat="45.12567" lon="1.19839">
        <ele>155.60000610352</ele>
        <time>2011-08-21T08:36:28.000Z</time>
      </trkpt>
      <trkpt lat="45.12567" lon="1.19803">
        <ele>153.39999389648</ele>
        <time>2011-08-21T08:36:33.000Z</time>
      </trkpt>
      <trkpt lat="45.12571" lon="1.19776">
        <ele>151.60000610352</ele>
        <time>2011-08-21T08:36:37.000Z</time>
      </trkpt>
      <trkpt lat="45.12578" lon="1.19756">
        <ele>150.39999389648</ele>
        <time>2011-08-21T08:36:40.000Z</time>
      </trkpt>
      <trkpt lat="45.12575" lon="1.19715">
        <ele>146.60000610352</ele>
        <time>2011-08-21T08:36:45.000Z</time>
      </trkpt>
      <trkpt lat="45.12571" lon="1.19698">
        <ele>144.60000610352</ele>
        <time>2011-08-21T08:36:47.000Z</time>
      </trkpt>
      <trkpt lat="45.12557" lon="1.19676">
        <ele>141.19999694824</ele>
        <time>2011-08-21T08:36:51.000Z</time>
      </trkpt>
      <trkpt lat="45.12545" lon="1.19671">
        <ele>139.39999389648</ele>
        <time>2011-08-21T08:36:53.000Z</time>
      </trkpt>
      <trkpt lat="45.12515" lon="1.19676">
        <ele>135.39999389648</ele>
        <time>2011-08-21T08:36:58.000Z</time>
      </trkpt>
      <trkpt lat="45.12499" lon="1.19684">
        <ele>132.60000610352</ele>
        <time>2011-08-21T08:37:02.000Z</time>
      </trkpt>
      <trkpt lat="45.1249" lon="1.1969">
        <ele>131.39999389648</ele>
        <time>2011-08-21T08:37:04.000Z</time>
      </trkpt>
      <trkpt lat="45.12474" lon="1.19702">
        <ele>127.19999694824</ele>
        <time>2011-08-21T08:37:09.000Z</time>
      </trkpt>
      <trkpt lat="45.12472" lon="1.19692">
        <ele>125.19999694824</ele>
        <time>2011-08-21T08:37:14.000Z</time>
      </trkpt>
      <trkpt lat="45.12477" lon="1.1967">
        <ele>122.19999694824</ele>
        <time>2011-08-21T08:37:18.000Z</time>
      </trkpt>
      <trkpt lat="45.12487" lon="1.19649">
        <ele>120.59999847412</ele>
        <time>2011-08-21T08:37:22.000Z</time>
      </trkpt>
      <trkpt lat="45.12508" lon="1.19621">
        <ele>119</ele>
        <time>2011-08-21T08:37:28.000Z</time>
      </trkpt>
      <trkpt lat="45.12518" lon="1.19604">
        <ele>119.19999694824</ele>
        <time>2011-08-21T08:37:33.000Z</time>
      </trkpt>
      <trkpt lat="45.12511" lon="1.19599">
        <ele>119.40000152588</ele>
        <time>2011-08-21T08:37:37.000Z</time>
      </trkpt>
      <trkpt lat="45.12491" lon="1.19591">
        <ele>120.59999847412</ele>
        <time>2011-08-21T08:37:44.000Z</time>
      </trkpt>
      <trkpt lat="45.12484" lon="1.19576">
        <ele>121.40000152588</ele>
        <time>2011-08-21T08:37:49.000Z</time>
      </trkpt>
      <trkpt lat="45.12486" lon="1.19564">
        <ele>120.59999847412</ele>
        <time>2011-08-21T08:37:52.000Z</time>
      </trkpt>
      <trkpt lat="45.12487" lon="1.19537">
        <ele>119.19999694824</ele>
        <time>2011-08-21T08:37:56.000Z</time>
      </trkpt>
      <trkpt lat="45.12475" lon="1.19517">
        <ele>118.19999694824</ele>
        <time>2011-08-21T08:37:59.000Z</time>
      </trkpt>
      <trkpt lat="45.12446" lon="1.19483">
        <ele>117.80000305176</ele>
        <time>2011-08-21T08:38:05.000Z</time>
      </trkpt>
      <trkpt lat="45.12428" lon="1.19442">
        <ele>118.40000152588</ele>
        <time>2011-08-21T08:38:11.000Z</time>
      </trkpt>
      <trkpt lat="45.1241" lon="1.1939">
        <ele>120.19999694824</ele>
        <time>2011-08-21T08:38:19.000Z</time>
      </trkpt>
      <trkpt lat="45.12404" lon="1.19373">
        <ele>120</ele>
        <time>2011-08-21T08:38:22.000Z</time>
      </trkpt>
      <trkpt lat="45.12399" lon="1.19362">
        <ele>120</ele>
        <time>2011-08-21T08:38:24.000Z</time>
      </trkpt>
      <trkpt lat="45.12382" lon="1.19314">
        <ele>124.19999694824</ele>
        <time>2011-08-21T08:38:33.000Z</time>
      </trkpt>
      <trkpt lat="45.12369" lon="1.19278">
        <ele>127.19999694824</ele>
        <time>2011-08-21T08:38:40.000Z</time>
      </trkpt>
      <trkpt lat="45.12358" lon="1.19248">
        <ele>129.60000610352</ele>
        <time>2011-08-21T08:38:46.000Z</time>
      </trkpt>
      <trkpt lat="45.12352" lon="1.19239">
        <ele>129.39999389648</ele>
        <time>2011-08-21T08:38:48.000Z</time>
      </trkpt>
      <trkpt lat="45.12338" lon="1.19224">
        <ele>130.39999389648</ele>
        <time>2011-08-21T08:38:52.000Z</time>
      </trkpt>
      <trkpt lat="45.12316" lon="1.19206">
        <ele>131.19999694824</ele>
        <time>2011-08-21T08:38:58.000Z</time>
      </trkpt>
      <trkpt lat="45.12308" lon="1.19173">
        <ele>133</ele>
        <time>2011-08-21T08:39:04.000Z</time>
      </trkpt>
      <trkpt lat="45.12319" lon="1.19152">
        <ele>133.80000305176</ele>
        <time>2011-08-21T08:39:08.000Z</time>
      </trkpt>
      <trkpt lat="45.12331" lon="1.19133">
        <ele>135.60000610352</ele>
        <time>2011-08-21T08:39:13.000Z</time>
      </trkpt>
      <trkpt lat="45.12328" lon="1.1913">
        <ele>135.80000305176</ele>
        <time>2011-08-21T08:39:14.000Z</time>
      </trkpt>
      <trkpt lat="45.12323" lon="1.19125">
        <ele>136.19999694824</ele>
        <time>2011-08-21T08:39:16.000Z</time>
      </trkpt>
      <trkpt lat="45.1232" lon="1.19101">
        <ele>136.19999694824</ele>
        <time>2011-08-21T08:39:21.000Z</time>
      </trkpt>
      <trkpt lat="45.12322" lon="1.19077">
        <ele>138.19999694824</ele>
        <time>2011-08-21T08:39:26.000Z</time>
      </trkpt>
      <trkpt lat="45.12322" lon="1.19057">
        <ele>142.80000305176</ele>
        <time>2011-08-21T08:39:32.000Z</time>
      </trkpt>
      <trkpt lat="45.1232" lon="1.19037">
        <ele>146.80000305176</ele>
        <time>2011-08-21T08:39:38.000Z</time>
      </trkpt>
      <trkpt lat="45.1232" lon="1.19018">
        <ele>149.60000610352</ele>
        <time>2011-08-21T08:39:44.000Z</time>
      </trkpt>
      <trkpt lat="45.12325" lon="1.19">
        <ele>151.19999694824</ele>
        <time>2011-08-21T08:39:50.000Z</time>
      </trkpt>
      <trkpt lat="45.1233" lon="1.18985">
        <ele>152.19999694824</ele>
        <time>2011-08-21T08:39:55.000Z</time>
      </trkpt>
      <trkpt lat="45.12333" lon="1.18978">
        <ele>152.39999389648</ele>
        <time>2011-08-21T08:39:58.000Z</time>
      </trkpt>
      <trkpt lat="45.12338" lon="1.1895">
        <ele>148.39999389648</ele>
        <time>2011-08-21T08:40:06.000Z</time>
      </trkpt>
      <trkpt lat="45.12338" lon="1.18946">
        <ele>148.60000610352</ele>
        <time>2011-08-21T08:40:07.000Z</time>
      </trkpt>
      <trkpt lat="45.12342" lon="1.18925">
        <ele>152.19999694824</ele>
        <time>2011-08-21T08:40:14.000Z</time>
      </trkpt>
      <trkpt lat="45.12346" lon="1.18909">
        <ele>150</ele>
        <time>2011-08-21T08:40:19.000Z</time>
      </trkpt>
      <trkpt lat="45.12357" lon="1.189">
        <ele>148.19999694824</ele>
        <time>2011-08-21T08:40:23.000Z</time>
      </trkpt>
      <trkpt lat="45.12372" lon="1.18891">
        <ele>148</ele>
        <time>2011-08-21T08:40:27.000Z</time>
      </trkpt>
      <trkpt lat="45.12381" lon="1.18873">
        <ele>151.19999694824</ele>
        <time>2011-08-21T08:40:34.000Z</time>
      </trkpt>
      <trkpt lat="45.12388" lon="1.1885">
        <ele>153.60000610352</ele>
        <time>2011-08-21T08:40:42.000Z</time>
      </trkpt>
      <trkpt lat="45.12389" lon="1.18848">
        <ele>154</ele>
        <time>2011-08-21T08:40:43.000Z</time>
      </trkpt>
      <trkpt lat="45.12396" lon="1.18851">
        <ele>155.60000610352</ele>
        <time>2011-08-21T08:40:48.000Z</time>
      </trkpt>
      <trkpt lat="45.12397" lon="1.18863">
        <ele>156.19999694824</ele>
        <time>2011-08-21T08:40:53.000Z</time>
      </trkpt>
      <trkpt lat="45.12397" lon="1.18865">
        <ele>156.19999694824</ele>
        <time>2011-08-21T08:40:54.000Z</time>
      </trkpt>
      <trkpt lat="45.12401" lon="1.18886">
        <ele>157.19999694824</ele>
        <time>2011-08-21T08:41:02.000Z</time>
      </trkpt>
      <trkpt lat="45.12404" lon="1.18902">
        <ele>159</ele>
        <time>2011-08-21T08:41:08.000Z</time>
      </trkpt>
      <trkpt lat="45.12406" lon="1.18923">
        <ele>162.19999694824</ele>
        <time>2011-08-21T08:41:15.000Z</time>
      </trkpt>
      <trkpt lat="45.12406" lon="1.18938">
        <ele>163.60000610352</ele>
        <time>2011-08-21T08:41:20.000Z</time>
      </trkpt>
      <trkpt lat="45.12405" lon="1.18962">
        <ele>165.60000610352</ele>
        <time>2011-08-21T08:41:27.000Z</time>
      </trkpt>
      <trkpt lat="45.12405" lon="1.18972">
        <ele>166.39999389648</ele>
        <time>2011-08-21T08:41:30.000Z</time>
      </trkpt>
      <trkpt lat="45.12409" lon="1.18993">
        <ele>168</ele>
        <time>2011-08-21T08:41:37.000Z</time>
      </trkpt>
      <trkpt lat="45.12411" lon="1.19008">
        <ele>169</ele>
        <time>2011-08-21T08:41:43.000Z</time>
      </trkpt>
      <trkpt lat="45.12413" lon="1.19017">
        <ele>170</ele>
        <time>2011-08-21T08:41:47.000Z</time>
      </trkpt>
      <trkpt lat="45.12415" lon="1.19024">
        <ele>170.80000305176</ele>
        <time>2011-08-21T08:41:51.000Z</time>
      </trkpt>
      <trkpt lat="45.12418" lon="1.19037">
        <ele>172.19999694824</ele>
        <time>2011-08-21T08:41:58.000Z</time>
      </trkpt>
      <trkpt lat="45.12424" lon="1.1905">
        <ele>173.80000305176</ele>
        <time>2011-08-21T08:42:04.000Z</time>
      </trkpt>
      <trkpt lat="45.1243" lon="1.19067">
        <ele>175.39999389648</ele>
        <time>2011-08-21T08:42:11.000Z</time>
      </trkpt>
      <trkpt lat="45.12436" lon="1.19079">
        <ele>177.60000610352</ele>
        <time>2011-08-21T08:42:17.000Z</time>
      </trkpt>
      <trkpt lat="45.12446" lon="1.19093">
        <ele>180.60000610352</ele>
        <time>2011-08-21T08:42:25.000Z</time>
      </trkpt>
      <trkpt lat="45.12454" lon="1.19105">
        <ele>180.60000610352</ele>
        <time>2011-08-21T08:42:31.000Z</time>
      </trkpt>
      <trkpt lat="45.12461" lon="1.19113">
        <ele>182.39999389648</ele>
        <time>2011-08-21T08:42:36.000Z</time>
      </trkpt>
      <trkpt lat="45.1247" lon="1.19122">
        <ele>184.80000305176</ele>
        <time>2011-08-21T08:42:42.000Z</time>
      </trkpt>
      <trkpt lat="45.12483" lon="1.19128">
        <ele>187.39999389648</ele>
        <time>2011-08-21T08:42:50.000Z</time>
      </trkpt>
      <trkpt lat="45.12493" lon="1.1913">
        <ele>191.60000610352</ele>
        <time>2011-08-21T08:42:56.000Z</time>
      </trkpt>
      <trkpt lat="45.12505" lon="1.19134">
        <ele>193.39999389648</ele>
        <time>2011-08-21T08:43:03.000Z</time>
      </trkpt>
      <trkpt lat="45.12518" lon="1.19135">
        <ele>196</ele>
        <time>2011-08-21T08:43:10.000Z</time>
      </trkpt>
      <trkpt lat="45.1253" lon="1.19145">
        <ele>196.39999389648</ele>
        <time>2011-08-21T08:43:16.000Z</time>
      </trkpt>
      <trkpt lat="45.12542" lon="1.19162">
        <ele>195.19999694824</ele>
        <time>2011-08-21T08:43:25.000Z</time>
      </trkpt>
      <trkpt lat="45.12552" lon="1.19174">
        <ele>195.39999389648</ele>
        <time>2011-08-21T08:43:31.000Z</time>
      </trkpt>
      <trkpt lat="45.12565" lon="1.19182">
        <ele>195.19999694824</ele>
        <time>2011-08-21T08:43:37.000Z</time>
      </trkpt>
      <trkpt lat="45.12584" lon="1.1918">
        <ele>193.19999694824</ele>
        <time>2011-08-21T08:43:43.000Z</time>
      </trkpt>
      <trkpt lat="45.12606" lon="1.19176">
        <ele>190.80000305176</ele>
        <time>2011-08-21T08:43:47.000Z</time>
      </trkpt>
      <trkpt lat="45.12639" lon="1.19174">
        <ele>189.80000305176</ele>
        <time>2011-08-21T08:43:52.000Z</time>
      </trkpt>
      <trkpt lat="45.12656" lon="1.19177">
        <ele>189.80000305176</ele>
        <time>2011-08-21T08:43:56.000Z</time>
      </trkpt>
      <trkpt lat="45.12678" lon="1.19181">
        <ele>190.39999389648</ele>
        <time>2011-08-21T08:44:02.000Z</time>
      </trkpt>
      <trkpt lat="45.12706" lon="1.19184">
        <ele>190.60000610352</ele>
        <time>2011-08-21T08:44:09.000Z</time>
      </trkpt>
      <trkpt lat="45.12718" lon="1.19183">
        <ele>191.39999389648</ele>
        <time>2011-08-21T08:44:12.000Z</time>
      </trkpt>
      <trkpt lat="45.1274" lon="1.19176">
        <ele>191.80000305176</ele>
        <time>2011-08-21T08:44:17.000Z</time>
      </trkpt>
      <trkpt lat="45.12765" lon="1.19166">
        <ele>192.80000305176</ele>
        <time>2011-08-21T08:44:22.000Z</time>
      </trkpt>
      <trkpt lat="45.12777" lon="1.19163">
        <ele>193</ele>
        <time>2011-08-21T08:44:24.000Z</time>
      </trkpt>
      <trkpt lat="45.12788" lon="1.19162">
        <ele>193.80000305176</ele>
        <time>2011-08-21T08:44:26.000Z</time>
      </trkpt>
      <trkpt lat="45.1282" lon="1.19175">
        <ele>193.39999389648</ele>
        <time>2011-08-21T08:44:31.000Z</time>
      </trkpt>
      <trkpt lat="45.12841" lon="1.19187">
        <ele>190.39999389648</ele>
        <time>2011-08-21T08:44:35.000Z</time>
      </trkpt>
      <trkpt lat="45.1285" lon="1.19194">
        <ele>190</ele>
        <time>2011-08-21T08:44:37.000Z</time>
      </trkpt>
      <trkpt lat="45.12873" lon="1.19214">
        <ele>190.60000610352</ele>
        <time>2011-08-21T08:44:43.000Z</time>
      </trkpt>
      <trkpt lat="45.12892" lon="1.19222">
        <ele>190.39999389648</ele>
        <time>2011-08-21T08:44:48.000Z</time>
      </trkpt>
      <trkpt lat="45.12906" lon="1.1923">
        <ele>189.80000305176</ele>
        <time>2011-08-21T08:44:53.000Z</time>
      </trkpt>
      <trkpt lat="45.12907" lon="1.19231">
        <ele>189.39999389648</ele>
        <time>2011-08-21T08:44:56.000Z</time>
      </trkpt>
      <trkpt lat="45.12917" lon="1.19216">
        <ele>187.60000610352</ele>
        <time>2011-08-21T08:49:25.000Z</time>
      </trkpt>
      <trkpt lat="45.12922" lon="1.19188">
        <ele>190.19999694824</ele>
        <time>2011-08-21T08:49:34.000Z</time>
      </trkpt>
      <trkpt lat="45.1292" lon="1.19169">
        <ele>192.39999389648</ele>
        <time>2011-08-21T08:49:40.000Z</time>
      </trkpt>
      <trkpt lat="45.12914" lon="1.19131">
        <ele>195.60000610352</ele>
        <time>2011-08-21T08:49:51.000Z</time>
      </trkpt>
      <trkpt lat="45.12914" lon="1.19102">
        <ele>199.19999694824</ele>
        <time>2011-08-21T08:50:00.000Z</time>
      </trkpt>
      <trkpt lat="45.1291" lon="1.19083">
        <ele>201.60000610352</ele>
        <time>2011-08-21T08:50:07.000Z</time>
      </trkpt>
      <trkpt lat="45.12896" lon="1.19066">
        <ele>204</ele>
        <time>2011-08-21T08:50:15.000Z</time>
      </trkpt>
      <trkpt lat="45.12883" lon="1.1905">
        <ele>206</ele>
        <time>2011-08-21T08:50:23.000Z</time>
      </trkpt>
      <trkpt lat="45.12868" lon="1.19031">
        <ele>208</ele>
        <time>2011-08-21T08:50:32.000Z</time>
      </trkpt>
      <trkpt lat="45.12854" lon="1.19014">
        <ele>209.60000610352</ele>
        <time>2011-08-21T08:50:40.000Z</time>
      </trkpt>
      <trkpt lat="45.12845" lon="1.19001">
        <ele>211</ele>
        <time>2011-08-21T08:50:46.000Z</time>
      </trkpt>
      <trkpt lat="45.12837" lon="1.1899">
        <ele>213</ele>
        <time>2011-08-21T08:50:51.000Z</time>
      </trkpt>
      <trkpt lat="45.12829" lon="1.1898">
        <ele>214.60000610352</ele>
        <time>2011-08-21T08:50:56.000Z</time>
      </trkpt>
      <trkpt lat="45.12819" lon="1.18962">
        <ele>216.39999389648</ele>
        <time>2011-08-21T08:51:02.000Z</time>
      </trkpt>
      <trkpt lat="45.12812" lon="1.18943">
        <ele>217.19999694824</ele>
        <time>2011-08-21T08:51:08.000Z</time>
      </trkpt>
      <trkpt lat="45.12805" lon="1.18926">
        <ele>220.19999694824</ele>
        <time>2011-08-21T08:51:13.000Z</time>
      </trkpt>
      <trkpt lat="45.12801" lon="1.18914">
        <ele>222.19999694824</ele>
        <time>2011-08-21T08:51:17.000Z</time>
      </trkpt>
      <trkpt lat="45.12794" lon="1.18892">
        <ele>223.60000610352</ele>
        <time>2011-08-21T08:51:23.000Z</time>
      </trkpt>
      <trkpt lat="45.12793" lon="1.18889">
        <ele>224</ele>
        <time>2011-08-21T08:51:24.000Z</time>
      </trkpt>
      <trkpt lat="45.12784" lon="1.1887">
        <ele>223</ele>
        <time>2011-08-21T08:51:29.000Z</time>
      </trkpt>
      <trkpt lat="45.12766" lon="1.18837">
        <ele>226.39999389648</ele>
        <time>2011-08-21T08:51:35.000Z</time>
      </trkpt>
      <trkpt lat="45.12763" lon="1.18831">
        <ele>226.80000305176</ele>
        <time>2011-08-21T08:51:36.000Z</time>
      </trkpt>
      <trkpt lat="45.12745" lon="1.18798">
        <ele>229.60000610352</ele>
        <time>2011-08-21T08:51:42.000Z</time>
      </trkpt>
      <trkpt lat="45.12721" lon="1.18754">
        <ele>231</ele>
        <time>2011-08-21T08:51:50.000Z</time>
      </trkpt>
      <trkpt lat="45.12696" lon="1.18704">
        <ele>230</ele>
        <time>2011-08-21T08:51:59.000Z</time>
      </trkpt>
      <trkpt lat="45.12683" lon="1.18676">
        <ele>228.19999694824</ele>
        <time>2011-08-21T08:52:04.000Z</time>
      </trkpt>
      <trkpt lat="45.12678" lon="1.18664">
        <ele>227.39999389648</ele>
        <time>2011-08-21T08:52:06.000Z</time>
      </trkpt>
      <trkpt lat="45.1267" lon="1.1864">
        <ele>226</ele>
        <time>2011-08-21T08:52:11.000Z</time>
      </trkpt>
      <trkpt lat="45.12665" lon="1.18617">
        <ele>225</ele>
        <time>2011-08-21T08:52:16.000Z</time>
      </trkpt>
      <trkpt lat="45.1266" lon="1.18594">
        <ele>224.60000610352</ele>
        <time>2011-08-21T08:52:20.000Z</time>
      </trkpt>
      <trkpt lat="45.12653" lon="1.18565">
        <ele>225.60000610352</ele>
        <time>2011-08-21T08:52:25.000Z</time>
      </trkpt>
      <trkpt lat="45.12642" lon="1.18544">
        <ele>226.80000305176</ele>
        <time>2011-08-21T08:52:30.000Z</time>
      </trkpt>
      <trkpt lat="45.12618" lon="1.18526">
        <ele>229.19999694824</ele>
        <time>2011-08-21T08:52:39.000Z</time>
      </trkpt>
      <trkpt lat="45.12614" lon="1.18507">
        <ele>230</ele>
        <time>2011-08-21T08:52:44.000Z</time>
      </trkpt>
      <trkpt lat="45.12612" lon="1.18485">
        <ele>231.80000305176</ele>
        <time>2011-08-21T08:52:50.000Z</time>
      </trkpt>
      <trkpt lat="45.12616" lon="1.18469">
        <ele>234.39999389648</ele>
        <time>2011-08-21T08:52:55.000Z</time>
      </trkpt>
      <trkpt lat="45.12619" lon="1.18447">
        <ele>234.80000305176</ele>
        <time>2011-08-21T08:53:02.000Z</time>
      </trkpt>
      <trkpt lat="45.12613" lon="1.18429">
        <ele>235.39999389648</ele>
        <time>2011-08-21T08:53:08.000Z</time>
      </trkpt>
      <trkpt lat="45.126" lon="1.18404">
        <ele>236.39999389648</ele>
        <time>2011-08-21T08:53:17.000Z</time>
      </trkpt>
      <trkpt lat="45.12589" lon="1.18383">
        <ele>237.60000610352</ele>
        <time>2011-08-21T08:53:23.000Z</time>
      </trkpt>
      <trkpt lat="45.12582" lon="1.18369">
        <ele>238.80000305176</ele>
        <time>2011-08-21T08:53:28.000Z</time>
      </trkpt>
      <trkpt lat="45.12585" lon="1.18357">
        <ele>239.19999694824</ele>
        <time>2011-08-21T08:53:32.000Z</time>
      </trkpt>
      <trkpt lat="45.1259" lon="1.18358">
        <ele>239</ele>
        <time>2011-08-21T08:53:34.000Z</time>
      </trkpt>
      <trkpt lat="45.12607" lon="1.18369">
        <ele>236</ele>
        <time>2011-08-21T08:53:41.000Z</time>
      </trkpt>
      <trkpt lat="45.12627" lon="1.18381">
        <ele>234.60000610352</ele>
        <time>2011-08-21T08:53:47.000Z</time>
      </trkpt>
      <trkpt lat="45.12653" lon="1.18399">
        <ele>230</ele>
        <time>2011-08-21T08:53:53.000Z</time>
      </trkpt>
      <trkpt lat="45.1268" lon="1.18417">
        <ele>225.80000305176</ele>
        <time>2011-08-21T08:53:57.000Z</time>
      </trkpt>
      <trkpt lat="45.12715" lon="1.18445">
        <ele>220.60000610352</ele>
        <time>2011-08-21T08:54:01.000Z</time>
      </trkpt>
      <trkpt lat="45.12761" lon="1.18492">
        <ele>215.80000305176</ele>
        <time>2011-08-21T08:54:06.000Z</time>
      </trkpt>
      <trkpt lat="45.12807" lon="1.18536">
        <ele>211</ele>
        <time>2011-08-21T08:54:11.000Z</time>
      </trkpt>
      <trkpt lat="45.12872" lon="1.18573">
        <ele>206.39999389648</ele>
        <time>2011-08-21T08:54:17.000Z</time>
      </trkpt>
      <trkpt lat="45.12928" lon="1.18612">
        <ele>203.39999389648</ele>
        <time>2011-08-21T08:54:22.000Z</time>
      </trkpt>
      <trkpt lat="45.12936" lon="1.18619">
        <ele>202.39999389648</ele>
        <time>2011-08-21T08:54:23.000Z</time>
      </trkpt>
      <trkpt lat="45.12968" lon="1.18629">
        <ele>198.60000610352</ele>
        <time>2011-08-21T08:54:27.000Z</time>
      </trkpt>
      <trkpt lat="45.13003" lon="1.1861">
        <ele>191.80000305176</ele>
        <time>2011-08-21T08:54:33.000Z</time>
      </trkpt>
      <trkpt lat="45.1303" lon="1.18585">
        <ele>185</ele>
        <time>2011-08-21T08:54:37.000Z</time>
      </trkpt>
      <trkpt lat="45.13045" lon="1.18586">
        <ele>181.39999389648</ele>
        <time>2011-08-21T08:54:39.000Z</time>
      </trkpt>
      <trkpt lat="45.13056" lon="1.18601">
        <ele>178.39999389648</ele>
        <time>2011-08-21T08:54:41.000Z</time>
      </trkpt>
      <trkpt lat="45.13073" lon="1.18611">
        <ele>174</ele>
        <time>2011-08-21T08:54:45.000Z</time>
      </trkpt>
      <trkpt lat="45.13084" lon="1.1859">
        <ele>172</ele>
        <time>2011-08-21T08:54:48.000Z</time>
      </trkpt>
      <trkpt lat="45.13088" lon="1.18573">
        <ele>171.19999694824</ele>
        <time>2011-08-21T08:54:50.000Z</time>
      </trkpt>
      <trkpt lat="45.13095" lon="1.18517">
        <ele>170.60000610352</ele>
        <time>2011-08-21T08:54:57.000Z</time>
      </trkpt>
      <trkpt lat="45.13093" lon="1.18489">
        <ele>172.19999694824</ele>
        <time>2011-08-21T08:55:02.000Z</time>
      </trkpt>
      <trkpt lat="45.13089" lon="1.18454">
        <ele>173</ele>
        <time>2011-08-21T08:55:09.000Z</time>
      </trkpt>
      <trkpt lat="45.1309" lon="1.18423">
        <ele>171.80000305176</ele>
        <time>2011-08-21T08:55:15.000Z</time>
      </trkpt>
      <trkpt lat="45.13089" lon="1.18401">
        <ele>171.39999389648</ele>
        <time>2011-08-21T08:55:20.000Z</time>
      </trkpt>
      <trkpt lat="45.13098" lon="1.18367">
        <ele>171.19999694824</ele>
        <time>2011-08-21T08:55:27.000Z</time>
      </trkpt>
      <trkpt lat="45.13105" lon="1.18337">
        <ele>171</ele>
        <time>2011-08-21T08:55:33.000Z</time>
      </trkpt>
      <trkpt lat="45.13102" lon="1.18297">
        <ele>171.80000305176</ele>
        <time>2011-08-21T08:55:40.000Z</time>
      </trkpt>
      <trkpt lat="45.13093" lon="1.18273">
        <ele>173.80000305176</ele>
        <time>2011-08-21T08:55:45.000Z</time>
      </trkpt>
      <trkpt lat="45.1309" lon="1.18237">
        <ele>173</ele>
        <time>2011-08-21T08:55:52.000Z</time>
      </trkpt>
      <trkpt lat="45.13089" lon="1.18191">
        <ele>171.80000305176</ele>
        <time>2011-08-21T08:56:00.000Z</time>
      </trkpt>
      <trkpt lat="45.13088" lon="1.18153">
        <ele>169.60000610352</ele>
        <time>2011-08-21T08:56:06.000Z</time>
      </trkpt>
      <trkpt lat="45.13087" lon="1.18145">
        <ele>169.19999694824</ele>
        <time>2011-08-21T08:56:07.000Z</time>
      </trkpt>
      <trkpt lat="45.13076" lon="1.18103">
        <ele>165.80000305176</ele>
        <time>2011-08-21T08:56:12.000Z</time>
      </trkpt>
      <trkpt lat="45.13056" lon="1.1807">
        <ele>163.19999694824</ele>
        <time>2011-08-21T08:56:16.000Z</time>
      </trkpt>
      <trkpt lat="45.13042" lon="1.18058">
        <ele>161.80000305176</ele>
        <time>2011-08-21T08:56:18.000Z</time>
      </trkpt>
      <trkpt lat="45.1301" lon="1.18044">
        <ele>160</ele>
        <time>2011-08-21T08:56:22.000Z</time>
      </trkpt>
      <trkpt lat="45.12985" lon="1.18031">
        <ele>158</ele>
        <time>2011-08-21T08:56:25.000Z</time>
      </trkpt>
      <trkpt lat="45.12941" lon="1.18002">
        <ele>154.80000305176</ele>
        <time>2011-08-21T08:56:30.000Z</time>
      </trkpt>
      <trkpt lat="45.12917" lon="1.17988">
        <ele>153</ele>
        <time>2011-08-21T08:56:33.000Z</time>
      </trkpt>
      <trkpt lat="45.12909" lon="1.17968">
        <ele>152.19999694824</ele>
        <time>2011-08-21T08:56:35.000Z</time>
      </trkpt>
      <trkpt lat="45.12907" lon="1.17958">
        <ele>151.80000305176</ele>
        <time>2011-08-21T08:56:36.000Z</time>
      </trkpt>
      <trkpt lat="45.12902" lon="1.17927">
        <ele>151.60000610352</ele>
        <time>2011-08-21T08:56:39.000Z</time>
      </trkpt>
      <trkpt lat="45.12903" lon="1.17887">
        <ele>154</ele>
        <time>2011-08-21T08:56:44.000Z</time>
      </trkpt>
      <trkpt lat="45.12905" lon="1.17863">
        <ele>156.80000305176</ele>
        <time>2011-08-21T08:56:49.000Z</time>
      </trkpt>
      <trkpt lat="45.12909" lon="1.17838">
        <ele>159.60000610352</ele>
        <time>2011-08-21T08:56:56.000Z</time>
      </trkpt>
      <trkpt lat="45.12912" lon="1.17811">
        <ele>162.80000305176</ele>
        <time>2011-08-21T08:57:04.000Z</time>
      </trkpt>
      <trkpt lat="45.12914" lon="1.17795">
        <ele>165</ele>
        <time>2011-08-21T08:57:09.000Z</time>
      </trkpt>
      <trkpt lat="45.12909" lon="1.17786">
        <ele>166.39999389648</ele>
        <time>2011-08-21T08:57:13.000Z</time>
      </trkpt>
      <trkpt lat="45.12886" lon="1.17777">
        <ele>170.19999694824</ele>
        <time>2011-08-21T08:57:23.000Z</time>
      </trkpt>
      <trkpt lat="45.12865" lon="1.17768">
        <ele>173.19999694824</ele>
        <time>2011-08-21T08:57:32.000Z</time>
      </trkpt>
      <trkpt lat="45.12847" lon="1.17759">
        <ele>174.80000305176</ele>
        <time>2011-08-21T08:57:40.000Z</time>
      </trkpt>
      <trkpt lat="45.12826" lon="1.17747">
        <ele>177</ele>
        <time>2011-08-21T08:57:50.000Z</time>
      </trkpt>
      <trkpt lat="45.12807" lon="1.17734">
        <ele>177.80000305176</ele>
        <time>2011-08-21T08:57:59.000Z</time>
      </trkpt>
      <trkpt lat="45.12791" lon="1.17719">
        <ele>179.19999694824</ele>
        <time>2011-08-21T08:58:07.000Z</time>
      </trkpt>
      <trkpt lat="45.12775" lon="1.17706">
        <ele>181.19999694824</ele>
        <time>2011-08-21T08:58:15.000Z</time>
      </trkpt>
      <trkpt lat="45.12764" lon="1.17695">
        <ele>182</ele>
        <time>2011-08-21T08:58:21.000Z</time>
      </trkpt>
      <trkpt lat="45.12752" lon="1.17677">
        <ele>183.60000610352</ele>
        <time>2011-08-21T08:58:29.000Z</time>
      </trkpt>
      <trkpt lat="45.1275" lon="1.17658">
        <ele>185.80000305176</ele>
        <time>2011-08-21T08:58:35.000Z</time>
      </trkpt>
      <trkpt lat="45.12748" lon="1.17636">
        <ele>188</ele>
        <time>2011-08-21T08:58:42.000Z</time>
      </trkpt>
      <trkpt lat="45.12745" lon="1.17612">
        <ele>191</ele>
        <time>2011-08-21T08:58:50.000Z</time>
      </trkpt>
      <trkpt lat="45.12744" lon="1.17594">
        <ele>193.60000610352</ele>
        <time>2011-08-21T08:58:57.000Z</time>
      </trkpt>
      <trkpt lat="45.12743" lon="1.17577">
        <ele>195.60000610352</ele>
        <time>2011-08-21T08:59:03.000Z</time>
      </trkpt>
      <trkpt lat="45.12745" lon="1.17565">
        <ele>196.80000305176</ele>
        <time>2011-08-21T08:59:07.000Z</time>
      </trkpt>
      <trkpt lat="45.12753" lon="1.17561">
        <ele>197</ele>
        <time>2011-08-21T08:59:11.000Z</time>
      </trkpt>
      <trkpt lat="45.12788" lon="1.17567">
        <ele>198.60000610352</ele>
        <time>2011-08-21T08:59:24.000Z</time>
      </trkpt>
      <trkpt lat="45.12818" lon="1.17572">
        <ele>198.80000305176</ele>
        <time>2011-08-21T08:59:34.000Z</time>
      </trkpt>
      <trkpt lat="45.12851" lon="1.17577">
        <ele>198.60000610352</ele>
        <time>2011-08-21T08:59:43.000Z</time>
      </trkpt>
      <trkpt lat="45.12872" lon="1.17578">
        <ele>197.60000610352</ele>
        <time>2011-08-21T08:59:48.000Z</time>
      </trkpt>
      <trkpt lat="45.12887" lon="1.17566">
        <ele>196.60000610352</ele>
        <time>2011-08-21T08:59:52.000Z</time>
      </trkpt>
      <trkpt lat="45.12884" lon="1.17557">
        <ele>197</ele>
        <time>2011-08-21T08:59:54.000Z</time>
      </trkpt>
      <trkpt lat="45.12876" lon="1.17522">
        <ele>199.60000610352</ele>
        <time>2011-08-21T09:00:02.000Z</time>
      </trkpt>
      <trkpt lat="45.12877" lon="1.17481">
        <ele>202.19999694824</ele>
        <time>2011-08-21T09:00:11.000Z</time>
      </trkpt>
      <trkpt lat="45.12881" lon="1.17446">
        <ele>203.80000305176</ele>
        <time>2011-08-21T09:00:19.000Z</time>
      </trkpt>
      <trkpt lat="45.12875" lon="1.17414">
        <ele>203.39999389648</ele>
        <time>2011-08-21T09:00:25.000Z</time>
      </trkpt>
      <trkpt lat="45.12861" lon="1.17379">
        <ele>204.80000305176</ele>
        <time>2011-08-21T09:00:32.000Z</time>
      </trkpt>
      <trkpt lat="45.1286" lon="1.17377">
        <ele>205.39999389648</ele>
        <time>2011-08-21T09:00:33.000Z</time>
      </trkpt>
      <trkpt lat="45.12865" lon="1.17367">
        <ele>206.60000610352</ele>
        <time>2011-08-21T09:00:38.000Z</time>
      </trkpt>
      <trkpt lat="45.12868" lon="1.17365">
        <ele>207</ele>
        <time>2011-08-21T09:00:39.000Z</time>
      </trkpt>
      <trkpt lat="45.12883" lon="1.17356">
        <ele>204.19999694824</ele>
        <time>2011-08-21T09:00:44.000Z</time>
      </trkpt>
      <trkpt lat="45.12885" lon="1.17349">
        <ele>204.60000610352</ele>
        <time>2011-08-21T09:00:45.000Z</time>
      </trkpt>
      <trkpt lat="45.12898" lon="1.17287">
        <ele>195.39999389648</ele>
        <time>2011-08-21T09:00:50.000Z</time>
      </trkpt>
      <trkpt lat="45.12901" lon="1.17279">
        <ele>194.80000305176</ele>
        <time>2011-08-21T09:00:51.000Z</time>
      </trkpt>
      <trkpt lat="45.12908" lon="1.17261">
        <ele>192.19999694824</ele>
        <time>2011-08-21T09:00:53.000Z</time>
      </trkpt>
      <trkpt lat="45.12932" lon="1.17218">
        <ele>182.60000610352</ele>
        <time>2011-08-21T09:00:59.000Z</time>
      </trkpt>
      <trkpt lat="45.12946" lon="1.17175">
        <ele>177.19999694824</ele>
        <time>2011-08-21T09:01:04.000Z</time>
      </trkpt>
      <trkpt lat="45.12965" lon="1.17156">
        <ele>172</ele>
        <time>2011-08-21T09:01:09.000Z</time>
      </trkpt>
      <trkpt lat="45.12971" lon="1.17153">
        <ele>172.80000305176</ele>
        <time>2011-08-21T09:01:11.000Z</time>
      </trkpt>
      <trkpt lat="45.12981" lon="1.17162">
        <ele>174.39999389648</ele>
        <time>2011-08-21T09:01:16.000Z</time>
      </trkpt>
      <trkpt lat="45.12992" lon="1.17167">
        <ele>176.60000610352</ele>
        <time>2011-08-21T09:01:20.000Z</time>
      </trkpt>
      <trkpt lat="45.12996" lon="1.17172">
        <ele>176.80000305176</ele>
        <time>2011-08-21T09:01:22.000Z</time>
      </trkpt>
      <trkpt lat="45.13006" lon="1.17194">
        <ele>174.80000305176</ele>
        <time>2011-08-21T09:01:30.000Z</time>
      </trkpt>
      <trkpt lat="45.13017" lon="1.17214">
        <ele>174.19999694824</ele>
        <time>2011-08-21T09:01:37.000Z</time>
      </trkpt>
      <trkpt lat="45.13028" lon="1.17231">
        <ele>175.80000305176</ele>
        <time>2011-08-21T09:01:44.000Z</time>
      </trkpt>
      <trkpt lat="45.13038" lon="1.17239">
        <ele>174</ele>
        <time>2011-08-21T09:01:49.000Z</time>
      </trkpt>
      <trkpt lat="45.13047" lon="1.17244">
        <ele>174.80000305176</ele>
        <time>2011-08-21T09:01:53.000Z</time>
      </trkpt>
      <trkpt lat="45.1306" lon="1.1725">
        <ele>179</ele>
        <time>2011-08-21T09:01:58.000Z</time>
      </trkpt>
      <trkpt lat="45.1308" lon="1.17254">
        <ele>178.60000610352</ele>
        <time>2011-08-21T09:02:04.000Z</time>
      </trkpt>
      <trkpt lat="45.13102" lon="1.17266">
        <ele>180.19999694824</ele>
        <time>2011-08-21T09:02:11.000Z</time>
      </trkpt>
      <trkpt lat="45.13127" lon="1.17286">
        <ele>184.19999694824</ele>
        <time>2011-08-21T09:02:19.000Z</time>
      </trkpt>
      <trkpt lat="45.13148" lon="1.17317">
        <ele>183.39999389648</ele>
        <time>2011-08-21T09:02:28.000Z</time>
      </trkpt>
      <trkpt lat="45.13156" lon="1.17332">
        <ele>185</ele>
        <time>2011-08-21T09:02:33.000Z</time>
      </trkpt>
      <trkpt lat="45.13169" lon="1.17358">
        <ele>189.39999389648</ele>
        <time>2011-08-21T09:02:42.000Z</time>
      </trkpt>
      <trkpt lat="45.13177" lon="1.17374">
        <ele>194</ele>
        <time>2011-08-21T09:02:48.000Z</time>
      </trkpt>
      <trkpt lat="45.13186" lon="1.17385">
        <ele>196.80000305176</ele>
        <time>2011-08-21T09:02:53.000Z</time>
      </trkpt>
      <trkpt lat="45.13195" lon="1.17397">
        <ele>197.19999694824</ele>
        <time>2011-08-21T09:02:59.000Z</time>
      </trkpt>
      <trkpt lat="45.13201" lon="1.17409">
        <ele>199.19999694824</ele>
        <time>2011-08-21T09:03:04.000Z</time>
      </trkpt>
      <trkpt lat="45.1321" lon="1.17425">
        <ele>200.60000610352</ele>
        <time>2011-08-21T09:03:10.000Z</time>
      </trkpt>
      <trkpt lat="45.1322" lon="1.1745">
        <ele>202</ele>
        <time>2011-08-21T09:03:17.000Z</time>
      </trkpt>
      <trkpt lat="45.13234" lon="1.17485">
        <ele>201.19999694824</ele>
        <time>2011-08-21T09:03:27.000Z</time>
      </trkpt>
      <trkpt lat="45.13246" lon="1.17494">
        <ele>203.39999389648</ele>
        <time>2011-08-21T09:03:32.000Z</time>
      </trkpt>
      <trkpt lat="45.1326" lon="1.17485">
        <ele>206.19999694824</ele>
        <time>2011-08-21T09:03:40.000Z</time>
      </trkpt>
      <trkpt lat="45.13277" lon="1.17475">
        <ele>207.60000610352</ele>
        <time>2011-08-21T09:03:50.000Z</time>
      </trkpt>
      <trkpt lat="45.13292" lon="1.17467">
        <ele>207.19999694824</ele>
        <time>2011-08-21T09:03:59.000Z</time>
      </trkpt>
      <trkpt lat="45.13299" lon="1.17462">
        <ele>208.39999389648</ele>
        <time>2011-08-21T09:04:04.000Z</time>
      </trkpt>
      <trkpt lat="45.13302" lon="1.17441">
        <ele>214.39999389648</ele>
        <time>2011-08-21T09:04:13.000Z</time>
      </trkpt>
      <trkpt lat="45.133" lon="1.17423">
        <ele>218.39999389648</ele>
        <time>2011-08-21T09:04:20.000Z</time>
      </trkpt>
      <trkpt lat="45.13298" lon="1.17403">
        <ele>222</ele>
        <time>2011-08-21T09:04:28.000Z</time>
      </trkpt>
      <trkpt lat="45.13295" lon="1.17385">
        <ele>224.19999694824</ele>
        <time>2011-08-21T09:04:35.000Z</time>
      </trkpt>
      <trkpt lat="45.13292" lon="1.17365">
        <ele>225.80000305176</ele>
        <time>2011-08-21T09:04:41.000Z</time>
      </trkpt>
      <trkpt lat="45.13288" lon="1.17328">
        <ele>229.39999389648</ele>
        <time>2011-08-21T09:04:53.000Z</time>
      </trkpt>
      <trkpt lat="45.13288" lon="1.17307">
        <ele>232</ele>
        <time>2011-08-21T09:05:01.000Z</time>
      </trkpt>
      <trkpt lat="45.13291" lon="1.17287">
        <ele>233.80000305176</ele>
        <time>2011-08-21T09:05:08.000Z</time>
      </trkpt>
      <trkpt lat="45.13291" lon="1.17261">
        <ele>236.60000610352</ele>
        <time>2011-08-21T09:05:17.000Z</time>
      </trkpt>
      <trkpt lat="45.13292" lon="1.17247">
        <ele>239</ele>
        <time>2011-08-21T09:05:22.000Z</time>
      </trkpt>
      <trkpt lat="45.13292" lon="1.17227">
        <ele>241</ele>
        <time>2011-08-21T09:05:29.000Z</time>
      </trkpt>
      <trkpt lat="45.13287" lon="1.17196">
        <ele>245.19999694824</ele>
        <time>2011-08-21T09:05:40.000Z</time>
      </trkpt>
      <trkpt lat="45.13281" lon="1.17178">
        <ele>247</ele>
        <time>2011-08-21T09:05:47.000Z</time>
      </trkpt>
      <trkpt lat="45.13275" lon="1.17163">
        <ele>250.19999694824</ele>
        <time>2011-08-21T09:05:53.000Z</time>
      </trkpt>
      <trkpt lat="45.13272" lon="1.17154">
        <ele>251.39999389648</ele>
        <time>2011-08-21T09:05:57.000Z</time>
      </trkpt>
      <trkpt lat="45.13264" lon="1.17135">
        <ele>254.39999389648</ele>
        <time>2011-08-21T09:06:04.000Z</time>
      </trkpt>
      <trkpt lat="45.1326" lon="1.17117">
        <ele>255.80000305176</ele>
        <time>2011-08-21T09:06:10.000Z</time>
      </trkpt>
      <trkpt lat="45.13255" lon="1.17093">
        <ele>258.39999389648</ele>
        <time>2011-08-21T09:06:17.000Z</time>
      </trkpt>
      <trkpt lat="45.13252" lon="1.17075">
        <ele>261.20001220703</ele>
        <time>2011-08-21T09:06:23.000Z</time>
      </trkpt>
      <trkpt lat="45.13248" lon="1.17054">
        <ele>266.79998779297</ele>
        <time>2011-08-21T09:06:30.000Z</time>
      </trkpt>
      <trkpt lat="45.13247" lon="1.17038">
        <ele>271</ele>
        <time>2011-08-21T09:06:36.000Z</time>
      </trkpt>
      <trkpt lat="45.1325" lon="1.17019">
        <ele>274.60000610352</ele>
        <time>2011-08-21T09:06:43.000Z</time>
      </trkpt>
      <trkpt lat="45.13254" lon="1.16996">
        <ele>274.20001220703</ele>
        <time>2011-08-21T09:06:51.000Z</time>
      </trkpt>
      <trkpt lat="45.1326" lon="1.16972">
        <ele>272.39999389648</ele>
        <time>2011-08-21T09:06:59.000Z</time>
      </trkpt>
      <trkpt lat="45.13263" lon="1.16957">
        <ele>269.20001220703</ele>
        <time>2011-08-21T09:07:04.000Z</time>
      </trkpt>
      <trkpt lat="45.13268" lon="1.16932">
        <ele>267.20001220703</ele>
        <time>2011-08-21T09:07:12.000Z</time>
      </trkpt>
      <trkpt lat="45.13274" lon="1.16904">
        <ele>267.79998779297</ele>
        <time>2011-08-21T09:07:22.000Z</time>
      </trkpt>
      <trkpt lat="45.13279" lon="1.16878">
        <ele>267.79998779297</ele>
        <time>2011-08-21T09:07:31.000Z</time>
      </trkpt>
      <trkpt lat="45.13279" lon="1.16854">
        <ele>269</ele>
        <time>2011-08-21T09:07:39.000Z</time>
      </trkpt>
      <trkpt lat="45.13277" lon="1.16832">
        <ele>270.79998779297</ele>
        <time>2011-08-21T09:07:46.000Z</time>
      </trkpt>
      <trkpt lat="45.13277" lon="1.16811">
        <ele>271.20001220703</ele>
        <time>2011-08-21T09:07:53.000Z</time>
      </trkpt>
      <trkpt lat="45.13279" lon="1.16789">
        <ele>271.79998779297</ele>
        <time>2011-08-21T09:08:00.000Z</time>
      </trkpt>
      <trkpt lat="45.13283" lon="1.16761">
        <ele>272.60000610352</ele>
        <time>2011-08-21T09:08:09.000Z</time>
      </trkpt>
      <trkpt lat="45.13286" lon="1.16722">
        <ele>273.79998779297</ele>
        <time>2011-08-21T09:08:21.000Z</time>
      </trkpt>
      <trkpt lat="45.13286" lon="1.16694">
        <ele>274</ele>
        <time>2011-08-21T09:08:29.000Z</time>
      </trkpt>
      <trkpt lat="45.13283" lon="1.16667">
        <ele>272.60000610352</ele>
        <time>2011-08-21T09:08:36.000Z</time>
      </trkpt>
      <trkpt lat="45.13271" lon="1.1663">
        <ele>273.20001220703</ele>
        <time>2011-08-21T09:08:45.000Z</time>
      </trkpt>
      <trkpt lat="45.13265" lon="1.16602">
        <ele>273</ele>
        <time>2011-08-21T09:08:51.000Z</time>
      </trkpt>
      <trkpt lat="45.13257" lon="1.16583">
        <ele>273</ele>
        <time>2011-08-21T09:08:56.000Z</time>
      </trkpt>
      <trkpt lat="45.13238" lon="1.16563">
        <ele>272.79998779297</ele>
        <time>2011-08-21T09:09:03.000Z</time>
      </trkpt>
      <trkpt lat="45.13221" lon="1.16547">
        <ele>272.20001220703</ele>
        <time>2011-08-21T09:09:09.000Z</time>
      </trkpt>
      <trkpt lat="45.13195" lon="1.16525">
        <ele>273.60000610352</ele>
        <time>2011-08-21T09:09:18.000Z</time>
      </trkpt>
      <trkpt lat="45.1317" lon="1.16513">
        <ele>273.79998779297</ele>
        <time>2011-08-21T09:09:26.000Z</time>
      </trkpt>
      <trkpt lat="45.13143" lon="1.16504">
        <ele>273.79998779297</ele>
        <time>2011-08-21T09:09:34.000Z</time>
      </trkpt>
      <trkpt lat="45.13106" lon="1.16489">
        <ele>272.39999389648</ele>
        <time>2011-08-21T09:09:43.000Z</time>
      </trkpt>
      <trkpt lat="45.13069" lon="1.16472">
        <ele>271.39999389648</ele>
        <time>2011-08-21T09:09:51.000Z</time>
      </trkpt>
      <trkpt lat="45.13054" lon="1.16464">
        <ele>271</ele>
        <time>2011-08-21T09:09:54.000Z</time>
      </trkpt>
      <trkpt lat="45.13045" lon="1.1646">
        <ele>271</ele>
        <time>2011-08-21T09:09:56.000Z</time>
      </trkpt>
      <trkpt lat="45.13018" lon="1.16445">
        <ele>271.39999389648</ele>
        <time>2011-08-21T09:10:01.000Z</time>
      </trkpt>
      <trkpt lat="45.13012" lon="1.16441">
        <ele>271.60000610352</ele>
        <time>2011-08-21T09:10:02.000Z</time>
      </trkpt>
      <trkpt lat="45.12982" lon="1.16418">
        <ele>271.39999389648</ele>
        <time>2011-08-21T09:10:08.000Z</time>
      </trkpt>
      <trkpt lat="45.12953" lon="1.16405">
        <ele>271.79998779297</ele>
        <time>2011-08-21T09:10:15.000Z</time>
      </trkpt>
      <trkpt lat="45.12934" lon="1.16402">
        <ele>271.60000610352</ele>
        <time>2011-08-21T09:10:21.000Z</time>
      </trkpt>
      <trkpt lat="45.12925" lon="1.16393">
        <ele>272</ele>
        <time>2011-08-21T09:10:25.000Z</time>
      </trkpt>
      <trkpt lat="45.12914" lon="1.16378">
        <ele>273.79998779297</ele>
        <time>2011-08-21T09:10:31.000Z</time>
      </trkpt>
      <trkpt lat="45.129" lon="1.16362">
        <ele>274.79998779297</ele>
        <time>2011-08-21T09:10:37.000Z</time>
      </trkpt>
      <trkpt lat="45.12885" lon="1.16345">
        <ele>275.39999389648</ele>
        <time>2011-08-21T09:10:44.000Z</time>
      </trkpt>
      <trkpt lat="45.12868" lon="1.16346">
        <ele>275.39999389648</ele>
        <time>2011-08-21T09:10:51.000Z</time>
      </trkpt>
      <trkpt lat="45.12845" lon="1.16369">
        <ele>274.20001220703</ele>
        <time>2011-08-21T09:10:59.000Z</time>
      </trkpt>
      <trkpt lat="45.12828" lon="1.1637">
        <ele>271.79998779297</ele>
        <time>2011-08-21T09:11:03.000Z</time>
      </trkpt>
      <trkpt lat="45.12807" lon="1.16363">
        <ele>269.39999389648</ele>
        <time>2011-08-21T09:11:06.000Z</time>
      </trkpt>
      <trkpt lat="45.12746" lon="1.16336">
        <ele>261.79998779297</ele>
        <time>2011-08-21T09:11:14.000Z</time>
      </trkpt>
      <trkpt lat="45.12741" lon="1.16327">
        <ele>260.20001220703</ele>
        <time>2011-08-21T09:11:17.000Z</time>
      </trkpt>
      <trkpt lat="45.12741" lon="1.16308">
        <ele>258.79998779297</ele>
        <time>2011-08-21T09:11:20.000Z</time>
      </trkpt>
      <trkpt lat="45.12731" lon="1.16285">
        <ele>256.39999389648</ele>
        <time>2011-08-21T09:11:24.000Z</time>
      </trkpt>
      <trkpt lat="45.12714" lon="1.16294">
        <ele>253.39999389648</ele>
        <time>2011-08-21T09:11:27.000Z</time>
      </trkpt>
      <trkpt lat="45.12703" lon="1.16309">
        <ele>252</ele>
        <time>2011-08-21T09:11:29.000Z</time>
      </trkpt>
      <trkpt lat="45.12652" lon="1.16375">
        <ele>248.80000305176</ele>
        <time>2011-08-21T09:11:38.000Z</time>
      </trkpt>
      <trkpt lat="45.1262" lon="1.16412">
        <ele>250.19999694824</ele>
        <time>2011-08-21T09:11:45.000Z</time>
      </trkpt>
      <trkpt lat="45.12604" lon="1.1643">
        <ele>250.80000305176</ele>
        <time>2011-08-21T09:11:49.000Z</time>
      </trkpt>
      <trkpt lat="45.12588" lon="1.16431">
        <ele>250.19999694824</ele>
        <time>2011-08-21T09:11:53.000Z</time>
      </trkpt>
      <trkpt lat="45.12582" lon="1.16417">
        <ele>248.80000305176</ele>
        <time>2011-08-21T09:11:55.000Z</time>
      </trkpt>
      <trkpt lat="45.12562" lon="1.16356">
        <ele>243.80000305176</ele>
        <time>2011-08-21T09:12:01.000Z</time>
      </trkpt>
      <trkpt lat="45.12558" lon="1.16344">
        <ele>242.80000305176</ele>
        <time>2011-08-21T09:12:02.000Z</time>
      </trkpt>
      <trkpt lat="45.12525" lon="1.16289">
        <ele>237.80000305176</ele>
        <time>2011-08-21T09:12:07.000Z</time>
      </trkpt>
      <trkpt lat="45.12489" lon="1.16233">
        <ele>233.39999389648</ele>
        <time>2011-08-21T09:12:12.000Z</time>
      </trkpt>
      <trkpt lat="45.12468" lon="1.16201">
        <ele>229.60000610352</ele>
        <time>2011-08-21T09:12:16.000Z</time>
      </trkpt>
      <trkpt lat="45.12458" lon="1.16188">
        <ele>227.39999389648</ele>
        <time>2011-08-21T09:12:18.000Z</time>
      </trkpt>
      <trkpt lat="45.1244" lon="1.1616">
        <ele>223.80000305176</ele>
        <time>2011-08-21T09:12:21.000Z</time>
      </trkpt>
      <trkpt lat="45.12423" lon="1.16125">
        <ele>220</ele>
        <time>2011-08-21T09:12:24.000Z</time>
      </trkpt>
      <trkpt lat="45.1238" lon="1.16089">
        <ele>214.39999389648</ele>
        <time>2011-08-21T09:12:29.000Z</time>
      </trkpt>
      <trkpt lat="45.12323" lon="1.16061">
        <ele>210</ele>
        <time>2011-08-21T09:12:35.000Z</time>
      </trkpt>
      <trkpt lat="45.12266" lon="1.16049">
        <ele>203.80000305176</ele>
        <time>2011-08-21T09:12:40.000Z</time>
      </trkpt>
      <trkpt lat="45.1221" lon="1.16019">
        <ele>196</ele>
        <time>2011-08-21T09:12:45.000Z</time>
      </trkpt>
      <trkpt lat="45.12201" lon="1.1601">
        <ele>193.60000610352</ele>
        <time>2011-08-21T09:12:46.000Z</time>
      </trkpt>
      <trkpt lat="45.12179" lon="1.15953">
        <ele>191.60000610352</ele>
        <time>2011-08-21T09:12:50.000Z</time>
      </trkpt>
      <trkpt lat="45.12165" lon="1.15942">
        <ele>189.19999694824</ele>
        <time>2011-08-21T09:12:52.000Z</time>
      </trkpt>
      <trkpt lat="45.12148" lon="1.1594">
        <ele>187</ele>
        <time>2011-08-21T09:12:54.000Z</time>
      </trkpt>
      <trkpt lat="45.12101" lon="1.15935">
        <ele>181.80000305176</ele>
        <time>2011-08-21T09:13:00.000Z</time>
      </trkpt>
      <trkpt lat="45.12093" lon="1.15935">
        <ele>180.60000610352</ele>
        <time>2011-08-21T09:13:01.000Z</time>
      </trkpt>
      <trkpt lat="45.12039" lon="1.15934">
        <ele>180</ele>
        <time>2011-08-21T09:13:07.000Z</time>
      </trkpt>
      <trkpt lat="45.12031" lon="1.15934">
        <ele>179.39999389648</ele>
        <time>2011-08-21T09:13:08.000Z</time>
      </trkpt>
      <trkpt lat="45.11987" lon="1.15928">
        <ele>177.19999694824</ele>
        <time>2011-08-21T09:13:13.000Z</time>
      </trkpt>
      <trkpt lat="45.11945" lon="1.15923">
        <ele>176.19999694824</ele>
        <time>2011-08-21T09:13:18.000Z</time>
      </trkpt>
      <trkpt lat="45.11908" lon="1.15918">
        <ele>175.80000305176</ele>
        <time>2011-08-21T09:13:23.000Z</time>
      </trkpt>
      <trkpt lat="45.11876" lon="1.15927">
        <ele>174</ele>
        <time>2011-08-21T09:13:28.000Z</time>
      </trkpt>
      <trkpt lat="45.11831" lon="1.15964">
        <ele>171</ele>
        <time>2011-08-21T09:13:35.000Z</time>
      </trkpt>
      <trkpt lat="45.11801" lon="1.15994">
        <ele>170</ele>
        <time>2011-08-21T09:13:40.000Z</time>
      </trkpt>
      <trkpt lat="45.11769" lon="1.16022">
        <ele>167.80000305176</ele>
        <time>2011-08-21T09:13:45.000Z</time>
      </trkpt>
      <trkpt lat="45.11714" lon="1.16063">
        <ele>166.80000305176</ele>
        <time>2011-08-21T09:13:53.000Z</time>
      </trkpt>
      <trkpt lat="45.11677" lon="1.16074">
        <ele>165.39999389648</ele>
        <time>2011-08-21T09:13:58.000Z</time>
      </trkpt>
      <trkpt lat="45.11656" lon="1.16082">
        <ele>164.60000610352</ele>
        <time>2011-08-21T09:14:01.000Z</time>
      </trkpt>
      <trkpt lat="45.11598" lon="1.16089">
        <ele>163.80000305176</ele>
        <time>2011-08-21T09:14:09.000Z</time>
      </trkpt>
      <trkpt lat="45.11584" lon="1.16088">
        <ele>162.60000610352</ele>
        <time>2011-08-21T09:14:11.000Z</time>
      </trkpt>
      <trkpt lat="45.11558" lon="1.16091">
        <ele>162.60000610352</ele>
        <time>2011-08-21T09:14:15.000Z</time>
      </trkpt>
      <trkpt lat="45.11512" lon="1.16096">
        <ele>163.19999694824</ele>
        <time>2011-08-21T09:14:23.000Z</time>
      </trkpt>
      <trkpt lat="45.11482" lon="1.16099">
        <ele>164.80000305176</ele>
        <time>2011-08-21T09:14:29.000Z</time>
      </trkpt>
      <trkpt lat="45.11464" lon="1.16102">
        <ele>164.80000305176</ele>
        <time>2011-08-21T09:14:33.000Z</time>
      </trkpt>
      <trkpt lat="45.11426" lon="1.16118">
        <ele>164.19999694824</ele>
        <time>2011-08-21T09:14:41.000Z</time>
      </trkpt>
      <trkpt lat="45.11408" lon="1.16126">
        <ele>162.80000305176</ele>
        <time>2011-08-21T09:14:44.000Z</time>
      </trkpt>
      <trkpt lat="45.11384" lon="1.16138">
        <ele>160.39999389648</ele>
        <time>2011-08-21T09:14:48.000Z</time>
      </trkpt>
      <trkpt lat="45.11341" lon="1.16176">
        <ele>156.60000610352</ele>
        <time>2011-08-21T09:14:55.000Z</time>
      </trkpt>
      <trkpt lat="45.11325" lon="1.16192">
        <ele>156</ele>
        <time>2011-08-21T09:14:58.000Z</time>
      </trkpt>
      <trkpt lat="45.11307" lon="1.16207">
        <ele>157.60000610352</ele>
        <time>2011-08-21T09:15:01.000Z</time>
      </trkpt>
      <trkpt lat="45.11288" lon="1.16221">
        <ele>161.60000610352</ele>
        <time>2011-08-21T09:15:04.000Z</time>
      </trkpt>
      <trkpt lat="45.11249" lon="1.16245">
        <ele>164.19999694824</ele>
        <time>2011-08-21T09:15:10.000Z</time>
      </trkpt>
      <trkpt lat="45.11202" lon="1.16263">
        <ele>165.39999389648</ele>
        <time>2011-08-21T09:15:17.000Z</time>
      </trkpt>
      <trkpt lat="45.11173" lon="1.1627">
        <ele>164.39999389648</ele>
        <time>2011-08-21T09:15:22.000Z</time>
      </trkpt>
      <trkpt lat="45.11142" lon="1.16292">
        <ele>157.80000305176</ele>
        <time>2011-08-21T09:15:26.000Z</time>
      </trkpt>
      <trkpt lat="45.11084" lon="1.16341">
        <ele>152</ele>
        <time>2011-08-21T09:15:32.000Z</time>
      </trkpt>
      <trkpt lat="45.11049" lon="1.16383">
        <ele>150</ele>
        <time>2011-08-21T09:15:36.000Z</time>
      </trkpt>
      <trkpt lat="45.11012" lon="1.16417">
        <ele>147.80000305176</ele>
        <time>2011-08-21T09:15:40.000Z</time>
      </trkpt>
      <trkpt lat="45.10963" lon="1.16454">
        <ele>142.80000305176</ele>
        <time>2011-08-21T09:15:45.000Z</time>
      </trkpt>
      <trkpt lat="45.10942" lon="1.16466">
        <ele>139.80000305176</ele>
        <time>2011-08-21T09:15:48.000Z</time>
      </trkpt>
      <trkpt lat="45.10937" lon="1.16469">
        <ele>139</ele>
        <time>2011-08-21T09:15:49.000Z</time>
      </trkpt>
      <trkpt lat="45.10925" lon="1.16497">
        <ele>136.39999389648</ele>
        <time>2011-08-21T09:15:53.000Z</time>
      </trkpt>
      <trkpt lat="45.10925" lon="1.16506">
        <ele>136.19999694824</ele>
        <time>2011-08-21T09:15:54.000Z</time>
      </trkpt>
      <trkpt lat="45.10914" lon="1.16563">
        <ele>133.39999389648</ele>
        <time>2011-08-21T09:16:00.000Z</time>
      </trkpt>
      <trkpt lat="45.10896" lon="1.16617">
        <ele>132.39999389648</ele>
        <time>2011-08-21T09:16:06.000Z</time>
      </trkpt>
      <trkpt lat="45.10894" lon="1.16625">
        <ele>132.39999389648</ele>
        <time>2011-08-21T09:16:07.000Z</time>
      </trkpt>
      <trkpt lat="45.1089" lon="1.1664">
        <ele>132.39999389648</ele>
        <time>2011-08-21T09:16:09.000Z</time>
      </trkpt>
      <trkpt lat="45.10893" lon="1.16664">
        <ele>133.39999389648</ele>
        <time>2011-08-21T09:16:13.000Z</time>
      </trkpt>
      <trkpt lat="45.10909" lon="1.16675">
        <ele>133.80000305176</ele>
        <time>2011-08-21T09:16:17.000Z</time>
      </trkpt>
      <trkpt lat="45.10919" lon="1.16685">
        <ele>134.19999694824</ele>
        <time>2011-08-21T09:16:20.000Z</time>
      </trkpt>
      <trkpt lat="45.10932" lon="1.16705">
        <ele>135.80000305176</ele>
        <time>2011-08-21T09:16:26.000Z</time>
      </trkpt>
      <trkpt lat="45.10936" lon="1.16721">
        <ele>137.60000610352</ele>
        <time>2011-08-21T09:16:32.000Z</time>
      </trkpt>
      <trkpt lat="45.10935" lon="1.16743">
        <ele>141</ele>
        <time>2011-08-21T09:16:41.000Z</time>
      </trkpt>
      <trkpt lat="45.10937" lon="1.16761">
        <ele>143.60000610352</ele>
        <time>2011-08-21T09:16:48.000Z</time>
      </trkpt>
      <trkpt lat="45.10943" lon="1.16778">
        <ele>146.39999389648</ele>
        <time>2011-08-21T09:16:56.000Z</time>
      </trkpt>
      <trkpt lat="45.10951" lon="1.16794">
        <ele>147.60000610352</ele>
        <time>2011-08-21T09:17:03.000Z</time>
      </trkpt>
      <trkpt lat="45.10962" lon="1.16815">
        <ele>149.80000305176</ele>
        <time>2011-08-21T09:17:13.000Z</time>
      </trkpt>
      <trkpt lat="45.10969" lon="1.16829">
        <ele>151.19999694824</ele>
        <time>2011-08-21T09:17:20.000Z</time>
      </trkpt>
      <trkpt lat="45.10978" lon="1.16848">
        <ele>153.19999694824</ele>
        <time>2011-08-21T09:17:29.000Z</time>
      </trkpt>
      <trkpt lat="45.10985" lon="1.16868">
        <ele>155.19999694824</ele>
        <time>2011-08-21T09:17:38.000Z</time>
      </trkpt>
      <trkpt lat="45.10988" lon="1.16889">
        <ele>157.60000610352</ele>
        <time>2011-08-21T09:17:46.000Z</time>
      </trkpt>
      <trkpt lat="45.1099" lon="1.16915">
        <ele>159.80000305176</ele>
        <time>2011-08-21T09:17:56.000Z</time>
      </trkpt>
      <trkpt lat="45.10993" lon="1.16939">
        <ele>161.60000610352</ele>
        <time>2011-08-21T09:18:05.000Z</time>
      </trkpt>
      <trkpt lat="45.10996" lon="1.16971">
        <ele>163.80000305176</ele>
        <time>2011-08-21T09:18:16.000Z</time>
      </trkpt>
      <trkpt lat="45.10999" lon="1.17005">
        <ele>165.19999694824</ele>
        <time>2011-08-21T09:18:27.000Z</time>
      </trkpt>
      <trkpt lat="45.11004" lon="1.17041">
        <ele>166.19999694824</ele>
        <time>2011-08-21T09:18:38.000Z</time>
      </trkpt>
      <trkpt lat="45.11008" lon="1.17081">
        <ele>167.39999389648</ele>
        <time>2011-08-21T09:18:49.000Z</time>
      </trkpt>
      <trkpt lat="45.1101" lon="1.17113">
        <ele>169.39999389648</ele>
        <time>2011-08-21T09:18:59.000Z</time>
      </trkpt>
      <trkpt lat="45.1101" lon="1.17136">
        <ele>169.80000305176</ele>
        <time>2011-08-21T09:19:07.000Z</time>
      </trkpt>
      <trkpt lat="45.1101" lon="1.17158">
        <ele>171.39999389648</ele>
        <time>2011-08-21T09:19:15.000Z</time>
      </trkpt>
      <trkpt lat="45.11011" lon="1.17179">
        <ele>173</ele>
        <time>2011-08-21T09:19:22.000Z</time>
      </trkpt>
      <trkpt lat="45.11013" lon="1.17199">
        <ele>175.19999694824</ele>
        <time>2011-08-21T09:19:29.000Z</time>
      </trkpt>
      <trkpt lat="45.11012" lon="1.17218">
        <ele>178.39999389648</ele>
        <time>2011-08-21T09:19:36.000Z</time>
      </trkpt>
      <trkpt lat="45.11007" lon="1.1725">
        <ele>181.19999694824</ele>
        <time>2011-08-21T09:19:47.000Z</time>
      </trkpt>
      <trkpt lat="45.11002" lon="1.17262">
        <ele>181.19999694824</ele>
        <time>2011-08-21T09:19:53.000Z</time>
      </trkpt>
      <trkpt lat="45.10999" lon="1.17272">
        <ele>182.80000305176</ele>
        <time>2011-08-21T09:19:59.000Z</time>
      </trkpt>
      <trkpt lat="45.10995" lon="1.17284">
        <ele>184</ele>
        <time>2011-08-21T09:20:05.000Z</time>
      </trkpt>
      <trkpt lat="45.1099" lon="1.17298">
        <ele>184.60000610352</ele>
        <time>2011-08-21T09:20:12.000Z</time>
      </trkpt>
      <trkpt lat="45.10985" lon="1.17313">
        <ele>185.60000610352</ele>
        <time>2011-08-21T09:20:19.000Z</time>
      </trkpt>
      <trkpt lat="45.10982" lon="1.17326">
        <ele>187.19999694824</ele>
        <time>2011-08-21T09:20:25.000Z</time>
      </trkpt>
      <trkpt lat="45.10979" lon="1.17336">
        <ele>187.60000610352</ele>
        <time>2011-08-21T09:20:30.000Z</time>
      </trkpt>
      <trkpt lat="45.10976" lon="1.17347">
        <ele>188.60000610352</ele>
        <time>2011-08-21T09:20:36.000Z</time>
      </trkpt>
      <trkpt lat="45.1097" lon="1.1736">
        <ele>190.39999389648</ele>
        <time>2011-08-21T09:20:43.000Z</time>
      </trkpt>
      <trkpt lat="45.10967" lon="1.17368">
        <ele>192.39999389648</ele>
        <time>2011-08-21T09:20:48.000Z</time>
      </trkpt>
      <trkpt lat="45.10961" lon="1.17388">
        <ele>195.80000305176</ele>
        <time>2011-08-21T09:20:58.000Z</time>
      </trkpt>
      <trkpt lat="45.10961" lon="1.17404">
        <ele>196.80000305176</ele>
        <time>2011-08-21T09:21:04.000Z</time>
      </trkpt>
      <trkpt lat="45.10968" lon="1.17422">
        <ele>194.19999694824</ele>
        <time>2011-08-21T09:21:12.000Z</time>
      </trkpt>
      <trkpt lat="45.10978" lon="1.17441">
        <ele>192.39999389648</ele>
        <time>2011-08-21T09:21:17.000Z</time>
      </trkpt>
      <trkpt lat="45.10985" lon="1.17466">
        <ele>192.60000610352</ele>
        <time>2011-08-21T09:21:22.000Z</time>
      </trkpt>
      <trkpt lat="45.1099" lon="1.17484">
        <ele>192.60000610352</ele>
        <time>2011-08-21T09:21:27.000Z</time>
      </trkpt>
      <trkpt lat="45.11" lon="1.17514">
        <ele>193.80000305176</ele>
        <time>2011-08-21T09:21:36.000Z</time>
      </trkpt>
      <trkpt lat="45.11004" lon="1.17539">
        <ele>195.60000610352</ele>
        <time>2011-08-21T09:21:43.000Z</time>
      </trkpt>
      <trkpt lat="45.11008" lon="1.17572">
        <ele>198</ele>
        <time>2011-08-21T09:21:52.000Z</time>
      </trkpt>
      <trkpt lat="45.11011" lon="1.17599">
        <ele>200.60000610352</ele>
        <time>2011-08-21T09:22:00.000Z</time>
      </trkpt>
      <trkpt lat="45.11015" lon="1.17627">
        <ele>199.60000610352</ele>
        <time>2011-08-21T09:22:08.000Z</time>
      </trkpt>
      <trkpt lat="45.11022" lon="1.17658">
        <ele>200.19999694824</ele>
        <time>2011-08-21T09:22:17.000Z</time>
      </trkpt>
      <trkpt lat="45.11032" lon="1.1768">
        <ele>202.39999389648</ele>
        <time>2011-08-21T09:22:25.000Z</time>
      </trkpt>
      <trkpt lat="45.11046" lon="1.17689">
        <ele>204.19999694824</ele>
        <time>2011-08-21T09:22:31.000Z</time>
      </trkpt>
      <trkpt lat="45.11066" lon="1.17696">
        <ele>207.19999694824</ele>
        <time>2011-08-21T09:22:40.000Z</time>
      </trkpt>
      <trkpt lat="45.11084" lon="1.17711">
        <ele>210.19999694824</ele>
        <time>2011-08-21T09:22:49.000Z</time>
      </trkpt>
      <trkpt lat="45.1109" lon="1.17733">
        <ele>211.80000305176</ele>
        <time>2011-08-21T09:22:57.000Z</time>
      </trkpt>
      <trkpt lat="45.11095" lon="1.17754">
        <ele>213.60000610352</ele>
        <time>2011-08-21T09:23:04.000Z</time>
      </trkpt>
      <trkpt lat="45.11102" lon="1.17787">
        <ele>215.80000305176</ele>
        <time>2011-08-21T09:23:15.000Z</time>
      </trkpt>
      <trkpt lat="45.11111" lon="1.17814">
        <ele>217.39999389648</ele>
        <time>2011-08-21T09:23:25.000Z</time>
      </trkpt>
      <trkpt lat="45.11123" lon="1.17837">
        <ele>218.39999389648</ele>
        <time>2011-08-21T09:23:34.000Z</time>
      </trkpt>
      <trkpt lat="45.11133" lon="1.17864">
        <ele>219.19999694824</ele>
        <time>2011-08-21T09:23:43.000Z</time>
      </trkpt>
      <trkpt lat="45.11141" lon="1.17895">
        <ele>220</ele>
        <time>2011-08-21T09:23:52.000Z</time>
      </trkpt>
      <trkpt lat="45.11144" lon="1.17925">
        <ele>220.60000610352</ele>
        <time>2011-08-21T09:24:00.000Z</time>
      </trkpt>
      <trkpt lat="45.11144" lon="1.17968">
        <ele>221.19999694824</ele>
        <time>2011-08-21T09:24:11.000Z</time>
      </trkpt>
      <trkpt lat="45.11144" lon="1.18003">
        <ele>221.39999389648</ele>
        <time>2011-08-21T09:24:20.000Z</time>
      </trkpt>
      <trkpt lat="45.11147" lon="1.18052">
        <ele>222.60000610352</ele>
        <time>2011-08-21T09:24:31.000Z</time>
      </trkpt>
      <trkpt lat="45.11151" lon="1.18088">
        <ele>223.39999389648</ele>
        <time>2011-08-21T09:24:39.000Z</time>
      </trkpt>
      <trkpt lat="45.11162" lon="1.18128">
        <ele>224.39999389648</ele>
        <time>2011-08-21T09:24:48.000Z</time>
      </trkpt>
      <trkpt lat="45.11185" lon="1.18173">
        <ele>224.19999694824</ele>
        <time>2011-08-21T09:24:59.000Z</time>
      </trkpt>
      <trkpt lat="45.11205" lon="1.18201">
        <ele>223.80000305176</ele>
        <time>2011-08-21T09:25:06.000Z</time>
      </trkpt>
      <trkpt lat="45.11221" lon="1.18225">
        <ele>223.80000305176</ele>
        <time>2011-08-21T09:25:12.000Z</time>
      </trkpt>
      <trkpt lat="45.11233" lon="1.18265">
        <ele>224.19999694824</ele>
        <time>2011-08-21T09:25:20.000Z</time>
      </trkpt>
      <trkpt lat="45.11247" lon="1.18306">
        <ele>224</ele>
        <time>2011-08-21T09:25:29.000Z</time>
      </trkpt>
      <trkpt lat="45.11251" lon="1.18315">
        <ele>223.80000305176</ele>
        <time>2011-08-21T09:25:31.000Z</time>
      </trkpt>
      <trkpt lat="45.11264" lon="1.18353">
        <ele>220.39999389648</ele>
        <time>2011-08-21T09:25:37.000Z</time>
      </trkpt>
      <trkpt lat="45.11267" lon="1.18361">
        <ele>220</ele>
        <time>2011-08-21T09:25:38.000Z</time>
      </trkpt>
      <trkpt lat="45.11289" lon="1.18416">
        <ele>217</ele>
        <time>2011-08-21T09:25:45.000Z</time>
      </trkpt>
      <trkpt lat="45.11311" lon="1.18452">
        <ele>215.60000610352</ele>
        <time>2011-08-21T09:25:50.000Z</time>
      </trkpt>
      <trkpt lat="45.11343" lon="1.18486">
        <ele>215.80000305176</ele>
        <time>2011-08-21T09:25:57.000Z</time>
      </trkpt>
      <trkpt lat="45.11361" lon="1.18499">
        <ele>216.39999389648</ele>
        <time>2011-08-21T09:26:02.000Z</time>
      </trkpt>
      <trkpt lat="45.11364" lon="1.18504">
        <ele>216.60000610352</ele>
        <time>2011-08-21T09:26:05.000Z</time>
      </trkpt>
      <trkpt lat="45.11364" lon="1.18504">
        <ele>216.60000610352</ele>
        <time>2011-08-21T09:26:06.000Z</time>
      </trkpt>
      <trkpt lat="45.11369" lon="1.18505">
        <ele>218.19999694824</ele>
        <time>2011-08-21T09:27:03.000Z</time>
      </trkpt>
      <trkpt lat="45.11384" lon="1.1852">
        <ele>219.19999694824</ele>
        <time>2011-08-21T09:27:10.000Z</time>
      </trkpt>
      <trkpt lat="45.114" lon="1.18532">
        <ele>220.60000610352</ele>
        <time>2011-08-21T09:27:17.000Z</time>
      </trkpt>
      <trkpt lat="45.11418" lon="1.18542">
        <ele>222.39999389648</ele>
        <time>2011-08-21T09:27:25.000Z</time>
      </trkpt>
      <trkpt lat="45.11432" lon="1.18559">
        <ele>224.80000305176</ele>
        <time>2011-08-21T09:27:32.000Z</time>
      </trkpt>
      <trkpt lat="45.11439" lon="1.18573">
        <ele>226.39999389648</ele>
        <time>2011-08-21T09:27:38.000Z</time>
      </trkpt>
      <trkpt lat="45.1145" lon="1.18597">
        <ele>227.39999389648</ele>
        <time>2011-08-21T09:27:46.000Z</time>
      </trkpt>
      <trkpt lat="45.11461" lon="1.18616">
        <ele>227.80000305176</ele>
        <time>2011-08-21T09:27:53.000Z</time>
      </trkpt>
      <trkpt lat="45.11474" lon="1.18645">
        <ele>229</ele>
        <time>2011-08-21T09:28:02.000Z</time>
      </trkpt>
      <trkpt lat="45.1148" lon="1.18663">
        <ele>230.80000305176</ele>
        <time>2011-08-21T09:28:09.000Z</time>
      </trkpt>
      <trkpt lat="45.11483" lon="1.18676">
        <ele>232</ele>
        <time>2011-08-21T09:28:15.000Z</time>
      </trkpt>
      <trkpt lat="45.11487" lon="1.18688">
        <ele>232.60000610352</ele>
        <time>2011-08-21T09:28:21.000Z</time>
      </trkpt>
      <trkpt lat="45.11491" lon="1.18705">
        <ele>235.80000305176</ele>
        <time>2011-08-21T09:28:27.000Z</time>
      </trkpt>
      <trkpt lat="45.11492" lon="1.18728">
        <ele>236.60000610352</ele>
        <time>2011-08-21T09:28:34.000Z</time>
      </trkpt>
      <trkpt lat="45.11493" lon="1.18754">
        <ele>238.39999389648</ele>
        <time>2011-08-21T09:28:40.000Z</time>
      </trkpt>
      <trkpt lat="45.11497" lon="1.18781">
        <ele>238.80000305176</ele>
        <time>2011-08-21T09:28:47.000Z</time>
      </trkpt>
      <trkpt lat="45.115" lon="1.18807">
        <ele>237.39999389648</ele>
        <time>2011-08-21T09:28:52.000Z</time>
      </trkpt>
      <trkpt lat="45.11501" lon="1.18858">
        <ele>237</ele>
        <time>2011-08-21T09:28:59.000Z</time>
      </trkpt>
      <trkpt lat="45.11496" lon="1.18912">
        <ele>236.60000610352</ele>
        <time>2011-08-21T09:29:06.000Z</time>
      </trkpt>
      <trkpt lat="45.11488" lon="1.18949">
        <ele>236</ele>
        <time>2011-08-21T09:29:12.000Z</time>
      </trkpt>
      <trkpt lat="45.11485" lon="1.18961">
        <ele>235.39999389648</ele>
        <time>2011-08-21T09:29:14.000Z</time>
      </trkpt>
    </trkseg>
  </trk>
</gpx>